<?xml version="1.0" encoding="UTF-8"?>
<gpx version="1.1" creator=" " xmlns="http://www.topografix.com/GPX/1/1" xmlns:xsi="http://www.w3.org/2001/XMLSchema-instance" xsi:schemaLocation="http://www.topografix.com/GPX/1/1 http://www.topografix.com/GPX/1/1/gpx.xsd">
<metadata>
<name>Anfahrt Ehrwaldbahn</name>
<desc></desc>
<link href="">
<text>  </text>
</link>
<time>2020-09-12T09:23:09Z</time>
</metadata>
<trk>
<trkseg>
<trkpt lat="47.407379" lon="10.861515">
<ele>999.537</ele>
</trkpt>
<trkpt lat="47.407379" lon="10.861515">
<ele>999.537</ele>
<time>2020-09-12T09:23:09Z</time>
</trkpt>
<trkpt lat="47.407364" lon="10.861584">
<ele>999.068</ele>
<time>2020-09-12T09:23:18Z</time>
</trkpt>
<trkpt lat="47.407349" lon="10.861593">
<ele>998.984</ele>
<time>2020-09-12T09:23:19Z</time>
</trkpt>
<trkpt lat="47.40733" lon="10.861604">
<ele>998.95</ele>
<time>2020-09-12T09:23:20Z</time>
</trkpt>
<trkpt lat="47.40731" lon="10.861621">
<ele>998.932</ele>
<time>2020-09-12T09:23:21Z</time>
</trkpt>
<trkpt lat="47.407295" lon="10.86164">
<ele>998.922</ele>
<time>2020-09-12T09:23:22Z</time>
</trkpt>
<trkpt lat="47.407288" lon="10.861669">
<ele>998.896</ele>
<time>2020-09-12T09:23:23Z</time>
</trkpt>
<trkpt lat="47.407291" lon="10.861705">
<ele>998.896</ele>
<time>2020-09-12T09:23:24Z</time>
</trkpt>
<trkpt lat="47.407303" lon="10.861743">
<ele>998.896</ele>
<time>2020-09-12T09:23:25Z</time>
</trkpt>
<trkpt lat="47.407322" lon="10.861783">
<ele>998.896</ele>
<time>2020-09-12T09:23:26Z</time>
</trkpt>
<trkpt lat="47.407356" lon="10.861818">
<ele>998.896</ele>
<time>2020-09-12T09:23:27Z</time>
</trkpt>
<trkpt lat="47.407398" lon="10.861847">
<ele>998.896</ele>
<time>2020-09-12T09:23:28Z</time>
</trkpt>
<trkpt lat="47.407452" lon="10.861866">
<ele>998.896</ele>
<time>2020-09-12T09:23:29Z</time>
</trkpt>
<trkpt lat="47.407501" lon="10.861878">
<ele>998.896</ele>
<time>2020-09-12T09:23:30Z</time>
</trkpt>
<trkpt lat="47.407558" lon="10.861889">
<ele>998.896</ele>
<time>2020-09-12T09:23:31Z</time>
</trkpt>
<trkpt lat="47.407612" lon="10.8619">
<ele>998.896</ele>
<time>2020-09-12T09:23:32Z</time>
</trkpt>
<trkpt lat="47.407661" lon="10.861912">
<ele>998.896</ele>
<time>2020-09-12T09:23:33Z</time>
</trkpt>
<trkpt lat="47.407707" lon="10.861923">
<ele>998.896</ele>
<time>2020-09-12T09:23:34Z</time>
</trkpt>
<trkpt lat="47.407745" lon="10.861935">
<ele>998.896</ele>
<time>2020-09-12T09:23:35Z</time>
</trkpt>
<trkpt lat="47.40778" lon="10.861952">
<ele>998.896</ele>
<time>2020-09-12T09:23:36Z</time>
</trkpt>
<trkpt lat="47.407803" lon="10.861967">
<ele>998.896</ele>
<time>2020-09-12T09:23:37Z</time>
</trkpt>
<trkpt lat="47.407825" lon="10.861979">
<ele>998.896</ele>
<time>2020-09-12T09:23:38Z</time>
</trkpt>
<trkpt lat="47.407841" lon="10.862">
<ele>998.897</ele>
<time>2020-09-12T09:23:39Z</time>
</trkpt>
<trkpt lat="47.407848" lon="10.862028">
<ele>998.896</ele>
<time>2020-09-12T09:23:40Z</time>
</trkpt>
<trkpt lat="47.407852" lon="10.862065">
<ele>998.896</ele>
<time>2020-09-12T09:23:41Z</time>
</trkpt>
<trkpt lat="47.407837" lon="10.862111">
<ele>998.896</ele>
<time>2020-09-12T09:23:42Z</time>
</trkpt>
<trkpt lat="47.407818" lon="10.862164">
<ele>998.896</ele>
<time>2020-09-12T09:23:43Z</time>
</trkpt>
<trkpt lat="47.407795" lon="10.862218">
<ele>998.896</ele>
<time>2020-09-12T09:23:44Z</time>
</trkpt>
<trkpt lat="47.407761" lon="10.862277">
<ele>998.896</ele>
<time>2020-09-12T09:23:45Z</time>
</trkpt>
<trkpt lat="47.40773" lon="10.862337">
<ele>998.896</ele>
<time>2020-09-12T09:23:46Z</time>
</trkpt>
<trkpt lat="47.407696" lon="10.862396">
<ele>998.896</ele>
<time>2020-09-12T09:23:47Z</time>
</trkpt>
<trkpt lat="47.407661" lon="10.862458">
<ele>998.896</ele>
<time>2020-09-12T09:23:48Z</time>
</trkpt>
<trkpt lat="47.407631" lon="10.86253">
<ele>998.896</ele>
<time>2020-09-12T09:23:49Z</time>
</trkpt>
<trkpt lat="47.4076" lon="10.862605">
<ele>998.616</ele>
<time>2020-09-12T09:23:50Z</time>
</trkpt>
<trkpt lat="47.407574" lon="10.862688">
<ele>998.45</ele>
<time>2020-09-12T09:23:51Z</time>
</trkpt>
<trkpt lat="47.407547" lon="10.862773">
<ele>998.011</ele>
<time>2020-09-12T09:23:52Z</time>
</trkpt>
<trkpt lat="47.40752" lon="10.862857">
<ele>997.735</ele>
<time>2020-09-12T09:23:53Z</time>
</trkpt>
<trkpt lat="47.40749" lon="10.862942">
<ele>997.228</ele>
<time>2020-09-12T09:23:54Z</time>
</trkpt>
<trkpt lat="47.407459" lon="10.863031">
<ele>996.549</ele>
<time>2020-09-12T09:23:55Z</time>
</trkpt>
<trkpt lat="47.407429" lon="10.863123">
<ele>996.07</ele>
<time>2020-09-12T09:23:56Z</time>
</trkpt>
<trkpt lat="47.407398" lon="10.863225">
<ele>995.374</ele>
<time>2020-09-12T09:23:57Z</time>
</trkpt>
<trkpt lat="47.407372" lon="10.863337">
<ele>994.913</ele>
<time>2020-09-12T09:23:58Z</time>
</trkpt>
<trkpt lat="47.407341" lon="10.86345">
<ele>994.29</ele>
<time>2020-09-12T09:23:59Z</time>
</trkpt>
<trkpt lat="47.407318" lon="10.863567">
<ele>993.572</ele>
<time>2020-09-12T09:24:00Z</time>
</trkpt>
<trkpt lat="47.407295" lon="10.863688">
<ele>992.748</ele>
<time>2020-09-12T09:24:01Z</time>
</trkpt>
<trkpt lat="47.407269" lon="10.863813">
<ele>991.905</ele>
<time>2020-09-12T09:24:02Z</time>
</trkpt>
<trkpt lat="47.407242" lon="10.86394">
<ele>990.99</ele>
<time>2020-09-12T09:24:03Z</time>
</trkpt>
<trkpt lat="47.407215" lon="10.864066">
<ele>990.008</ele>
<time>2020-09-12T09:24:04Z</time>
</trkpt>
<trkpt lat="47.407192" lon="10.864192">
<ele>989.02</ele>
<time>2020-09-12T09:24:05Z</time>
</trkpt>
<trkpt lat="47.407166" lon="10.864317">
<ele>988.006</ele>
<time>2020-09-12T09:24:06Z</time>
</trkpt>
<trkpt lat="47.407139" lon="10.86444">
<ele>987.003</ele>
<time>2020-09-12T09:24:07Z</time>
</trkpt>
<trkpt lat="47.407108" lon="10.864563">
<ele>986.013</ele>
<time>2020-09-12T09:24:08Z</time>
</trkpt>
<trkpt lat="47.407082" lon="10.864685">
<ele>985.012</ele>
<time>2020-09-12T09:24:09Z</time>
</trkpt>
<trkpt lat="47.407051" lon="10.864803">
<ele>983.904</ele>
<time>2020-09-12T09:24:10Z</time>
</trkpt>
<trkpt lat="47.407017" lon="10.864919">
<ele>982.828</ele>
<time>2020-09-12T09:24:11Z</time>
</trkpt>
<trkpt lat="47.406979" lon="10.865026">
<ele>981.723</ele>
<time>2020-09-12T09:24:12Z</time>
</trkpt>
<trkpt lat="47.406944" lon="10.865135">
<ele>980.632</ele>
<time>2020-09-12T09:24:13Z</time>
</trkpt>
<trkpt lat="47.406906" lon="10.865241">
<ele>979.454</ele>
<time>2020-09-12T09:24:14Z</time>
</trkpt>
<trkpt lat="47.406868" lon="10.865345">
<ele>978.645</ele>
<time>2020-09-12T09:24:15Z</time>
</trkpt>
<trkpt lat="47.40683" lon="10.865445">
<ele>977.747</ele>
<time>2020-09-12T09:24:16Z</time>
</trkpt>
<trkpt lat="47.406792" lon="10.865545">
<ele>976.795</ele>
<time>2020-09-12T09:24:17Z</time>
</trkpt>
<trkpt lat="47.40675" lon="10.865645">
<ele>976.159</ele>
<time>2020-09-12T09:24:18Z</time>
</trkpt>
<trkpt lat="47.406715" lon="10.865736">
<ele>975.168</ele>
<time>2020-09-12T09:24:19Z</time>
</trkpt>
<trkpt lat="47.406677" lon="10.865827">
<ele>974.495</ele>
<time>2020-09-12T09:24:20Z</time>
</trkpt>
<trkpt lat="47.406647" lon="10.865916">
<ele>973.724</ele>
<time>2020-09-12T09:24:21Z</time>
</trkpt>
<trkpt lat="47.40662" lon="10.866002">
<ele>972.833</ele>
<time>2020-09-12T09:24:22Z</time>
</trkpt>
<trkpt lat="47.406597" lon="10.866085">
<ele>972.204</ele>
<time>2020-09-12T09:24:23Z</time>
</trkpt>
<trkpt lat="47.40659" lon="10.866167">
<ele>971.446</ele>
<time>2020-09-12T09:24:24Z</time>
</trkpt>
<trkpt lat="47.406582" lon="10.866253">
<ele>970.925</ele>
<time>2020-09-12T09:24:25Z</time>
</trkpt>
<trkpt lat="47.406582" lon="10.866342">
<ele>970.299</ele>
<time>2020-09-12T09:24:26Z</time>
</trkpt>
<trkpt lat="47.406582" lon="10.866431">
<ele>969.822</ele>
<time>2020-09-12T09:24:27Z</time>
</trkpt>
<trkpt lat="47.406574" lon="10.866526">
<ele>969.204</ele>
<time>2020-09-12T09:24:28Z</time>
</trkpt>
<trkpt lat="47.406555" lon="10.866615">
<ele>968.79</ele>
<time>2020-09-12T09:24:29Z</time>
</trkpt>
<trkpt lat="47.406536" lon="10.866704">
<ele>968.186</ele>
<time>2020-09-12T09:24:30Z</time>
</trkpt>
<trkpt lat="47.406513" lon="10.866788">
<ele>967.723</ele>
<time>2020-09-12T09:24:31Z</time>
</trkpt>
<trkpt lat="47.406494" lon="10.866865">
<ele>967.441</ele>
<time>2020-09-12T09:24:32Z</time>
</trkpt>
<trkpt lat="47.406487" lon="10.86695">
<ele>966.972</ele>
<time>2020-09-12T09:24:33Z</time>
</trkpt>
<trkpt lat="47.406487" lon="10.867039">
<ele>966.601</ele>
<time>2020-09-12T09:24:34Z</time>
</trkpt>
<trkpt lat="47.406502" lon="10.867123">
<ele>966.107</ele>
<time>2020-09-12T09:24:35Z</time>
</trkpt>
<trkpt lat="47.406528" lon="10.867202">
<ele>965.736</ele>
<time>2020-09-12T09:24:36Z</time>
</trkpt>
<trkpt lat="47.406567" lon="10.86727">
<ele>965.39</ele>
<time>2020-09-12T09:24:37Z</time>
</trkpt>
<trkpt lat="47.40662" lon="10.867315">
<ele>965.141</ele>
<time>2020-09-12T09:24:38Z</time>
</trkpt>
<trkpt lat="47.406658" lon="10.867355">
<ele>964.956</ele>
<time>2020-09-12T09:24:39Z</time>
</trkpt>
<trkpt lat="47.406704" lon="10.867395">
<ele>964.845</ele>
<time>2020-09-12T09:24:40Z</time>
</trkpt>
<trkpt lat="47.406761" lon="10.867435">
<ele>964.519</ele>
<time>2020-09-12T09:24:41Z</time>
</trkpt>
<trkpt lat="47.406818" lon="10.867481">
<ele>964.265</ele>
<time>2020-09-12T09:24:42Z</time>
</trkpt>
<trkpt lat="47.406868" lon="10.867529">
<ele>964.043</ele>
<time>2020-09-12T09:24:43Z</time>
</trkpt>
<trkpt lat="47.40691" lon="10.867574">
<ele>963.91</ele>
<time>2020-09-12T09:24:44Z</time>
</trkpt>
<trkpt lat="47.406948" lon="10.867621">
<ele>963.817</ele>
<time>2020-09-12T09:24:45Z</time>
</trkpt>
<trkpt lat="47.406986" lon="10.867676">
<ele>963.746</ele>
<time>2020-09-12T09:24:46Z</time>
</trkpt>
<trkpt lat="47.407024" lon="10.86773">
<ele>963.682</ele>
<time>2020-09-12T09:24:47Z</time>
</trkpt>
<trkpt lat="47.407059" lon="10.867779">
<ele>963.656</ele>
<time>2020-09-12T09:24:48Z</time>
</trkpt>
<trkpt lat="47.407093" lon="10.867825">
<ele>963.656</ele>
<time>2020-09-12T09:24:49Z</time>
</trkpt>
<trkpt lat="47.40712" lon="10.867868">
<ele>963.656</ele>
<time>2020-09-12T09:24:50Z</time>
</trkpt>
<trkpt lat="47.407143" lon="10.867907">
<ele>963.656</ele>
<time>2020-09-12T09:24:51Z</time>
</trkpt>
<trkpt lat="47.407158" lon="10.86794">
<ele>963.413</ele>
<time>2020-09-12T09:24:52Z</time>
</trkpt>
<trkpt lat="47.407166" lon="10.867965">
<ele>963.224</ele>
<time>2020-09-12T09:24:53Z</time>
</trkpt>
<trkpt lat="47.407173" lon="10.86799">
<ele>963.076</ele>
<time>2020-09-12T09:24:54Z</time>
</trkpt>
<trkpt lat="47.407173" lon="10.868026">
<ele>962.96</ele>
<time>2020-09-12T09:24:55Z</time>
</trkpt>
<trkpt lat="47.407162" lon="10.868063">
<ele>962.86</ele>
<time>2020-09-12T09:24:56Z</time>
</trkpt>
<trkpt lat="47.407143" lon="10.86811">
<ele>962.76</ele>
<time>2020-09-12T09:24:57Z</time>
</trkpt>
<trkpt lat="47.407116" lon="10.868164">
<ele>962.69</ele>
<time>2020-09-12T09:24:58Z</time>
</trkpt>
<trkpt lat="47.407089" lon="10.868223">
<ele>962.653</ele>
<time>2020-09-12T09:24:59Z</time>
</trkpt>
<trkpt lat="47.407063" lon="10.868288">
<ele>962.653</ele>
<time>2020-09-12T09:25:00Z</time>
</trkpt>
<trkpt lat="47.407032" lon="10.868359">
<ele>962.312</ele>
<time>2020-09-12T09:25:01Z</time>
</trkpt>
<trkpt lat="47.407001" lon="10.868441">
<ele>962.088</ele>
<time>2020-09-12T09:25:02Z</time>
</trkpt>
<trkpt lat="47.406971" lon="10.86852">
<ele>961.983</ele>
<time>2020-09-12T09:25:03Z</time>
</trkpt>
<trkpt lat="47.406948" lon="10.868605">
<ele>961.553</ele>
<time>2020-09-12T09:25:04Z</time>
</trkpt>
<trkpt lat="47.406914" lon="10.868687">
<ele>961.251</ele>
<time>2020-09-12T09:25:05Z</time>
</trkpt>
<trkpt lat="47.406887" lon="10.868768">
<ele>961.056</ele>
<time>2020-09-12T09:25:06Z</time>
</trkpt>
<trkpt lat="47.406857" lon="10.868843">
<ele>960.858</ele>
<time>2020-09-12T09:25:07Z</time>
</trkpt>
<trkpt lat="47.40683" lon="10.868908">
<ele>960.721</ele>
<time>2020-09-12T09:25:08Z</time>
</trkpt>
<trkpt lat="47.406811" lon="10.868956">
<ele>960.64</ele>
<time>2020-09-12T09:25:09Z</time>
</trkpt>
<trkpt lat="47.406784" lon="10.868981">
<ele>960.587</ele>
<time>2020-09-12T09:25:10Z</time>
</trkpt>
<trkpt lat="47.406761" lon="10.868999">
<ele>960.558</ele>
<time>2020-09-12T09:25:11Z</time>
</trkpt>
<trkpt lat="47.406742" lon="10.869021">
<ele>960.558</ele>
<time>2020-09-12T09:25:12Z</time>
</trkpt>
<trkpt lat="47.406723" lon="10.869052">
<ele>960.558</ele>
<time>2020-09-12T09:25:13Z</time>
</trkpt>
<trkpt lat="47.406712" lon="10.869081">
<ele>960.558</ele>
<time>2020-09-12T09:25:14Z</time>
</trkpt>
<trkpt lat="47.4067" lon="10.869108">
<ele>960.558</ele>
<time>2020-09-12T09:25:15Z</time>
</trkpt>
<trkpt lat="47.406693" lon="10.86913">
<ele>960.558</ele>
<time>2020-09-12T09:25:16Z</time>
</trkpt>
<trkpt lat="47.406685" lon="10.869153">
<ele>960.558</ele>
<time>2020-09-12T09:25:17Z</time>
</trkpt>
<trkpt lat="47.406685" lon="10.869172">
<ele>960.558</ele>
<time>2020-09-12T09:25:18Z</time>
</trkpt>
<trkpt lat="47.406681" lon="10.869178">
<ele>960.558</ele>
<time>2020-09-12T09:25:19Z</time>
</trkpt>
<trkpt lat="47.406673" lon="10.869178">
<ele>960.558</ele>
<time>2020-09-12T09:25:20Z</time>
</trkpt>
<trkpt lat="47.406662" lon="10.869175">
<ele>960.558</ele>
<time>2020-09-12T09:25:21Z</time>
</trkpt>
<trkpt lat="47.406647" lon="10.86918">
<ele>960.558</ele>
<time>2020-09-12T09:25:22Z</time>
</trkpt>
<trkpt lat="47.406631" lon="10.869192">
<ele>960.558</ele>
<time>2020-09-12T09:25:23Z</time>
</trkpt>
<trkpt lat="47.406616" lon="10.869204">
<ele>960.558</ele>
<time>2020-09-12T09:25:24Z</time>
</trkpt>
<trkpt lat="47.406601" lon="10.869228">
<ele>960.558</ele>
<time>2020-09-12T09:25:25Z</time>
</trkpt>
<trkpt lat="47.406586" lon="10.869258">
<ele>960.558</ele>
<time>2020-09-12T09:25:26Z</time>
</trkpt>
<trkpt lat="47.40657" lon="10.869293">
<ele>960.558</ele>
<time>2020-09-12T09:25:27Z</time>
</trkpt>
<trkpt lat="47.406559" lon="10.869323">
<ele>960.558</ele>
<time>2020-09-12T09:25:28Z</time>
</trkpt>
<trkpt lat="47.406548" lon="10.869351">
<ele>960.558</ele>
<time>2020-09-12T09:25:29Z</time>
</trkpt>
<trkpt lat="47.406536" lon="10.869377">
<ele>960.558</ele>
<time>2020-09-12T09:25:30Z</time>
</trkpt>
<trkpt lat="47.406521" lon="10.869396">
<ele>960.558</ele>
<time>2020-09-12T09:25:31Z</time>
</trkpt>
<trkpt lat="47.406498" lon="10.869411">
<ele>960.558</ele>
<time>2020-09-12T09:25:32Z</time>
</trkpt>
<trkpt lat="47.406475" lon="10.869427">
<ele>960.558</ele>
<time>2020-09-12T09:25:33Z</time>
</trkpt>
<trkpt lat="47.406437" lon="10.869452">
<ele>960.294</ele>
<time>2020-09-12T09:25:34Z</time>
</trkpt>
<trkpt lat="47.406399" lon="10.869482">
<ele>960.079</ele>
<time>2020-09-12T09:25:35Z</time>
</trkpt>
<trkpt lat="47.406361" lon="10.869518">
<ele>959.94</ele>
<time>2020-09-12T09:25:36Z</time>
</trkpt>
<trkpt lat="47.406326" lon="10.869557">
<ele>959.791</ele>
<time>2020-09-12T09:25:37Z</time>
</trkpt>
<trkpt lat="47.406303" lon="10.869601">
<ele>959.417</ele>
<time>2020-09-12T09:25:38Z</time>
</trkpt>
<trkpt lat="47.406292" lon="10.869654">
<ele>959.16</ele>
<time>2020-09-12T09:25:39Z</time>
</trkpt>
<trkpt lat="47.406296" lon="10.86971">
<ele>958.977</ele>
<time>2020-09-12T09:25:40Z</time>
</trkpt>
<trkpt lat="47.4063" lon="10.869759">
<ele>958.861</ele>
<time>2020-09-12T09:25:41Z</time>
</trkpt>
<trkpt lat="47.406296" lon="10.869799">
<ele>958.723</ele>
<time>2020-09-12T09:25:42Z</time>
</trkpt>
<trkpt lat="47.406277" lon="10.86982">
<ele>958.669</ele>
<time>2020-09-12T09:25:43Z</time>
</trkpt>
<trkpt lat="47.406261" lon="10.86983">
<ele>958.65</ele>
<time>2020-09-12T09:25:44Z</time>
</trkpt>
<trkpt lat="47.406235" lon="10.869836">
<ele>958.644</ele>
<time>2020-09-12T09:25:45Z</time>
</trkpt>
<trkpt lat="47.406212" lon="10.869836">
<ele>958.644</ele>
<time>2020-09-12T09:25:46Z</time>
</trkpt>
<trkpt lat="47.406193" lon="10.869836">
<ele>958.644</ele>
<time>2020-09-12T09:25:47Z</time>
</trkpt>
<trkpt lat="47.406166" lon="10.86984">
<ele>958.645</ele>
<time>2020-09-12T09:25:48Z</time>
</trkpt>
<trkpt lat="47.406139" lon="10.869846">
<ele>958.644</ele>
<time>2020-09-12T09:25:49Z</time>
</trkpt>
<trkpt lat="47.40612" lon="10.869855">
<ele>958.645</ele>
<time>2020-09-12T09:25:50Z</time>
</trkpt>
<trkpt lat="47.406097" lon="10.869865">
<ele>958.644</ele>
<time>2020-09-12T09:25:51Z</time>
</trkpt>
<trkpt lat="47.406082" lon="10.869871">
<ele>958.644</ele>
<time>2020-09-12T09:25:52Z</time>
</trkpt>
<trkpt lat="47.406071" lon="10.86988">
<ele>958.644</ele>
<time>2020-09-12T09:25:53Z</time>
</trkpt>
<trkpt lat="47.406067" lon="10.869884">
<ele>958.645</ele>
<time>2020-09-12T09:25:54Z</time>
</trkpt>
<trkpt lat="47.406052" lon="10.86987">
<ele>958.645</ele>
<time>2020-09-12T09:26:23Z</time>
</trkpt>
<trkpt lat="47.406052" lon="10.869868">
<ele>958.645</ele>
<time>2020-09-12T09:26:24Z</time>
</trkpt>
<trkpt lat="47.406052" lon="10.869865">
<ele>958.645</ele>
<time>2020-09-12T09:26:25Z</time>
</trkpt>
<trkpt lat="47.406055" lon="10.86989">
<ele>958.645</ele>
<time>2020-09-12T09:28:27Z</time>
</trkpt>
<trkpt lat="47.406055" lon="10.869893">
<ele>958.644</ele>
<time>2020-09-12T09:28:28Z</time>
</trkpt>
<trkpt lat="47.406059" lon="10.869893">
<ele>958.645</ele>
<time>2020-09-12T09:28:29Z</time>
</trkpt>
<trkpt lat="47.406059" lon="10.869895">
<ele>958.644</ele>
<time>2020-09-12T09:28:30Z</time>
</trkpt>
<trkpt lat="47.406052" lon="10.869893">
<ele>958.645</ele>
<time>2020-09-12T09:29:39Z</time>
</trkpt>
<trkpt lat="47.406052" lon="10.86989">
<ele>958.644</ele>
<time>2020-09-12T09:29:40Z</time>
</trkpt>
<trkpt lat="47.406055" lon="10.869892">
<ele>958.644</ele>
<time>2020-09-12T09:29:41Z</time>
</trkpt>
<trkpt lat="47.406055" lon="10.869893">
<ele>958.644</ele>
<time>2020-09-12T09:29:42Z</time>
</trkpt>
<trkpt lat="47.406063" lon="10.869892">
<ele>958.645</ele>
<time>2020-09-12T09:29:47Z</time>
</trkpt>
<trkpt lat="47.406067" lon="10.869892">
<ele>958.644</ele>
<time>2020-09-12T09:29:48Z</time>
</trkpt>
<trkpt lat="47.406067" lon="10.869893">
<ele>958.645</ele>
<time>2020-09-12T09:29:50Z</time>
</trkpt>
<trkpt lat="47.406086" lon="10.869905">
<ele>958.645</ele>
<time>2020-09-12T09:30:53Z</time>
</trkpt>
<trkpt lat="47.406097" lon="10.869909">
<ele>958.644</ele>
<time>2020-09-12T09:30:54Z</time>
</trkpt>
<trkpt lat="47.406113" lon="10.869913">
<ele>958.644</ele>
<time>2020-09-12T09:30:55Z</time>
</trkpt>
<trkpt lat="47.406132" lon="10.869917">
<ele>958.645</ele>
<time>2020-09-12T09:30:56Z</time>
</trkpt>
<trkpt lat="47.406158" lon="10.86992">
<ele>958.644</ele>
<time>2020-09-12T09:30:57Z</time>
</trkpt>
<trkpt lat="47.406181" lon="10.869924">
<ele>958.644</ele>
<time>2020-09-12T09:30:58Z</time>
</trkpt>
<trkpt lat="47.4062" lon="10.869924">
<ele>958.644</ele>
<time>2020-09-12T09:30:59Z</time>
</trkpt>
<trkpt lat="47.406227" lon="10.869922">
<ele>958.644</ele>
<time>2020-09-12T09:31:00Z</time>
</trkpt>
<trkpt lat="47.406246" lon="10.869915">
<ele>958.644</ele>
<time>2020-09-12T09:31:01Z</time>
</trkpt>
<trkpt lat="47.406265" lon="10.869905">
<ele>958.645</ele>
<time>2020-09-12T09:31:02Z</time>
</trkpt>
<trkpt lat="47.406288" lon="10.869886">
<ele>958.645</ele>
<time>2020-09-12T09:31:03Z</time>
</trkpt>
<trkpt lat="47.406303" lon="10.86986">
<ele>958.644</ele>
<time>2020-09-12T09:31:04Z</time>
</trkpt>
<trkpt lat="47.406315" lon="10.86983">
<ele>958.645</ele>
<time>2020-09-12T09:31:05Z</time>
</trkpt>
<trkpt lat="47.406326" lon="10.869801">
<ele>958.644</ele>
<time>2020-09-12T09:31:06Z</time>
</trkpt>
<trkpt lat="47.406334" lon="10.869771">
<ele>958.644</ele>
<time>2020-09-12T09:31:07Z</time>
</trkpt>
<trkpt lat="47.406349" lon="10.869743">
<ele>958.645</ele>
<time>2020-09-12T09:31:08Z</time>
</trkpt>
<trkpt lat="47.406361" lon="10.869714">
<ele>958.644</ele>
<time>2020-09-12T09:31:09Z</time>
</trkpt>
<trkpt lat="47.406364" lon="10.869675">
<ele>958.644</ele>
<time>2020-09-12T09:31:10Z</time>
</trkpt>
<trkpt lat="47.406376" lon="10.869628">
<ele>958.645</ele>
<time>2020-09-12T09:31:11Z</time>
</trkpt>
<trkpt lat="47.406395" lon="10.869576">
<ele>958.644</ele>
<time>2020-09-12T09:31:12Z</time>
</trkpt>
<trkpt lat="47.406418" lon="10.869534">
<ele>958.644</ele>
<time>2020-09-12T09:31:13Z</time>
</trkpt>
<trkpt lat="47.406437" lon="10.869505">
<ele>958.645</ele>
<time>2020-09-12T09:31:14Z</time>
</trkpt>
<trkpt lat="47.40646" lon="10.869496">
<ele>958.644</ele>
<time>2020-09-12T09:31:15Z</time>
</trkpt>
<trkpt lat="47.40649" lon="10.869505">
<ele>958.645</ele>
<time>2020-09-12T09:31:16Z</time>
</trkpt>
<trkpt lat="47.406509" lon="10.869522">
<ele>958.644</ele>
<time>2020-09-12T09:31:17Z</time>
</trkpt>
<trkpt lat="47.406525" lon="10.869543">
<ele>958.644</ele>
<time>2020-09-12T09:31:18Z</time>
</trkpt>
<trkpt lat="47.406528" lon="10.869574">
<ele>958.644</ele>
<time>2020-09-12T09:31:19Z</time>
</trkpt>
<trkpt lat="47.406521" lon="10.869608">
<ele>958.644</ele>
<time>2020-09-12T09:31:20Z</time>
</trkpt>
<trkpt lat="47.406502" lon="10.869647">
<ele>958.644</ele>
<time>2020-09-12T09:31:21Z</time>
</trkpt>
<trkpt lat="47.406479" lon="10.869687">
<ele>958.644</ele>
<time>2020-09-12T09:31:22Z</time>
</trkpt>
<trkpt lat="47.406456" lon="10.869729">
<ele>958.645</ele>
<time>2020-09-12T09:31:23Z</time>
</trkpt>
<trkpt lat="47.406429" lon="10.869777">
<ele>958.644</ele>
<time>2020-09-12T09:31:24Z</time>
</trkpt>
<trkpt lat="47.406406" lon="10.869832">
<ele>958.645</ele>
<time>2020-09-12T09:31:25Z</time>
</trkpt>
<trkpt lat="47.406387" lon="10.869886">
<ele>958.644</ele>
<time>2020-09-12T09:31:26Z</time>
</trkpt>
<trkpt lat="47.406364" lon="10.869939">
<ele>958.644</ele>
<time>2020-09-12T09:31:27Z</time>
</trkpt>
<trkpt lat="47.406345" lon="10.869991">
<ele>958.644</ele>
<time>2020-09-12T09:31:28Z</time>
</trkpt>
<trkpt lat="47.406326" lon="10.870047">
<ele>958.645</ele>
<time>2020-09-12T09:31:29Z</time>
</trkpt>
<trkpt lat="47.406307" lon="10.870098">
<ele>958.645</ele>
<time>2020-09-12T09:31:30Z</time>
</trkpt>
<trkpt lat="47.406284" lon="10.87015">
<ele>958.644</ele>
<time>2020-09-12T09:31:31Z</time>
</trkpt>
<trkpt lat="47.406265" lon="10.8702">
<ele>958.644</ele>
<time>2020-09-12T09:31:32Z</time>
</trkpt>
<trkpt lat="47.406246" lon="10.870251">
<ele>958.644</ele>
<time>2020-09-12T09:31:33Z</time>
</trkpt>
<trkpt lat="47.406227" lon="10.8703">
<ele>958.644</ele>
<time>2020-09-12T09:31:34Z</time>
</trkpt>
<trkpt lat="47.406204" lon="10.870352">
<ele>958.644</ele>
<time>2020-09-12T09:31:35Z</time>
</trkpt>
<trkpt lat="47.406185" lon="10.870401">
<ele>958.644</ele>
<time>2020-09-12T09:31:36Z</time>
</trkpt>
<trkpt lat="47.406166" lon="10.870452">
<ele>958.644</ele>
<time>2020-09-12T09:31:37Z</time>
</trkpt>
<trkpt lat="47.406143" lon="10.870503">
<ele>958.644</ele>
<time>2020-09-12T09:31:38Z</time>
</trkpt>
<trkpt lat="47.406124" lon="10.870555">
<ele>958.644</ele>
<time>2020-09-12T09:31:39Z</time>
</trkpt>
<trkpt lat="47.406101" lon="10.870606">
<ele>958.645</ele>
<time>2020-09-12T09:31:40Z</time>
</trkpt>
<trkpt lat="47.406082" lon="10.870659">
<ele>958.644</ele>
<time>2020-09-12T09:31:41Z</time>
</trkpt>
<trkpt lat="47.406059" lon="10.870713">
<ele>958.644</ele>
<time>2020-09-12T09:31:42Z</time>
</trkpt>
<trkpt lat="47.406036" lon="10.870765">
<ele>958.644</ele>
<time>2020-09-12T09:31:43Z</time>
</trkpt>
<trkpt lat="47.406013" lon="10.870816">
<ele>958.644</ele>
<time>2020-09-12T09:31:44Z</time>
</trkpt>
<trkpt lat="47.405994" lon="10.870867">
<ele>958.644</ele>
<time>2020-09-12T09:31:45Z</time>
</trkpt>
<trkpt lat="47.405972" lon="10.870918">
<ele>958.644</ele>
<time>2020-09-12T09:31:46Z</time>
</trkpt>
<trkpt lat="47.405949" lon="10.87097">
<ele>958.645</ele>
<time>2020-09-12T09:31:47Z</time>
</trkpt>
<trkpt lat="47.40593" lon="10.871021">
<ele>958.645</ele>
<time>2020-09-12T09:31:48Z</time>
</trkpt>
<trkpt lat="47.40591" lon="10.871077">
<ele>958.645</ele>
<time>2020-09-12T09:31:49Z</time>
</trkpt>
<trkpt lat="47.405888" lon="10.87113">
<ele>958.645</ele>
<time>2020-09-12T09:31:50Z</time>
</trkpt>
<trkpt lat="47.405869" lon="10.871181">
<ele>958.644</ele>
<time>2020-09-12T09:31:51Z</time>
</trkpt>
<trkpt lat="47.405846" lon="10.871235">
<ele>958.645</ele>
<time>2020-09-12T09:31:52Z</time>
</trkpt>
<trkpt lat="47.405823" lon="10.871288">
<ele>958.644</ele>
<time>2020-09-12T09:31:53Z</time>
</trkpt>
<trkpt lat="47.4058" lon="10.871346">
<ele>958.644</ele>
<time>2020-09-12T09:31:54Z</time>
</trkpt>
<trkpt lat="47.405777" lon="10.871403">
<ele>958.645</ele>
<time>2020-09-12T09:31:55Z</time>
</trkpt>
<trkpt lat="47.405754" lon="10.871462">
<ele>958.644</ele>
<time>2020-09-12T09:31:56Z</time>
</trkpt>
<trkpt lat="47.405731" lon="10.871518">
<ele>958.644</ele>
<time>2020-09-12T09:31:57Z</time>
</trkpt>
<trkpt lat="47.405708" lon="10.871575">
<ele>958.645</ele>
<time>2020-09-12T09:31:58Z</time>
</trkpt>
<trkpt lat="47.405685" lon="10.871632">
<ele>958.644</ele>
<time>2020-09-12T09:31:59Z</time>
</trkpt>
<trkpt lat="47.405659" lon="10.871686">
<ele>958.644</ele>
<time>2020-09-12T09:32:00Z</time>
</trkpt>
<trkpt lat="47.40564" lon="10.87174">
<ele>958.645</ele>
<time>2020-09-12T09:32:01Z</time>
</trkpt>
<trkpt lat="47.405613" lon="10.871795">
<ele>958.645</ele>
<time>2020-09-12T09:32:02Z</time>
</trkpt>
<trkpt lat="47.40559" lon="10.871852">
<ele>958.644</ele>
<time>2020-09-12T09:32:03Z</time>
</trkpt>
<trkpt lat="47.405571" lon="10.871908">
<ele>958.645</ele>
<time>2020-09-12T09:32:04Z</time>
</trkpt>
<trkpt lat="47.405544" lon="10.871966">
<ele>958.644</ele>
<time>2020-09-12T09:32:05Z</time>
</trkpt>
<trkpt lat="47.405525" lon="10.872027">
<ele>958.645</ele>
<time>2020-09-12T09:32:06Z</time>
</trkpt>
<trkpt lat="47.40551" lon="10.872088">
<ele>958.645</ele>
<time>2020-09-12T09:32:07Z</time>
</trkpt>
<trkpt lat="47.405487" lon="10.87215">
<ele>958.644</ele>
<time>2020-09-12T09:32:08Z</time>
</trkpt>
<trkpt lat="47.405472" lon="10.872213">
<ele>958.644</ele>
<time>2020-09-12T09:32:09Z</time>
</trkpt>
<trkpt lat="47.405453" lon="10.872278">
<ele>958.644</ele>
<time>2020-09-12T09:32:10Z</time>
</trkpt>
<trkpt lat="47.405437" lon="10.872345">
<ele>958.645</ele>
<time>2020-09-12T09:32:11Z</time>
</trkpt>
<trkpt lat="47.405422" lon="10.872413">
<ele>958.644</ele>
<time>2020-09-12T09:32:12Z</time>
</trkpt>
<trkpt lat="47.405411" lon="10.872483">
<ele>958.644</ele>
<time>2020-09-12T09:32:13Z</time>
</trkpt>
<trkpt lat="47.405399" lon="10.872551">
<ele>958.644</ele>
<time>2020-09-12T09:32:14Z</time>
</trkpt>
<trkpt lat="47.405388" lon="10.872624">
<ele>958.645</ele>
<time>2020-09-12T09:32:15Z</time>
</trkpt>
<trkpt lat="47.40538" lon="10.8727">
<ele>958.645</ele>
<time>2020-09-12T09:32:16Z</time>
</trkpt>
<trkpt lat="47.405373" lon="10.872777">
<ele>958.644</ele>
<time>2020-09-12T09:32:17Z</time>
</trkpt>
<trkpt lat="47.405365" lon="10.872857">
<ele>958.644</ele>
<time>2020-09-12T09:32:18Z</time>
</trkpt>
<trkpt lat="47.405361" lon="10.872934">
<ele>958.644</ele>
<time>2020-09-12T09:32:19Z</time>
</trkpt>
<trkpt lat="47.405354" lon="10.87301">
<ele>958.645</ele>
<time>2020-09-12T09:32:20Z</time>
</trkpt>
<trkpt lat="47.405354" lon="10.873092">
<ele>958.359</ele>
<time>2020-09-12T09:32:21Z</time>
</trkpt>
<trkpt lat="47.40535" lon="10.873174">
<ele>958.136</ele>
<time>2020-09-12T09:32:22Z</time>
</trkpt>
<trkpt lat="47.40535" lon="10.87326">
<ele>957.972</ele>
<time>2020-09-12T09:32:23Z</time>
</trkpt>
<trkpt lat="47.40535" lon="10.873352">
<ele>957.85</ele>
<time>2020-09-12T09:32:24Z</time>
</trkpt>
<trkpt lat="47.405354" lon="10.873444">
<ele>957.765</ele>
<time>2020-09-12T09:32:25Z</time>
</trkpt>
<trkpt lat="47.405354" lon="10.87354">
<ele>957.725</ele>
<time>2020-09-12T09:32:26Z</time>
</trkpt>
<trkpt lat="47.405361" lon="10.87364">
<ele>957.438</ele>
<time>2020-09-12T09:32:27Z</time>
</trkpt>
<trkpt lat="47.405361" lon="10.873743">
<ele>957.191</ele>
<time>2020-09-12T09:32:28Z</time>
</trkpt>
<trkpt lat="47.405369" lon="10.873848">
<ele>957.018</ele>
<time>2020-09-12T09:32:29Z</time>
</trkpt>
<trkpt lat="47.405373" lon="10.873957">
<ele>956.905</ele>
<time>2020-09-12T09:32:30Z</time>
</trkpt>
<trkpt lat="47.405373" lon="10.874065">
<ele>956.546</ele>
<time>2020-09-12T09:32:31Z</time>
</trkpt>
<trkpt lat="47.405373" lon="10.874175">
<ele>955.976</ele>
<time>2020-09-12T09:32:32Z</time>
</trkpt>
<trkpt lat="47.405369" lon="10.87429">
<ele>955.526</ele>
<time>2020-09-12T09:32:33Z</time>
</trkpt>
<trkpt lat="47.405373" lon="10.874407">
<ele>955.248</ele>
<time>2020-09-12T09:32:34Z</time>
</trkpt>
<trkpt lat="47.405376" lon="10.874525">
<ele>954.638</ele>
<time>2020-09-12T09:32:35Z</time>
</trkpt>
<trkpt lat="47.405376" lon="10.874644">
<ele>954.293</ele>
<time>2020-09-12T09:32:36Z</time>
</trkpt>
<trkpt lat="47.40538" lon="10.874772">
<ele>953.748</ele>
<time>2020-09-12T09:32:37Z</time>
</trkpt>
<trkpt lat="47.40538" lon="10.874895">
<ele>953.296</ele>
<time>2020-09-12T09:32:38Z</time>
</trkpt>
<trkpt lat="47.40538" lon="10.875015">
<ele>953.012</ele>
<time>2020-09-12T09:32:39Z</time>
</trkpt>
<trkpt lat="47.40538" lon="10.87513">
<ele>952.513</ele>
<time>2020-09-12T09:32:40Z</time>
</trkpt>
<trkpt lat="47.40538" lon="10.875245">
<ele>952.132</ele>
<time>2020-09-12T09:32:41Z</time>
</trkpt>
<trkpt lat="47.40538" lon="10.875361">
<ele>951.887</ele>
<time>2020-09-12T09:32:42Z</time>
</trkpt>
<trkpt lat="47.405376" lon="10.87548">
<ele>951.373</ele>
<time>2020-09-12T09:32:43Z</time>
</trkpt>
<trkpt lat="47.405373" lon="10.875597">
<ele>951.019</ele>
<time>2020-09-12T09:32:44Z</time>
</trkpt>
<trkpt lat="47.405361" lon="10.875712">
<ele>950.403</ele>
<time>2020-09-12T09:32:45Z</time>
</trkpt>
<trkpt lat="47.40535" lon="10.875825">
<ele>950.059</ele>
<time>2020-09-12T09:32:46Z</time>
</trkpt>
<trkpt lat="47.405331" lon="10.875941">
<ele>949.472</ele>
<time>2020-09-12T09:32:47Z</time>
</trkpt>
<trkpt lat="47.405312" lon="10.876059">
<ele>948.981</ele>
<time>2020-09-12T09:32:48Z</time>
</trkpt>
<trkpt lat="47.405285" lon="10.876175">
<ele>948.646</ele>
<time>2020-09-12T09:32:49Z</time>
</trkpt>
<trkpt lat="47.405262" lon="10.876291">
<ele>948.098</ele>
<time>2020-09-12T09:32:50Z</time>
</trkpt>
<trkpt lat="47.405231" lon="10.876405">
<ele>947.743</ele>
<time>2020-09-12T09:32:51Z</time>
</trkpt>
<trkpt lat="47.405205" lon="10.876519">
<ele>947.156</ele>
<time>2020-09-12T09:32:52Z</time>
</trkpt>
<trkpt lat="47.40517" lon="10.87663">
<ele>946.769</ele>
<time>2020-09-12T09:32:53Z</time>
</trkpt>
<trkpt lat="47.405132" lon="10.876737">
<ele>946.175</ele>
<time>2020-09-12T09:32:54Z</time>
</trkpt>
<trkpt lat="47.40509" lon="10.876838">
<ele>945.727</ele>
<time>2020-09-12T09:32:55Z</time>
</trkpt>
<trkpt lat="47.405056" lon="10.876937">
<ele>945.201</ele>
<time>2020-09-12T09:32:56Z</time>
</trkpt>
<trkpt lat="47.405014" lon="10.877033">
<ele>944.8</ele>
<time>2020-09-12T09:32:57Z</time>
</trkpt>
<trkpt lat="47.404968" lon="10.877131">
<ele>944.223</ele>
<time>2020-09-12T09:32:58Z</time>
</trkpt>
<trkpt lat="47.404926" lon="10.87723">
<ele>943.776</ele>
<time>2020-09-12T09:32:59Z</time>
</trkpt>
<trkpt lat="47.404873" lon="10.877323">
<ele>943.5</ele>
<time>2020-09-12T09:33:00Z</time>
</trkpt>
<trkpt lat="47.404819" lon="10.877417">
<ele>943.002</ele>
<time>2020-09-12T09:33:01Z</time>
</trkpt>
<trkpt lat="47.404762" lon="10.877508">
<ele>942.671</ele>
<time>2020-09-12T09:33:02Z</time>
</trkpt>
<trkpt lat="47.404697" lon="10.877598">
<ele>942.129</ele>
<time>2020-09-12T09:33:03Z</time>
</trkpt>
<trkpt lat="47.404633" lon="10.877684">
<ele>941.772</ele>
<time>2020-09-12T09:33:04Z</time>
</trkpt>
<trkpt lat="47.404568" lon="10.877769">
<ele>941.176</ele>
<time>2020-09-12T09:33:05Z</time>
</trkpt>
<trkpt lat="47.404495" lon="10.877853">
<ele>940.784</ele>
<time>2020-09-12T09:33:06Z</time>
</trkpt>
<trkpt lat="47.404419" lon="10.877934">
<ele>940.19</ele>
<time>2020-09-12T09:33:07Z</time>
</trkpt>
<trkpt lat="47.404343" lon="10.878018">
<ele>939.686</ele>
<time>2020-09-12T09:33:08Z</time>
</trkpt>
<trkpt lat="47.404274" lon="10.878101">
<ele>939.324</ele>
<time>2020-09-12T09:33:09Z</time>
</trkpt>
<trkpt lat="47.404198" lon="10.878183">
<ele>939.096</ele>
<time>2020-09-12T09:33:10Z</time>
</trkpt>
<trkpt lat="47.404125" lon="10.878266">
<ele>938.668</ele>
<time>2020-09-12T09:33:11Z</time>
</trkpt>
<trkpt lat="47.404049" lon="10.87835">
<ele>938.38</ele>
<time>2020-09-12T09:33:12Z</time>
</trkpt>
<trkpt lat="47.40398" lon="10.878432">
<ele>937.902</ele>
<time>2020-09-12T09:33:13Z</time>
</trkpt>
<trkpt lat="47.403908" lon="10.87851">
<ele>937.53</ele>
<time>2020-09-12T09:33:14Z</time>
</trkpt>
<trkpt lat="47.403839" lon="10.878589">
<ele>937.261</ele>
<time>2020-09-12T09:33:15Z</time>
</trkpt>
<trkpt lat="47.40377" lon="10.878669">
<ele>936.85</ele>
<time>2020-09-12T09:33:16Z</time>
</trkpt>
<trkpt lat="47.403706" lon="10.878744">
<ele>936.533</ele>
<time>2020-09-12T09:33:17Z</time>
</trkpt>
<trkpt lat="47.403641" lon="10.878814">
<ele>936.271</ele>
<time>2020-09-12T09:33:18Z</time>
</trkpt>
<trkpt lat="47.40358" lon="10.878881">
<ele>935.849</ele>
<time>2020-09-12T09:33:19Z</time>
</trkpt>
<trkpt lat="47.403522" lon="10.878952">
<ele>935.519</ele>
<time>2020-09-12T09:33:20Z</time>
</trkpt>
<trkpt lat="47.403461" lon="10.879021">
<ele>935.276</ele>
<time>2020-09-12T09:33:21Z</time>
</trkpt>
<trkpt lat="47.4034" lon="10.879094">
<ele>935.119</ele>
<time>2020-09-12T09:33:22Z</time>
</trkpt>
<trkpt lat="47.403336" lon="10.879169">
<ele>934.734</ele>
<time>2020-09-12T09:33:23Z</time>
</trkpt>
<trkpt lat="47.403271" lon="10.879247">
<ele>934.364</ele>
<time>2020-09-12T09:33:24Z</time>
</trkpt>
<trkpt lat="47.403206" lon="10.879322">
<ele>934.21</ele>
<time>2020-09-12T09:33:25Z</time>
</trkpt>
<trkpt lat="47.403141" lon="10.879395">
<ele>933.802</ele>
<time>2020-09-12T09:33:27Z</time>
</trkpt>
<trkpt lat="47.403011" lon="10.879539">
<ele>932.98</ele>
<time>2020-09-12T09:33:28Z</time>
</trkpt>
<trkpt lat="47.402946" lon="10.87961">
<ele>932.568</ele>
<time>2020-09-12T09:33:29Z</time>
</trkpt>
<trkpt lat="47.402878" lon="10.879683">
<ele>932.311</ele>
<time>2020-09-12T09:33:30Z</time>
</trkpt>
<trkpt lat="47.402817" lon="10.879754">
<ele>931.81</ele>
<time>2020-09-12T09:33:31Z</time>
</trkpt>
<trkpt lat="47.402756" lon="10.879824">
<ele>931.415</ele>
<time>2020-09-12T09:33:32Z</time>
</trkpt>
<trkpt lat="47.402691" lon="10.879896">
<ele>931.163</ele>
<time>2020-09-12T09:33:33Z</time>
</trkpt>
<trkpt lat="47.402622" lon="10.879974">
<ele>930.725</ele>
<time>2020-09-12T09:33:34Z</time>
</trkpt>
<trkpt lat="47.402554" lon="10.880052">
<ele>930.387</ele>
<time>2020-09-12T09:33:35Z</time>
</trkpt>
<trkpt lat="47.402485" lon="10.88013">
<ele>930.184</ele>
<time>2020-09-12T09:33:36Z</time>
</trkpt>
<trkpt lat="47.402416" lon="10.880203">
<ele>929.77</ele>
<time>2020-09-12T09:33:37Z</time>
</trkpt>
<trkpt lat="47.402351" lon="10.88028">
<ele>929.423</ele>
<time>2020-09-12T09:33:38Z</time>
</trkpt>
<trkpt lat="47.402287" lon="10.880351">
<ele>929.172</ele>
<time>2020-09-12T09:33:39Z</time>
</trkpt>
<trkpt lat="47.402225" lon="10.880422">
<ele>929.012</ele>
<time>2020-09-12T09:33:40Z</time>
</trkpt>
<trkpt lat="47.402161" lon="10.880493">
<ele>928.638</ele>
<time>2020-09-12T09:33:41Z</time>
</trkpt>
<trkpt lat="47.4021" lon="10.880567">
<ele>928.39</ele>
<time>2020-09-12T09:33:42Z</time>
</trkpt>
<trkpt lat="47.402039" lon="10.880647">
<ele>927.941</ele>
<time>2020-09-12T09:33:43Z</time>
</trkpt>
<trkpt lat="47.401985" lon="10.880736">
<ele>927.583</ele>
<time>2020-09-12T09:33:44Z</time>
</trkpt>
<trkpt lat="47.401932" lon="10.880834">
<ele>927.324</ele>
<time>2020-09-12T09:33:45Z</time>
</trkpt>
<trkpt lat="47.401886" lon="10.880936">
<ele>926.893</ele>
<time>2020-09-12T09:33:46Z</time>
</trkpt>
<trkpt lat="47.401844" lon="10.881042">
<ele>926.566</ele>
<time>2020-09-12T09:33:47Z</time>
</trkpt>
<trkpt lat="47.40181" lon="10.881155">
<ele>926.281</ele>
<time>2020-09-12T09:33:48Z</time>
</trkpt>
<trkpt lat="47.401779" lon="10.881269">
<ele>926.092</ele>
<time>2020-09-12T09:33:49Z</time>
</trkpt>
<trkpt lat="47.401749" lon="10.881378">
<ele>925.961</ele>
<time>2020-09-12T09:33:50Z</time>
</trkpt>
<trkpt lat="47.401714" lon="10.881483">
<ele>925.884</ele>
<time>2020-09-12T09:33:51Z</time>
</trkpt>
<trkpt lat="47.401691" lon="10.881594">
<ele>925.834</ele>
<time>2020-09-12T09:33:52Z</time>
</trkpt>
<trkpt lat="47.401665" lon="10.881703">
<ele>925.809</ele>
<time>2020-09-12T09:33:53Z</time>
</trkpt>
<trkpt lat="47.401634" lon="10.881813">
<ele>925.533</ele>
<time>2020-09-12T09:33:54Z</time>
</trkpt>
<trkpt lat="47.4016" lon="10.881918">
<ele>925.314</ele>
<time>2020-09-12T09:33:55Z</time>
</trkpt>
<trkpt lat="47.401569" lon="10.882019">
<ele>925.145</ele>
<time>2020-09-12T09:33:56Z</time>
</trkpt>
<trkpt lat="47.401535" lon="10.882117">
<ele>925.026</ele>
<time>2020-09-12T09:33:57Z</time>
</trkpt>
<trkpt lat="47.401497" lon="10.88222">
<ele>924.898</ele>
<time>2020-09-12T09:33:58Z</time>
</trkpt>
<trkpt lat="47.401459" lon="10.88232">
<ele>924.811</ele>
<time>2020-09-12T09:33:59Z</time>
</trkpt>
<trkpt lat="47.401424" lon="10.882419">
<ele>924.486</ele>
<time>2020-09-12T09:34:00Z</time>
</trkpt>
<trkpt lat="47.401394" lon="10.882513">
<ele>924.236</ele>
<time>2020-09-12T09:34:01Z</time>
</trkpt>
<trkpt lat="47.40136" lon="10.88261">
<ele>923.98</ele>
<time>2020-09-12T09:34:02Z</time>
</trkpt>
<trkpt lat="47.401325" lon="10.882707">
<ele>923.843</ele>
<time>2020-09-12T09:34:03Z</time>
</trkpt>
<trkpt lat="47.401287" lon="10.8828">
<ele>923.746</ele>
<time>2020-09-12T09:34:04Z</time>
</trkpt>
<trkpt lat="47.401249" lon="10.88289">
<ele>923.697</ele>
<time>2020-09-12T09:34:05Z</time>
</trkpt>
<trkpt lat="47.401211" lon="10.88298">
<ele>923.443</ele>
<time>2020-09-12T09:34:06Z</time>
</trkpt>
<trkpt lat="47.401176" lon="10.883068">
<ele>923.255</ele>
<time>2020-09-12T09:34:07Z</time>
</trkpt>
<trkpt lat="47.401138" lon="10.883157">
<ele>923.092</ele>
<time>2020-09-12T09:34:08Z</time>
</trkpt>
<trkpt lat="47.401108" lon="10.883248">
<ele>922.963</ele>
<time>2020-09-12T09:34:09Z</time>
</trkpt>
<trkpt lat="47.401073" lon="10.883341">
<ele>922.864</ele>
<time>2020-09-12T09:34:10Z</time>
</trkpt>
<trkpt lat="47.401047" lon="10.883431">
<ele>922.791</ele>
<time>2020-09-12T09:34:11Z</time>
</trkpt>
<trkpt lat="47.401012" lon="10.883521">
<ele>922.745</ele>
<time>2020-09-12T09:34:12Z</time>
</trkpt>
<trkpt lat="47.400982" lon="10.883607">
<ele>922.722</ele>
<time>2020-09-12T09:34:13Z</time>
</trkpt>
<trkpt lat="47.400959" lon="10.883691">
<ele>922.722</ele>
<time>2020-09-12T09:34:14Z</time>
</trkpt>
<trkpt lat="47.40094" lon="10.883781">
<ele>922.722</ele>
<time>2020-09-12T09:34:15Z</time>
</trkpt>
<trkpt lat="47.400925" lon="10.88387">
<ele>922.722</ele>
<time>2020-09-12T09:34:16Z</time>
</trkpt>
<trkpt lat="47.400921" lon="10.883959">
<ele>922.722</ele>
<time>2020-09-12T09:34:17Z</time>
</trkpt>
<trkpt lat="47.400925" lon="10.88404">
<ele>922.722</ele>
<time>2020-09-12T09:34:18Z</time>
</trkpt>
<trkpt lat="47.400936" lon="10.884118">
<ele>922.722</ele>
<time>2020-09-12T09:34:19Z</time>
</trkpt>
<trkpt lat="47.400951" lon="10.884198">
<ele>922.722</ele>
<time>2020-09-12T09:34:20Z</time>
</trkpt>
<trkpt lat="47.400974" lon="10.884277">
<ele>922.722</ele>
<time>2020-09-12T09:34:21Z</time>
</trkpt>
<trkpt lat="47.400997" lon="10.884351">
<ele>922.722</ele>
<time>2020-09-12T09:34:22Z</time>
</trkpt>
<trkpt lat="47.401016" lon="10.884423">
<ele>922.722</ele>
<time>2020-09-12T09:34:23Z</time>
</trkpt>
<trkpt lat="47.401031" lon="10.884501">
<ele>922.722</ele>
<time>2020-09-12T09:34:24Z</time>
</trkpt>
<trkpt lat="47.401043" lon="10.884583">
<ele>922.722</ele>
<time>2020-09-12T09:34:25Z</time>
</trkpt>
<trkpt lat="47.401047" lon="10.884668">
<ele>922.478</ele>
<time>2020-09-12T09:34:26Z</time>
</trkpt>
<trkpt lat="47.401054" lon="10.884753">
<ele>922.305</ele>
<time>2020-09-12T09:34:27Z</time>
</trkpt>
<trkpt lat="47.401062" lon="10.884841">
<ele>922.127</ele>
<time>2020-09-12T09:34:28Z</time>
</trkpt>
<trkpt lat="47.401062" lon="10.88493">
<ele>921.984</ele>
<time>2020-09-12T09:34:29Z</time>
</trkpt>
<trkpt lat="47.401058" lon="10.885019">
<ele>921.873</ele>
<time>2020-09-12T09:34:30Z</time>
</trkpt>
<trkpt lat="47.401054" lon="10.885109">
<ele>921.795</ele>
<time>2020-09-12T09:34:31Z</time>
</trkpt>
<trkpt lat="47.401051" lon="10.885193">
<ele>921.747</ele>
<time>2020-09-12T09:34:32Z</time>
</trkpt>
<trkpt lat="47.401047" lon="10.885281">
<ele>921.724</ele>
<time>2020-09-12T09:34:33Z</time>
</trkpt>
<trkpt lat="47.401039" lon="10.885366">
<ele>921.723</ele>
<time>2020-09-12T09:34:34Z</time>
</trkpt>
<trkpt lat="47.401024" lon="10.885447">
<ele>921.475</ele>
<time>2020-09-12T09:34:35Z</time>
</trkpt>
<trkpt lat="47.401012" lon="10.88553">
<ele>921.281</ele>
<time>2020-09-12T09:34:36Z</time>
</trkpt>
<trkpt lat="47.401001" lon="10.885614">
<ele>921.144</ele>
<time>2020-09-12T09:34:37Z</time>
</trkpt>
<trkpt lat="47.40099" lon="10.8857">
<ele>920.998</ele>
<time>2020-09-12T09:34:38Z</time>
</trkpt>
<trkpt lat="47.400978" lon="10.885783">
<ele>920.884</ele>
<time>2020-09-12T09:34:39Z</time>
</trkpt>
<trkpt lat="47.400963" lon="10.885867">
<ele>920.802</ele>
<time>2020-09-12T09:34:40Z</time>
</trkpt>
<trkpt lat="47.400951" lon="10.88595">
<ele>920.751</ele>
<time>2020-09-12T09:34:41Z</time>
</trkpt>
<trkpt lat="47.40094" lon="10.886037">
<ele>920.725</ele>
<time>2020-09-12T09:34:42Z</time>
</trkpt>
<trkpt lat="47.400921" lon="10.886124">
<ele>920.725</ele>
<time>2020-09-12T09:34:43Z</time>
</trkpt>
<trkpt lat="47.400902" lon="10.886211">
<ele>920.725</ele>
<time>2020-09-12T09:34:44Z</time>
</trkpt>
<trkpt lat="47.400883" lon="10.886297">
<ele>920.725</ele>
<time>2020-09-12T09:34:45Z</time>
</trkpt>
<trkpt lat="47.400864" lon="10.886383">
<ele>920.725</ele>
<time>2020-09-12T09:34:46Z</time>
</trkpt>
<trkpt lat="47.400845" lon="10.886463">
<ele>920.725</ele>
<time>2020-09-12T09:34:47Z</time>
</trkpt>
<trkpt lat="47.400826" lon="10.886544">
<ele>920.725</ele>
<time>2020-09-12T09:34:48Z</time>
</trkpt>
<trkpt lat="47.400814" lon="10.886626">
<ele>920.725</ele>
<time>2020-09-12T09:34:49Z</time>
</trkpt>
<trkpt lat="47.400799" lon="10.88671">
<ele>920.439</ele>
<time>2020-09-12T09:34:50Z</time>
</trkpt>
<trkpt lat="47.400784" lon="10.886793">
<ele>920.22</ele>
<time>2020-09-12T09:34:51Z</time>
</trkpt>
<trkpt lat="47.40078" lon="10.886878">
<ele>920.05</ele>
<time>2020-09-12T09:34:52Z</time>
</trkpt>
<trkpt lat="47.400772" lon="10.886965">
<ele>919.919</ele>
<time>2020-09-12T09:34:53Z</time>
</trkpt>
<trkpt lat="47.400768" lon="10.887052">
<ele>919.831</ele>
<time>2020-09-12T09:34:54Z</time>
</trkpt>
<trkpt lat="47.400761" lon="10.887138">
<ele>919.776</ele>
<time>2020-09-12T09:34:55Z</time>
</trkpt>
<trkpt lat="47.400757" lon="10.887227">
<ele>919.75</ele>
<time>2020-09-12T09:34:56Z</time>
</trkpt>
<trkpt lat="47.400757" lon="10.887317">
<ele>919.727</ele>
<time>2020-09-12T09:34:57Z</time>
</trkpt>
<trkpt lat="47.400757" lon="10.887407">
<ele>919.727</ele>
<time>2020-09-12T09:34:58Z</time>
</trkpt>
<trkpt lat="47.400761" lon="10.887493">
<ele>919.727</ele>
<time>2020-09-12T09:34:59Z</time>
</trkpt>
<trkpt lat="47.400768" lon="10.88758">
<ele>919.727</ele>
<time>2020-09-12T09:35:00Z</time>
</trkpt>
<trkpt lat="47.400784" lon="10.887665">
<ele>919.727</ele>
<time>2020-09-12T09:35:01Z</time>
</trkpt>
<trkpt lat="47.400806" lon="10.887747">
<ele>919.727</ele>
<time>2020-09-12T09:35:02Z</time>
</trkpt>
<trkpt lat="47.400833" lon="10.887829">
<ele>919.464</ele>
<time>2020-09-12T09:35:03Z</time>
</trkpt>
<trkpt lat="47.400867" lon="10.887901">
<ele>919.258</ele>
<time>2020-09-12T09:35:04Z</time>
</trkpt>
<trkpt lat="47.400909" lon="10.887963">
<ele>919.097</ele>
<time>2020-09-12T09:35:05Z</time>
</trkpt>
<trkpt lat="47.400955" lon="10.88802">
<ele>918.978</ele>
<time>2020-09-12T09:35:06Z</time>
</trkpt>
<trkpt lat="47.401009" lon="10.888068">
<ele>918.894</ele>
<time>2020-09-12T09:35:07Z</time>
</trkpt>
<trkpt lat="47.401058" lon="10.888108">
<ele>918.811</ele>
<time>2020-09-12T09:35:08Z</time>
</trkpt>
<trkpt lat="47.401112" lon="10.888144">
<ele>918.535</ele>
<time>2020-09-12T09:35:09Z</time>
</trkpt>
<trkpt lat="47.401165" lon="10.888175">
<ele>918.325</ele>
<time>2020-09-12T09:35:10Z</time>
</trkpt>
<trkpt lat="47.401215" lon="10.888204">
<ele>918.095</ele>
<time>2020-09-12T09:35:11Z</time>
</trkpt>
<trkpt lat="47.401272" lon="10.888227">
<ele>917.978</ele>
<time>2020-09-12T09:35:12Z</time>
</trkpt>
<trkpt lat="47.401325" lon="10.888251">
<ele>917.897</ele>
<time>2020-09-12T09:35:13Z</time>
</trkpt>
<trkpt lat="47.401379" lon="10.888277">
<ele>917.848</ele>
<time>2020-09-12T09:35:14Z</time>
</trkpt>
<trkpt lat="47.401436" lon="10.888304">
<ele>917.824</ele>
<time>2020-09-12T09:35:15Z</time>
</trkpt>
<trkpt lat="47.401485" lon="10.888331">
<ele>917.821</ele>
<time>2020-09-12T09:35:16Z</time>
</trkpt>
<trkpt lat="47.401535" lon="10.888363">
<ele>917.821</ele>
<time>2020-09-12T09:35:17Z</time>
</trkpt>
<trkpt lat="47.401588" lon="10.8884">
<ele>917.821</ele>
<time>2020-09-12T09:35:18Z</time>
</trkpt>
<trkpt lat="47.401634" lon="10.88844">
<ele>917.821</ele>
<time>2020-09-12T09:35:19Z</time>
</trkpt>
<trkpt lat="47.401684" lon="10.888482">
<ele>917.821</ele>
<time>2020-09-12T09:35:20Z</time>
</trkpt>
<trkpt lat="47.40173" lon="10.888527">
<ele>917.821</ele>
<time>2020-09-12T09:35:21Z</time>
</trkpt>
<trkpt lat="47.401772" lon="10.888575">
<ele>917.478</ele>
<time>2020-09-12T09:35:22Z</time>
</trkpt>
<trkpt lat="47.401814" lon="10.888625">
<ele>917.212</ele>
<time>2020-09-12T09:35:23Z</time>
</trkpt>
<trkpt lat="47.401855" lon="10.888675">
<ele>917.002</ele>
<time>2020-09-12T09:35:24Z</time>
</trkpt>
<trkpt lat="47.40189" lon="10.888728">
<ele>916.848</ele>
<time>2020-09-12T09:35:25Z</time>
</trkpt>
<trkpt lat="47.401928" lon="10.888783">
<ele>916.74</ele>
<time>2020-09-12T09:35:26Z</time>
</trkpt>
<trkpt lat="47.401962" lon="10.888839">
<ele>916.659</ele>
<time>2020-09-12T09:35:27Z</time>
</trkpt>
<trkpt lat="47.402" lon="10.888891">
<ele>916.586</ele>
<time>2020-09-12T09:35:28Z</time>
</trkpt>
<trkpt lat="47.402035" lon="10.888947">
<ele>916.551</ele>
<time>2020-09-12T09:35:29Z</time>
</trkpt>
<trkpt lat="47.402069" lon="10.889005">
<ele>916.551</ele>
<time>2020-09-12T09:35:30Z</time>
</trkpt>
<trkpt lat="47.4021" lon="10.889062">
<ele>916.551</ele>
<time>2020-09-12T09:35:31Z</time>
</trkpt>
<trkpt lat="47.402134" lon="10.889119">
<ele>916.551</ele>
<time>2020-09-12T09:35:32Z</time>
</trkpt>
<trkpt lat="47.402164" lon="10.889176">
<ele>916.551</ele>
<time>2020-09-12T09:35:33Z</time>
</trkpt>
<trkpt lat="47.402195" lon="10.889235">
<ele>916.551</ele>
<time>2020-09-12T09:35:34Z</time>
</trkpt>
<trkpt lat="47.402218" lon="10.889298">
<ele>916.55</ele>
<time>2020-09-12T09:35:35Z</time>
</trkpt>
<trkpt lat="47.402233" lon="10.889364">
<ele>916.551</ele>
<time>2020-09-12T09:35:36Z</time>
</trkpt>
<trkpt lat="47.402237" lon="10.889433">
<ele>916.55</ele>
<time>2020-09-12T09:35:37Z</time>
</trkpt>
<trkpt lat="47.402229" lon="10.889506">
<ele>916.551</ele>
<time>2020-09-12T09:35:38Z</time>
</trkpt>
<trkpt lat="47.402225" lon="10.88958">
<ele>916.551</ele>
<time>2020-09-12T09:35:39Z</time>
</trkpt>
<trkpt lat="47.402218" lon="10.889655">
<ele>916.551</ele>
<time>2020-09-12T09:35:40Z</time>
</trkpt>
<trkpt lat="47.402206" lon="10.889731">
<ele>916.551</ele>
<time>2020-09-12T09:35:41Z</time>
</trkpt>
<trkpt lat="47.402195" lon="10.889807">
<ele>916.551</ele>
<time>2020-09-12T09:35:42Z</time>
</trkpt>
<trkpt lat="47.402191" lon="10.889886">
<ele>916.551</ele>
<time>2020-09-12T09:35:43Z</time>
</trkpt>
<trkpt lat="47.402187" lon="10.889965">
<ele>916.551</ele>
<time>2020-09-12T09:35:44Z</time>
</trkpt>
<trkpt lat="47.40218" lon="10.89004">
<ele>916.551</ele>
<time>2020-09-12T09:35:45Z</time>
</trkpt>
<trkpt lat="47.402164" lon="10.890115">
<ele>916.551</ele>
<time>2020-09-12T09:35:46Z</time>
</trkpt>
<trkpt lat="47.402153" lon="10.890188">
<ele>916.551</ele>
<time>2020-09-12T09:35:47Z</time>
</trkpt>
<trkpt lat="47.402145" lon="10.890264">
<ele>916.551</ele>
<time>2020-09-12T09:35:48Z</time>
</trkpt>
<trkpt lat="47.402134" lon="10.890337">
<ele>916.55</ele>
<time>2020-09-12T09:35:49Z</time>
</trkpt>
<trkpt lat="47.402122" lon="10.890408">
<ele>916.551</ele>
<time>2020-09-12T09:35:50Z</time>
</trkpt>
<trkpt lat="47.402103" lon="10.890483">
<ele>916.551</ele>
<time>2020-09-12T09:35:51Z</time>
</trkpt>
<trkpt lat="47.402088" lon="10.890562">
<ele>916.55</ele>
<time>2020-09-12T09:35:52Z</time>
</trkpt>
<trkpt lat="47.402065" lon="10.890636">
<ele>916.55</ele>
<time>2020-09-12T09:35:53Z</time>
</trkpt>
<trkpt lat="47.402039" lon="10.890712">
<ele>916.55</ele>
<time>2020-09-12T09:35:54Z</time>
</trkpt>
<trkpt lat="47.402016" lon="10.890785">
<ele>916.551</ele>
<time>2020-09-12T09:35:55Z</time>
</trkpt>
<trkpt lat="47.401989" lon="10.890854">
<ele>916.55</ele>
<time>2020-09-12T09:35:56Z</time>
</trkpt>
<trkpt lat="47.401958" lon="10.890922">
<ele>916.551</ele>
<time>2020-09-12T09:35:57Z</time>
</trkpt>
<trkpt lat="47.401932" lon="10.89099">
<ele>916.551</ele>
<time>2020-09-12T09:35:58Z</time>
</trkpt>
<trkpt lat="47.401905" lon="10.891064">
<ele>916.551</ele>
<time>2020-09-12T09:35:59Z</time>
</trkpt>
<trkpt lat="47.401878" lon="10.891132">
<ele>916.551</ele>
<time>2020-09-12T09:36:00Z</time>
</trkpt>
<trkpt lat="47.401852" lon="10.8912">
<ele>916.551</ele>
<time>2020-09-12T09:36:01Z</time>
</trkpt>
<trkpt lat="47.401821" lon="10.891267">
<ele>916.551</ele>
<time>2020-09-12T09:36:02Z</time>
</trkpt>
<trkpt lat="47.401794" lon="10.891328">
<ele>916.55</ele>
<time>2020-09-12T09:36:03Z</time>
</trkpt>
<trkpt lat="47.401764" lon="10.891378">
<ele>916.3</ele>
<time>2020-09-12T09:36:04Z</time>
</trkpt>
<trkpt lat="47.401741" lon="10.891419">
<ele>916.107</ele>
<time>2020-09-12T09:36:05Z</time>
</trkpt>
<trkpt lat="47.40173" lon="10.891457">
<ele>915.957</ele>
<time>2020-09-12T09:36:06Z</time>
</trkpt>
<trkpt lat="47.401726" lon="10.89148">
<ele>915.847</ele>
<time>2020-09-12T09:36:07Z</time>
</trkpt>
<trkpt lat="47.401726" lon="10.89149">
<ele>915.737</ele>
<time>2020-09-12T09:36:08Z</time>
</trkpt>
<trkpt lat="47.401726" lon="10.891521">
<ele>915.651</ele>
<time>2020-09-12T09:36:41Z</time>
</trkpt>
<trkpt lat="47.401722" lon="10.891552">
<ele>915.589</ele>
<time>2020-09-12T09:36:42Z</time>
</trkpt>
<trkpt lat="47.401714" lon="10.891587">
<ele>915.553</ele>
<time>2020-09-12T09:36:43Z</time>
</trkpt>
<trkpt lat="47.401711" lon="10.891625">
<ele>915.553</ele>
<time>2020-09-12T09:36:44Z</time>
</trkpt>
<trkpt lat="47.401703" lon="10.891663">
<ele>915.553</ele>
<time>2020-09-12T09:36:45Z</time>
</trkpt>
<trkpt lat="47.401695" lon="10.891705">
<ele>915.553</ele>
<time>2020-09-12T09:36:46Z</time>
</trkpt>
<trkpt lat="47.401688" lon="10.891752">
<ele>915.553</ele>
<time>2020-09-12T09:36:47Z</time>
</trkpt>
<trkpt lat="47.40168" lon="10.8918">
<ele>915.553</ele>
<time>2020-09-12T09:36:48Z</time>
</trkpt>
<trkpt lat="47.40168" lon="10.891853">
<ele>915.553</ele>
<time>2020-09-12T09:36:49Z</time>
</trkpt>
<trkpt lat="47.401676" lon="10.891905">
<ele>915.553</ele>
<time>2020-09-12T09:36:50Z</time>
</trkpt>
<trkpt lat="47.401676" lon="10.89196">
<ele>915.553</ele>
<time>2020-09-12T09:36:51Z</time>
</trkpt>
<trkpt lat="47.401684" lon="10.892015">
<ele>915.553</ele>
<time>2020-09-12T09:36:52Z</time>
</trkpt>
<trkpt lat="47.401688" lon="10.892072">
<ele>915.553</ele>
<time>2020-09-12T09:36:53Z</time>
</trkpt>
<trkpt lat="47.401695" lon="10.892132">
<ele>915.553</ele>
<time>2020-09-12T09:36:54Z</time>
</trkpt>
<trkpt lat="47.401699" lon="10.892197">
<ele>915.553</ele>
<time>2020-09-12T09:36:55Z</time>
</trkpt>
<trkpt lat="47.401707" lon="10.892262">
<ele>915.553</ele>
<time>2020-09-12T09:36:56Z</time>
</trkpt>
<trkpt lat="47.401714" lon="10.892326">
<ele>915.553</ele>
<time>2020-09-12T09:36:57Z</time>
</trkpt>
<trkpt lat="47.401718" lon="10.892391">
<ele>915.553</ele>
<time>2020-09-12T09:36:58Z</time>
</trkpt>
<trkpt lat="47.401726" lon="10.892457">
<ele>915.553</ele>
<time>2020-09-12T09:36:59Z</time>
</trkpt>
<trkpt lat="47.40173" lon="10.892524">
<ele>915.553</ele>
<time>2020-09-12T09:37:00Z</time>
</trkpt>
<trkpt lat="47.401733" lon="10.892593">
<ele>915.553</ele>
<time>2020-09-12T09:37:01Z</time>
</trkpt>
<trkpt lat="47.401741" lon="10.892662">
<ele>915.553</ele>
<time>2020-09-12T09:37:02Z</time>
</trkpt>
<trkpt lat="47.401749" lon="10.89273">
<ele>915.553</ele>
<time>2020-09-12T09:37:03Z</time>
</trkpt>
<trkpt lat="47.401752" lon="10.892798">
<ele>915.553</ele>
<time>2020-09-12T09:37:04Z</time>
</trkpt>
<trkpt lat="47.401756" lon="10.892867">
<ele>915.553</ele>
<time>2020-09-12T09:37:05Z</time>
</trkpt>
<trkpt lat="47.40176" lon="10.892935">
<ele>915.553</ele>
<time>2020-09-12T09:37:06Z</time>
</trkpt>
<trkpt lat="47.40176" lon="10.893005">
<ele>915.553</ele>
<time>2020-09-12T09:37:07Z</time>
</trkpt>
<trkpt lat="47.401756" lon="10.893075">
<ele>915.553</ele>
<time>2020-09-12T09:37:08Z</time>
</trkpt>
<trkpt lat="47.401756" lon="10.893146">
<ele>915.553</ele>
<time>2020-09-12T09:37:09Z</time>
</trkpt>
<trkpt lat="47.401752" lon="10.893215">
<ele>915.553</ele>
<time>2020-09-12T09:37:10Z</time>
</trkpt>
<trkpt lat="47.401749" lon="10.893285">
<ele>915.553</ele>
<time>2020-09-12T09:37:11Z</time>
</trkpt>
<trkpt lat="47.401745" lon="10.893355">
<ele>915.553</ele>
<time>2020-09-12T09:37:12Z</time>
</trkpt>
<trkpt lat="47.401741" lon="10.893423">
<ele>915.553</ele>
<time>2020-09-12T09:37:13Z</time>
</trkpt>
<trkpt lat="47.401737" lon="10.893492">
<ele>915.258</ele>
<time>2020-09-12T09:37:14Z</time>
</trkpt>
<trkpt lat="47.40173" lon="10.893565">
<ele>915.024</ele>
<time>2020-09-12T09:37:15Z</time>
</trkpt>
<trkpt lat="47.401726" lon="10.893637">
<ele>914.85</ele>
<time>2020-09-12T09:37:16Z</time>
</trkpt>
<trkpt lat="47.401722" lon="10.89371">
<ele>914.719</ele>
<time>2020-09-12T09:37:17Z</time>
</trkpt>
<trkpt lat="47.401714" lon="10.893785">
<ele>914.622</ele>
<time>2020-09-12T09:37:18Z</time>
</trkpt>
<trkpt lat="47.401711" lon="10.893858">
<ele>914.554</ele>
<time>2020-09-12T09:37:19Z</time>
</trkpt>
<trkpt lat="47.401707" lon="10.893931">
<ele>914.493</ele>
<time>2020-09-12T09:37:20Z</time>
</trkpt>
<trkpt lat="47.401703" lon="10.894003">
<ele>914.464</ele>
<time>2020-09-12T09:37:21Z</time>
</trkpt>
<trkpt lat="47.401699" lon="10.894078">
<ele>914.464</ele>
<time>2020-09-12T09:37:22Z</time>
</trkpt>
<trkpt lat="47.401699" lon="10.894152">
<ele>914.464</ele>
<time>2020-09-12T09:37:23Z</time>
</trkpt>
<trkpt lat="47.401695" lon="10.894223">
<ele>914.464</ele>
<time>2020-09-12T09:37:24Z</time>
</trkpt>
<trkpt lat="47.401691" lon="10.894295">
<ele>914.464</ele>
<time>2020-09-12T09:37:25Z</time>
</trkpt>
<trkpt lat="47.401688" lon="10.894368">
<ele>914.464</ele>
<time>2020-09-12T09:37:26Z</time>
</trkpt>
<trkpt lat="47.401684" lon="10.894445">
<ele>914.464</ele>
<time>2020-09-12T09:37:27Z</time>
</trkpt>
<trkpt lat="47.401684" lon="10.894518">
<ele>914.464</ele>
<time>2020-09-12T09:37:28Z</time>
</trkpt>
<trkpt lat="47.401684" lon="10.894596">
<ele>914.464</ele>
<time>2020-09-12T09:37:29Z</time>
</trkpt>
<trkpt lat="47.40168" lon="10.894675">
<ele>914.464</ele>
<time>2020-09-12T09:37:30Z</time>
</trkpt>
<trkpt lat="47.401676" lon="10.894753">
<ele>914.464</ele>
<time>2020-09-12T09:37:31Z</time>
</trkpt>
<trkpt lat="47.401672" lon="10.89483">
<ele>914.464</ele>
<time>2020-09-12T09:37:32Z</time>
</trkpt>
<trkpt lat="47.401665" lon="10.894906">
<ele>914.464</ele>
<time>2020-09-12T09:37:33Z</time>
</trkpt>
<trkpt lat="47.401665" lon="10.894981">
<ele>914.464</ele>
<time>2020-09-12T09:37:34Z</time>
</trkpt>
<trkpt lat="47.401657" lon="10.895057">
<ele>914.464</ele>
<time>2020-09-12T09:37:35Z</time>
</trkpt>
<trkpt lat="47.401653" lon="10.89513">
<ele>914.464</ele>
<time>2020-09-12T09:37:36Z</time>
</trkpt>
<trkpt lat="47.401653" lon="10.895204">
<ele>914.464</ele>
<time>2020-09-12T09:37:37Z</time>
</trkpt>
<trkpt lat="47.401649" lon="10.895279">
<ele>914.464</ele>
<time>2020-09-12T09:37:38Z</time>
</trkpt>
<trkpt lat="47.401649" lon="10.895353">
<ele>914.245</ele>
<time>2020-09-12T09:37:39Z</time>
</trkpt>
<trkpt lat="47.401653" lon="10.895428">
<ele>914.035</ele>
<time>2020-09-12T09:37:40Z</time>
</trkpt>
<trkpt lat="47.401661" lon="10.895501">
<ele>913.862</ele>
<time>2020-09-12T09:37:41Z</time>
</trkpt>
<trkpt lat="47.401669" lon="10.895576">
<ele>913.723</ele>
<time>2020-09-12T09:37:42Z</time>
</trkpt>
<trkpt lat="47.40168" lon="10.895654">
<ele>913.616</ele>
<time>2020-09-12T09:37:43Z</time>
</trkpt>
<trkpt lat="47.401688" lon="10.895732">
<ele>913.538</ele>
<time>2020-09-12T09:37:44Z</time>
</trkpt>
<trkpt lat="47.401695" lon="10.89581">
<ele>913.49</ele>
<time>2020-09-12T09:37:45Z</time>
</trkpt>
<trkpt lat="47.401699" lon="10.895888">
<ele>913.467</ele>
<time>2020-09-12T09:37:46Z</time>
</trkpt>
<trkpt lat="47.401699" lon="10.895968">
<ele>913.467</ele>
<time>2020-09-12T09:37:47Z</time>
</trkpt>
<trkpt lat="47.401699" lon="10.896046">
<ele>913.467</ele>
<time>2020-09-12T09:37:48Z</time>
</trkpt>
<trkpt lat="47.401699" lon="10.896123">
<ele>913.467</ele>
<time>2020-09-12T09:37:49Z</time>
</trkpt>
<trkpt lat="47.401699" lon="10.896202">
<ele>913.467</ele>
<time>2020-09-12T09:37:50Z</time>
</trkpt>
<trkpt lat="47.401699" lon="10.89628">
<ele>913.467</ele>
<time>2020-09-12T09:37:51Z</time>
</trkpt>
<trkpt lat="47.401699" lon="10.896357">
<ele>913.467</ele>
<time>2020-09-12T09:37:52Z</time>
</trkpt>
<trkpt lat="47.401699" lon="10.896433">
<ele>913.467</ele>
<time>2020-09-12T09:37:53Z</time>
</trkpt>
<trkpt lat="47.401699" lon="10.89651">
<ele>913.467</ele>
<time>2020-09-12T09:37:54Z</time>
</trkpt>
<trkpt lat="47.401699" lon="10.896586">
<ele>913.467</ele>
<time>2020-09-12T09:37:55Z</time>
</trkpt>
<trkpt lat="47.401707" lon="10.896666">
<ele>913.467</ele>
<time>2020-09-12T09:37:56Z</time>
</trkpt>
<trkpt lat="47.401707" lon="10.896742">
<ele>913.467</ele>
<time>2020-09-12T09:37:57Z</time>
</trkpt>
<trkpt lat="47.401711" lon="10.896821">
<ele>913.467</ele>
<time>2020-09-12T09:37:58Z</time>
</trkpt>
<trkpt lat="47.401711" lon="10.8969">
<ele>913.467</ele>
<time>2020-09-12T09:37:59Z</time>
</trkpt>
<trkpt lat="47.401711" lon="10.896976">
<ele>913.467</ele>
<time>2020-09-12T09:38:00Z</time>
</trkpt>
<trkpt lat="47.401711" lon="10.897056">
<ele>913.466</ele>
<time>2020-09-12T09:38:01Z</time>
</trkpt>
<trkpt lat="47.401711" lon="10.897133">
<ele>913.467</ele>
<time>2020-09-12T09:38:02Z</time>
</trkpt>
<trkpt lat="47.401711" lon="10.897213">
<ele>913.467</ele>
<time>2020-09-12T09:38:03Z</time>
</trkpt>
<trkpt lat="47.401711" lon="10.897294">
<ele>913.467</ele>
<time>2020-09-12T09:38:04Z</time>
</trkpt>
<trkpt lat="47.401711" lon="10.897373">
<ele>913.467</ele>
<time>2020-09-12T09:38:05Z</time>
</trkpt>
<trkpt lat="47.401711" lon="10.897455">
<ele>913.467</ele>
<time>2020-09-12T09:38:06Z</time>
</trkpt>
<trkpt lat="47.401711" lon="10.897535">
<ele>913.467</ele>
<time>2020-09-12T09:38:07Z</time>
</trkpt>
<trkpt lat="47.401714" lon="10.897614">
<ele>913.467</ele>
<time>2020-09-12T09:38:08Z</time>
</trkpt>
<trkpt lat="47.401718" lon="10.897695">
<ele>913.467</ele>
<time>2020-09-12T09:38:09Z</time>
</trkpt>
<trkpt lat="47.401722" lon="10.897775">
<ele>913.467</ele>
<time>2020-09-12T09:38:10Z</time>
</trkpt>
<trkpt lat="47.40173" lon="10.897856">
<ele>913.196</ele>
<time>2020-09-12T09:38:11Z</time>
</trkpt>
<trkpt lat="47.401733" lon="10.897935">
<ele>912.987</ele>
<time>2020-09-12T09:38:12Z</time>
</trkpt>
<trkpt lat="47.401737" lon="10.898017">
<ele>912.826</ele>
<time>2020-09-12T09:38:13Z</time>
</trkpt>
<trkpt lat="47.401741" lon="10.898095">
<ele>912.711</ele>
<time>2020-09-12T09:38:14Z</time>
</trkpt>
<trkpt lat="47.401745" lon="10.898171">
<ele>912.631</ele>
<time>2020-09-12T09:38:15Z</time>
</trkpt>
<trkpt lat="47.401749" lon="10.898247">
<ele>912.582</ele>
<time>2020-09-12T09:38:16Z</time>
</trkpt>
<trkpt lat="47.401752" lon="10.898321">
<ele>912.559</ele>
<time>2020-09-12T09:38:17Z</time>
</trkpt>
<trkpt lat="47.401752" lon="10.898396">
<ele>912.559</ele>
<time>2020-09-12T09:38:18Z</time>
</trkpt>
<trkpt lat="47.401756" lon="10.898479">
<ele>912.559</ele>
<time>2020-09-12T09:38:19Z</time>
</trkpt>
<trkpt lat="47.40176" lon="10.89856">
<ele>912.559</ele>
<time>2020-09-12T09:38:20Z</time>
</trkpt>
<trkpt lat="47.401764" lon="10.89864">
<ele>912.559</ele>
<time>2020-09-12T09:38:21Z</time>
</trkpt>
<trkpt lat="47.401768" lon="10.898721">
<ele>912.559</ele>
<time>2020-09-12T09:38:22Z</time>
</trkpt>
<trkpt lat="47.401772" lon="10.898802">
<ele>912.559</ele>
<time>2020-09-12T09:38:23Z</time>
</trkpt>
<trkpt lat="47.401775" lon="10.898882">
<ele>912.559</ele>
<time>2020-09-12T09:38:24Z</time>
</trkpt>
<trkpt lat="47.401779" lon="10.89896">
<ele>912.559</ele>
<time>2020-09-12T09:38:25Z</time>
</trkpt>
<trkpt lat="47.401783" lon="10.899039">
<ele>912.559</ele>
<time>2020-09-12T09:38:26Z</time>
</trkpt>
<trkpt lat="47.401791" lon="10.899121">
<ele>912.559</ele>
<time>2020-09-12T09:38:27Z</time>
</trkpt>
<trkpt lat="47.401791" lon="10.899203">
<ele>912.559</ele>
<time>2020-09-12T09:38:28Z</time>
</trkpt>
<trkpt lat="47.401794" lon="10.899284">
<ele>912.559</ele>
<time>2020-09-12T09:38:29Z</time>
</trkpt>
<trkpt lat="47.401794" lon="10.899364">
<ele>912.559</ele>
<time>2020-09-12T09:38:30Z</time>
</trkpt>
<trkpt lat="47.401794" lon="10.899444">
<ele>912.559</ele>
<time>2020-09-12T09:38:31Z</time>
</trkpt>
<trkpt lat="47.401794" lon="10.899524">
<ele>912.559</ele>
<time>2020-09-12T09:38:32Z</time>
</trkpt>
<trkpt lat="47.401798" lon="10.899603">
<ele>912.559</ele>
<time>2020-09-12T09:38:33Z</time>
</trkpt>
<trkpt lat="47.401798" lon="10.89968">
<ele>912.559</ele>
<time>2020-09-12T09:38:34Z</time>
</trkpt>
<trkpt lat="47.401802" lon="10.899758">
<ele>912.559</ele>
<time>2020-09-12T09:38:35Z</time>
</trkpt>
<trkpt lat="47.401802" lon="10.899838">
<ele>912.559</ele>
<time>2020-09-12T09:38:36Z</time>
</trkpt>
<trkpt lat="47.401806" lon="10.899917">
<ele>912.559</ele>
<time>2020-09-12T09:38:37Z</time>
</trkpt>
<trkpt lat="47.40181" lon="10.899995">
<ele>912.559</ele>
<time>2020-09-12T09:38:38Z</time>
</trkpt>
<trkpt lat="47.401814" lon="10.900073">
<ele>912.559</ele>
<time>2020-09-12T09:38:39Z</time>
</trkpt>
<trkpt lat="47.401814" lon="10.90015">
<ele>912.559</ele>
<time>2020-09-12T09:38:40Z</time>
</trkpt>
<trkpt lat="47.401814" lon="10.900229">
<ele>912.559</ele>
<time>2020-09-12T09:38:41Z</time>
</trkpt>
<trkpt lat="47.401814" lon="10.900309">
<ele>912.559</ele>
<time>2020-09-12T09:38:42Z</time>
</trkpt>
<trkpt lat="47.401817" lon="10.900389">
<ele>912.559</ele>
<time>2020-09-12T09:38:43Z</time>
</trkpt>
<trkpt lat="47.401821" lon="10.90047">
<ele>912.559</ele>
<time>2020-09-12T09:38:44Z</time>
</trkpt>
<trkpt lat="47.401825" lon="10.900552">
<ele>912.559</ele>
<time>2020-09-12T09:38:45Z</time>
</trkpt>
<trkpt lat="47.401829" lon="10.900634">
<ele>912.559</ele>
<time>2020-09-12T09:38:46Z</time>
</trkpt>
<trkpt lat="47.401829" lon="10.900715">
<ele>912.559</ele>
<time>2020-09-12T09:38:47Z</time>
</trkpt>
<trkpt lat="47.401829" lon="10.900797">
<ele>912.559</ele>
<time>2020-09-12T09:38:48Z</time>
</trkpt>
<trkpt lat="47.401829" lon="10.900879">
<ele>912.559</ele>
<time>2020-09-12T09:38:49Z</time>
</trkpt>
<trkpt lat="47.401833" lon="10.90096">
<ele>912.559</ele>
<time>2020-09-12T09:38:50Z</time>
</trkpt>
<trkpt lat="47.401836" lon="10.901042">
<ele>912.559</ele>
<time>2020-09-12T09:38:51Z</time>
</trkpt>
<trkpt lat="47.401836" lon="10.901122">
<ele>912.559</ele>
<time>2020-09-12T09:38:52Z</time>
</trkpt>
<trkpt lat="47.401836" lon="10.901201">
<ele>912.559</ele>
<time>2020-09-12T09:38:53Z</time>
</trkpt>
<trkpt lat="47.401836" lon="10.901281">
<ele>912.559</ele>
<time>2020-09-12T09:38:54Z</time>
</trkpt>
<trkpt lat="47.401836" lon="10.901361">
<ele>912.559</ele>
<time>2020-09-12T09:38:55Z</time>
</trkpt>
<trkpt lat="47.401833" lon="10.901441">
<ele>912.559</ele>
<time>2020-09-12T09:38:56Z</time>
</trkpt>
<trkpt lat="47.401829" lon="10.901524">
<ele>912.559</ele>
<time>2020-09-12T09:38:57Z</time>
</trkpt>
<trkpt lat="47.401825" lon="10.901604">
<ele>912.559</ele>
<time>2020-09-12T09:38:58Z</time>
</trkpt>
<trkpt lat="47.401814" lon="10.901684">
<ele>912.559</ele>
<time>2020-09-12T09:38:59Z</time>
</trkpt>
<trkpt lat="47.401802" lon="10.901767">
<ele>912.559</ele>
<time>2020-09-12T09:39:00Z</time>
</trkpt>
<trkpt lat="47.401791" lon="10.901847">
<ele>912.559</ele>
<time>2020-09-12T09:39:01Z</time>
</trkpt>
<trkpt lat="47.401779" lon="10.901923">
<ele>912.559</ele>
<time>2020-09-12T09:39:02Z</time>
</trkpt>
<trkpt lat="47.401764" lon="10.902001">
<ele>912.559</ele>
<time>2020-09-12T09:39:03Z</time>
</trkpt>
<trkpt lat="47.401752" lon="10.90208">
<ele>912.559</ele>
<time>2020-09-12T09:39:04Z</time>
</trkpt>
<trkpt lat="47.401741" lon="10.902159">
<ele>912.298</ele>
<time>2020-09-12T09:39:05Z</time>
</trkpt>
<trkpt lat="47.40173" lon="10.902235">
<ele>912.093</ele>
<time>2020-09-12T09:39:06Z</time>
</trkpt>
<trkpt lat="47.401718" lon="10.902313">
<ele>911.935</ele>
<time>2020-09-12T09:39:07Z</time>
</trkpt>
<trkpt lat="47.401703" lon="10.902391">
<ele>911.815</ele>
<time>2020-09-12T09:39:08Z</time>
</trkpt>
<trkpt lat="47.401695" lon="10.902467">
<ele>911.729</ele>
<time>2020-09-12T09:39:09Z</time>
</trkpt>
<trkpt lat="47.40168" lon="10.902542">
<ele>911.642</ele>
<time>2020-09-12T09:39:10Z</time>
</trkpt>
<trkpt lat="47.401669" lon="10.902618">
<ele>911.588</ele>
<time>2020-09-12T09:39:11Z</time>
</trkpt>
<trkpt lat="47.401657" lon="10.902698">
<ele>911.562</ele>
<time>2020-09-12T09:39:12Z</time>
</trkpt>
<trkpt lat="47.401646" lon="10.902781">
<ele>911.562</ele>
<time>2020-09-12T09:39:13Z</time>
</trkpt>
<trkpt lat="47.401634" lon="10.902862">
<ele>911.562</ele>
<time>2020-09-12T09:39:14Z</time>
</trkpt>
<trkpt lat="47.401619" lon="10.902943">
<ele>911.562</ele>
<time>2020-09-12T09:39:15Z</time>
</trkpt>
<trkpt lat="47.401604" lon="10.903025">
<ele>911.562</ele>
<time>2020-09-12T09:39:16Z</time>
</trkpt>
<trkpt lat="47.401592" lon="10.903104">
<ele>911.562</ele>
<time>2020-09-12T09:39:17Z</time>
</trkpt>
<trkpt lat="47.401569" lon="10.903172">
<ele>911.562</ele>
<time>2020-09-12T09:39:18Z</time>
</trkpt>
<trkpt lat="47.401535" lon="10.90323">
<ele>911.562</ele>
<time>2020-09-12T09:39:19Z</time>
</trkpt>
<trkpt lat="47.401505" lon="10.903286">
<ele>911.562</ele>
<time>2020-09-12T09:39:20Z</time>
</trkpt>
<trkpt lat="47.40147" lon="10.903338">
<ele>911.562</ele>
<time>2020-09-12T09:39:21Z</time>
</trkpt>
<trkpt lat="47.401436" lon="10.903391">
<ele>911.562</ele>
<time>2020-09-12T09:39:22Z</time>
</trkpt>
<trkpt lat="47.401394" lon="10.90344">
<ele>911.562</ele>
<time>2020-09-12T09:39:23Z</time>
</trkpt>
<trkpt lat="47.401352" lon="10.903496">
<ele>911.562</ele>
<time>2020-09-12T09:39:24Z</time>
</trkpt>
<trkpt lat="47.401314" lon="10.90355">
<ele>911.562</ele>
<time>2020-09-12T09:39:25Z</time>
</trkpt>
<trkpt lat="47.401276" lon="10.90361">
<ele>911.562</ele>
<time>2020-09-12T09:39:26Z</time>
</trkpt>
<trkpt lat="47.401245" lon="10.903676">
<ele>911.562</ele>
<time>2020-09-12T09:39:27Z</time>
</trkpt>
<trkpt lat="47.401222" lon="10.903749">
<ele>911.562</ele>
<time>2020-09-12T09:39:28Z</time>
</trkpt>
<trkpt lat="47.401207" lon="10.903825">
<ele>911.562</ele>
<time>2020-09-12T09:39:29Z</time>
</trkpt>
<trkpt lat="47.401199" lon="10.903905">
<ele>911.562</ele>
<time>2020-09-12T09:39:30Z</time>
</trkpt>
<trkpt lat="47.401199" lon="10.903988">
<ele>911.562</ele>
<time>2020-09-12T09:39:31Z</time>
</trkpt>
<trkpt lat="47.401203" lon="10.90407">
<ele>911.562</ele>
<time>2020-09-12T09:39:32Z</time>
</trkpt>
<trkpt lat="47.401211" lon="10.904154">
<ele>911.562</ele>
<time>2020-09-12T09:39:33Z</time>
</trkpt>
<trkpt lat="47.401218" lon="10.904233">
<ele>911.562</ele>
<time>2020-09-12T09:39:34Z</time>
</trkpt>
<trkpt lat="47.40123" lon="10.904313">
<ele>911.562</ele>
<time>2020-09-12T09:39:35Z</time>
</trkpt>
<trkpt lat="47.401241" lon="10.904395">
<ele>911.562</ele>
<time>2020-09-12T09:39:36Z</time>
</trkpt>
<trkpt lat="47.401245" lon="10.904473">
<ele>911.562</ele>
<time>2020-09-12T09:39:37Z</time>
</trkpt>
<trkpt lat="47.401249" lon="10.904555">
<ele>911.562</ele>
<time>2020-09-12T09:39:38Z</time>
</trkpt>
<trkpt lat="47.401253" lon="10.904635">
<ele>911.562</ele>
<time>2020-09-12T09:39:39Z</time>
</trkpt>
<trkpt lat="47.401253" lon="10.904715">
<ele>911.562</ele>
<time>2020-09-12T09:39:40Z</time>
</trkpt>
<trkpt lat="47.401249" lon="10.904788">
<ele>911.562</ele>
<time>2020-09-12T09:39:41Z</time>
</trkpt>
<trkpt lat="47.401237" lon="10.904855">
<ele>911.562</ele>
<time>2020-09-12T09:39:42Z</time>
</trkpt>
<trkpt lat="47.401218" lon="10.904917">
<ele>911.562</ele>
<time>2020-09-12T09:39:43Z</time>
</trkpt>
<trkpt lat="47.401203" lon="10.904977">
<ele>911.562</ele>
<time>2020-09-12T09:39:44Z</time>
</trkpt>
<trkpt lat="47.401192" lon="10.905037">
<ele>911.562</ele>
<time>2020-09-12T09:39:45Z</time>
</trkpt>
<trkpt lat="47.401199" lon="10.905095">
<ele>911.562</ele>
<time>2020-09-12T09:39:46Z</time>
</trkpt>
<trkpt lat="47.401218" lon="10.905145">
<ele>911.562</ele>
<time>2020-09-12T09:39:47Z</time>
</trkpt>
<trkpt lat="47.401249" lon="10.905185">
<ele>911.562</ele>
<time>2020-09-12T09:39:48Z</time>
</trkpt>
<trkpt lat="47.401279" lon="10.90522">
<ele>911.562</ele>
<time>2020-09-12T09:39:49Z</time>
</trkpt>
<trkpt lat="47.401318" lon="10.905252">
<ele>911.562</ele>
<time>2020-09-12T09:39:50Z</time>
</trkpt>
<trkpt lat="47.401356" lon="10.905285">
<ele>911.562</ele>
<time>2020-09-12T09:39:51Z</time>
</trkpt>
<trkpt lat="47.401394" lon="10.905318">
<ele>911.562</ele>
<time>2020-09-12T09:39:52Z</time>
</trkpt>
<trkpt lat="47.401436" lon="10.905352">
<ele>911.562</ele>
<time>2020-09-12T09:39:53Z</time>
</trkpt>
<trkpt lat="47.40147" lon="10.905388">
<ele>911.562</ele>
<time>2020-09-12T09:39:54Z</time>
</trkpt>
<trkpt lat="47.401512" lon="10.905425">
<ele>911.562</ele>
<time>2020-09-12T09:39:55Z</time>
</trkpt>
<trkpt lat="47.401554" lon="10.905469">
<ele>911.562</ele>
<time>2020-09-12T09:39:56Z</time>
</trkpt>
<trkpt lat="47.401596" lon="10.905509">
<ele>911.562</ele>
<time>2020-09-12T09:39:57Z</time>
</trkpt>
<trkpt lat="47.401634" lon="10.905551">
<ele>911.562</ele>
<time>2020-09-12T09:39:58Z</time>
</trkpt>
<trkpt lat="47.401676" lon="10.905591">
<ele>911.562</ele>
<time>2020-09-12T09:39:59Z</time>
</trkpt>
<trkpt lat="47.401718" lon="10.905632">
<ele>911.562</ele>
<time>2020-09-12T09:40:00Z</time>
</trkpt>
<trkpt lat="47.40176" lon="10.90567">
<ele>911.562</ele>
<time>2020-09-12T09:40:01Z</time>
</trkpt>
<trkpt lat="47.401798" lon="10.905712">
<ele>911.562</ele>
<time>2020-09-12T09:40:02Z</time>
</trkpt>
<trkpt lat="47.40184" lon="10.905754">
<ele>911.562</ele>
<time>2020-09-12T09:40:03Z</time>
</trkpt>
<trkpt lat="47.401886" lon="10.905795">
<ele>911.562</ele>
<time>2020-09-12T09:40:04Z</time>
</trkpt>
<trkpt lat="47.401928" lon="10.905836">
<ele>911.562</ele>
<time>2020-09-12T09:40:05Z</time>
</trkpt>
<trkpt lat="47.401974" lon="10.905878">
<ele>911.562</ele>
<time>2020-09-12T09:40:06Z</time>
</trkpt>
<trkpt lat="47.40202" lon="10.905922">
<ele>911.562</ele>
<time>2020-09-12T09:40:07Z</time>
</trkpt>
<trkpt lat="47.402058" lon="10.905964">
<ele>911.562</ele>
<time>2020-09-12T09:40:08Z</time>
</trkpt>
<trkpt lat="47.4021" lon="10.906003">
<ele>911.562</ele>
<time>2020-09-12T09:40:09Z</time>
</trkpt>
<trkpt lat="47.402142" lon="10.906041">
<ele>911.562</ele>
<time>2020-09-12T09:40:10Z</time>
</trkpt>
<trkpt lat="47.402187" lon="10.90608">
<ele>911.562</ele>
<time>2020-09-12T09:40:11Z</time>
</trkpt>
<trkpt lat="47.402229" lon="10.906115">
<ele>911.562</ele>
<time>2020-09-12T09:40:12Z</time>
</trkpt>
<trkpt lat="47.402275" lon="10.906148">
<ele>911.286</ele>
<time>2020-09-12T09:40:13Z</time>
</trkpt>
<trkpt lat="47.402317" lon="10.906185">
<ele>911.068</ele>
<time>2020-09-12T09:40:14Z</time>
</trkpt>
<trkpt lat="47.402363" lon="10.906225">
<ele>910.902</ele>
<time>2020-09-12T09:40:15Z</time>
</trkpt>
<trkpt lat="47.402409" lon="10.906265">
<ele>910.778</ele>
<time>2020-09-12T09:40:16Z</time>
</trkpt>
<trkpt lat="47.402451" lon="10.906305">
<ele>910.692</ele>
<time>2020-09-12T09:40:17Z</time>
</trkpt>
<trkpt lat="47.402496" lon="10.906345">
<ele>910.635</ele>
<time>2020-09-12T09:40:18Z</time>
</trkpt>
<trkpt lat="47.402538" lon="10.906384">
<ele>910.593</ele>
<time>2020-09-12T09:40:19Z</time>
</trkpt>
<trkpt lat="47.40258" lon="10.90642">
<ele>910.565</ele>
<time>2020-09-12T09:40:20Z</time>
</trkpt>
<trkpt lat="47.40263" lon="10.906456">
<ele>910.565</ele>
<time>2020-09-12T09:40:21Z</time>
</trkpt>
<trkpt lat="47.402676" lon="10.906495">
<ele>910.565</ele>
<time>2020-09-12T09:40:22Z</time>
</trkpt>
<trkpt lat="47.402721" lon="10.906533">
<ele>910.565</ele>
<time>2020-09-12T09:40:23Z</time>
</trkpt>
<trkpt lat="47.402771" lon="10.906573">
<ele>910.565</ele>
<time>2020-09-12T09:40:24Z</time>
</trkpt>
<trkpt lat="47.402817" lon="10.906613">
<ele>910.565</ele>
<time>2020-09-12T09:40:25Z</time>
</trkpt>
<trkpt lat="47.402863" lon="10.906655">
<ele>910.565</ele>
<time>2020-09-12T09:40:26Z</time>
</trkpt>
<trkpt lat="47.402908" lon="10.906698">
<ele>910.564</ele>
<time>2020-09-12T09:40:27Z</time>
</trkpt>
<trkpt lat="47.402954" lon="10.90674">
<ele>910.565</ele>
<time>2020-09-12T09:40:28Z</time>
</trkpt>
<trkpt lat="47.403" lon="10.906781">
<ele>910.565</ele>
<time>2020-09-12T09:40:29Z</time>
</trkpt>
<trkpt lat="47.403042" lon="10.906821">
<ele>910.565</ele>
<time>2020-09-12T09:40:30Z</time>
</trkpt>
<trkpt lat="47.403088" lon="10.90686">
<ele>910.564</ele>
<time>2020-09-12T09:40:31Z</time>
</trkpt>
<trkpt lat="47.403133" lon="10.906898">
<ele>910.565</ele>
<time>2020-09-12T09:40:32Z</time>
</trkpt>
<trkpt lat="47.403179" lon="10.906939">
<ele>910.565</ele>
<time>2020-09-12T09:40:33Z</time>
</trkpt>
<trkpt lat="47.403229" lon="10.906977">
<ele>910.564</ele>
<time>2020-09-12T09:40:34Z</time>
</trkpt>
<trkpt lat="47.403271" lon="10.907017">
<ele>910.565</ele>
<time>2020-09-12T09:40:35Z</time>
</trkpt>
<trkpt lat="47.40332" lon="10.907058">
<ele>910.564</ele>
<time>2020-09-12T09:40:36Z</time>
</trkpt>
<trkpt lat="47.403362" lon="10.9071">
<ele>910.565</ele>
<time>2020-09-12T09:40:37Z</time>
</trkpt>
<trkpt lat="47.403412" lon="10.907142">
<ele>910.564</ele>
<time>2020-09-12T09:40:38Z</time>
</trkpt>
<trkpt lat="47.403458" lon="10.907182">
<ele>910.565</ele>
<time>2020-09-12T09:40:39Z</time>
</trkpt>
<trkpt lat="47.403507" lon="10.907221">
<ele>910.565</ele>
<time>2020-09-12T09:40:40Z</time>
</trkpt>
<trkpt lat="47.403553" lon="10.907258">
<ele>910.565</ele>
<time>2020-09-12T09:40:41Z</time>
</trkpt>
<trkpt lat="47.403599" lon="10.907296">
<ele>910.565</ele>
<time>2020-09-12T09:40:42Z</time>
</trkpt>
<trkpt lat="47.403641" lon="10.907333">
<ele>910.565</ele>
<time>2020-09-12T09:40:43Z</time>
</trkpt>
<trkpt lat="47.40369" lon="10.907372">
<ele>910.564</ele>
<time>2020-09-12T09:40:44Z</time>
</trkpt>
<trkpt lat="47.40374" lon="10.907409">
<ele>910.565</ele>
<time>2020-09-12T09:40:45Z</time>
</trkpt>
<trkpt lat="47.403786" lon="10.907447">
<ele>910.565</ele>
<time>2020-09-12T09:40:46Z</time>
</trkpt>
<trkpt lat="47.403831" lon="10.907483">
<ele>910.565</ele>
<time>2020-09-12T09:40:47Z</time>
</trkpt>
<trkpt lat="47.403881" lon="10.90752">
<ele>910.565</ele>
<time>2020-09-12T09:40:48Z</time>
</trkpt>
<trkpt lat="47.403927" lon="10.907558">
<ele>910.565</ele>
<time>2020-09-12T09:40:49Z</time>
</trkpt>
<trkpt lat="47.403976" lon="10.907596">
<ele>910.565</ele>
<time>2020-09-12T09:40:50Z</time>
</trkpt>
<trkpt lat="47.404022" lon="10.90763">
<ele>910.565</ele>
<time>2020-09-12T09:40:51Z</time>
</trkpt>
<trkpt lat="47.404072" lon="10.907667">
<ele>910.565</ele>
<time>2020-09-12T09:40:52Z</time>
</trkpt>
<trkpt lat="47.404114" lon="10.907701">
<ele>910.565</ele>
<time>2020-09-12T09:40:53Z</time>
</trkpt>
<trkpt lat="47.404163" lon="10.907741">
<ele>910.565</ele>
<time>2020-09-12T09:40:54Z</time>
</trkpt>
<trkpt lat="47.404209" lon="10.907776">
<ele>910.565</ele>
<time>2020-09-12T09:40:55Z</time>
</trkpt>
<trkpt lat="47.404255" lon="10.907811">
<ele>910.565</ele>
<time>2020-09-12T09:40:56Z</time>
</trkpt>
<trkpt lat="47.404301" lon="10.907844">
<ele>910.565</ele>
<time>2020-09-12T09:40:57Z</time>
</trkpt>
<trkpt lat="47.404343" lon="10.907879">
<ele>910.565</ele>
<time>2020-09-12T09:40:58Z</time>
</trkpt>
<trkpt lat="47.404392" lon="10.907914">
<ele>910.565</ele>
<time>2020-09-12T09:40:59Z</time>
</trkpt>
<trkpt lat="47.404438" lon="10.907947">
<ele>910.565</ele>
<time>2020-09-12T09:41:00Z</time>
</trkpt>
<trkpt lat="47.40448" lon="10.90798">
<ele>910.565</ele>
<time>2020-09-12T09:41:01Z</time>
</trkpt>
<trkpt lat="47.40453" lon="10.908013">
<ele>910.564</ele>
<time>2020-09-12T09:41:02Z</time>
</trkpt>
<trkpt lat="47.404572" lon="10.908047">
<ele>910.564</ele>
<time>2020-09-12T09:41:03Z</time>
</trkpt>
<trkpt lat="47.404621" lon="10.908082">
<ele>910.565</ele>
<time>2020-09-12T09:41:04Z</time>
</trkpt>
<trkpt lat="47.404663" lon="10.90812">
<ele>910.564</ele>
<time>2020-09-12T09:41:05Z</time>
</trkpt>
<trkpt lat="47.404709" lon="10.908158">
<ele>910.565</ele>
<time>2020-09-12T09:41:06Z</time>
</trkpt>
<trkpt lat="47.404755" lon="10.908196">
<ele>910.565</ele>
<time>2020-09-12T09:41:07Z</time>
</trkpt>
<trkpt lat="47.404797" lon="10.908233">
<ele>910.565</ele>
<time>2020-09-12T09:41:08Z</time>
</trkpt>
<trkpt lat="47.404842" lon="10.90827">
<ele>910.565</ele>
<time>2020-09-12T09:41:09Z</time>
</trkpt>
<trkpt lat="47.404888" lon="10.908306">
<ele>910.565</ele>
<time>2020-09-12T09:41:10Z</time>
</trkpt>
<trkpt lat="47.404926" lon="10.908343">
<ele>910.565</ele>
<time>2020-09-12T09:41:11Z</time>
</trkpt>
<trkpt lat="47.404968" lon="10.90838">
<ele>910.565</ele>
<time>2020-09-12T09:41:12Z</time>
</trkpt>
<trkpt lat="47.40501" lon="10.908415">
<ele>910.565</ele>
<time>2020-09-12T09:41:13Z</time>
</trkpt>
<trkpt lat="47.405048" lon="10.908452">
<ele>910.565</ele>
<time>2020-09-12T09:41:14Z</time>
</trkpt>
<trkpt lat="47.40509" lon="10.908484">
<ele>910.564</ele>
<time>2020-09-12T09:41:15Z</time>
</trkpt>
<trkpt lat="47.405132" lon="10.908515">
<ele>910.565</ele>
<time>2020-09-12T09:41:16Z</time>
</trkpt>
<trkpt lat="47.405182" lon="10.908545">
<ele>910.565</ele>
<time>2020-09-12T09:41:17Z</time>
</trkpt>
<trkpt lat="47.405224" lon="10.908575">
<ele>910.565</ele>
<time>2020-09-12T09:41:18Z</time>
</trkpt>
<trkpt lat="47.40527" lon="10.908608">
<ele>910.565</ele>
<time>2020-09-12T09:41:19Z</time>
</trkpt>
<trkpt lat="47.405315" lon="10.908644">
<ele>910.565</ele>
<time>2020-09-12T09:41:20Z</time>
</trkpt>
<trkpt lat="47.405357" lon="10.90868">
<ele>910.565</ele>
<time>2020-09-12T09:41:21Z</time>
</trkpt>
<trkpt lat="47.405399" lon="10.908716">
<ele>910.564</ele>
<time>2020-09-12T09:41:22Z</time>
</trkpt>
<trkpt lat="47.405441" lon="10.908754">
<ele>910.565</ele>
<time>2020-09-12T09:41:23Z</time>
</trkpt>
<trkpt lat="47.405483" lon="10.908793">
<ele>910.565</ele>
<time>2020-09-12T09:41:24Z</time>
</trkpt>
<trkpt lat="47.405525" lon="10.908834">
<ele>910.565</ele>
<time>2020-09-12T09:41:25Z</time>
</trkpt>
<trkpt lat="47.405571" lon="10.908872">
<ele>910.565</ele>
<time>2020-09-12T09:41:26Z</time>
</trkpt>
<trkpt lat="47.405613" lon="10.908912">
<ele>910.565</ele>
<time>2020-09-12T09:41:27Z</time>
</trkpt>
<trkpt lat="47.405655" lon="10.908952">
<ele>910.565</ele>
<time>2020-09-12T09:41:28Z</time>
</trkpt>
<trkpt lat="47.405697" lon="10.908998">
<ele>910.565</ele>
<time>2020-09-12T09:41:29Z</time>
</trkpt>
<trkpt lat="47.405739" lon="10.909043">
<ele>910.565</ele>
<time>2020-09-12T09:41:30Z</time>
</trkpt>
<trkpt lat="47.405777" lon="10.909085">
<ele>910.565</ele>
<time>2020-09-12T09:41:31Z</time>
</trkpt>
<trkpt lat="47.405811" lon="10.909125">
<ele>910.565</ele>
<time>2020-09-12T09:41:32Z</time>
</trkpt>
<trkpt lat="47.405849" lon="10.909167">
<ele>910.565</ele>
<time>2020-09-12T09:41:33Z</time>
</trkpt>
<trkpt lat="47.405888" lon="10.909206">
<ele>910.564</ele>
<time>2020-09-12T09:41:34Z</time>
</trkpt>
<trkpt lat="47.405922" lon="10.909246">
<ele>910.565</ele>
<time>2020-09-12T09:41:35Z</time>
</trkpt>
<trkpt lat="47.40596" lon="10.909286">
<ele>910.565</ele>
<time>2020-09-12T09:41:36Z</time>
</trkpt>
<trkpt lat="47.405998" lon="10.909325">
<ele>910.565</ele>
<time>2020-09-12T09:41:37Z</time>
</trkpt>
<trkpt lat="47.406033" lon="10.909364">
<ele>910.802</ele>
<time>2020-09-12T09:41:38Z</time>
</trkpt>
<trkpt lat="47.406067" lon="10.909402">
<ele>910.978</ele>
<time>2020-09-12T09:41:39Z</time>
</trkpt>
<trkpt lat="47.406097" lon="10.909442">
<ele>911.157</ele>
<time>2020-09-12T09:41:40Z</time>
</trkpt>
<trkpt lat="47.406132" lon="10.909482">
<ele>911.296</ele>
<time>2020-09-12T09:41:41Z</time>
</trkpt>
<trkpt lat="47.406166" lon="10.909521">
<ele>911.406</ele>
<time>2020-09-12T09:41:42Z</time>
</trkpt>
<trkpt lat="47.406197" lon="10.909561">
<ele>911.485</ele>
<time>2020-09-12T09:41:43Z</time>
</trkpt>
<trkpt lat="47.406223" lon="10.9096">
<ele>911.537</ele>
<time>2020-09-12T09:41:44Z</time>
</trkpt>
<trkpt lat="47.406254" lon="10.90964">
<ele>911.562</ele>
<time>2020-09-12T09:41:45Z</time>
</trkpt>
<trkpt lat="47.406284" lon="10.909682">
<ele>911.562</ele>
<time>2020-09-12T09:41:46Z</time>
</trkpt>
<trkpt lat="47.406319" lon="10.909723">
<ele>911.562</ele>
<time>2020-09-12T09:41:47Z</time>
</trkpt>
<trkpt lat="47.406353" lon="10.909764">
<ele>911.562</ele>
<time>2020-09-12T09:41:48Z</time>
</trkpt>
<trkpt lat="47.406391" lon="10.909812">
<ele>911.562</ele>
<time>2020-09-12T09:41:49Z</time>
</trkpt>
<trkpt lat="47.406429" lon="10.909861">
<ele>911.562</ele>
<time>2020-09-12T09:41:50Z</time>
</trkpt>
<trkpt lat="47.406475" lon="10.90991">
<ele>911.562</ele>
<time>2020-09-12T09:41:51Z</time>
</trkpt>
<trkpt lat="47.406509" lon="10.909959">
<ele>911.562</ele>
<time>2020-09-12T09:41:52Z</time>
</trkpt>
<trkpt lat="47.406548" lon="10.910009">
<ele>911.562</ele>
<time>2020-09-12T09:41:53Z</time>
</trkpt>
<trkpt lat="47.406582" lon="10.910058">
<ele>911.562</ele>
<time>2020-09-12T09:41:54Z</time>
</trkpt>
<trkpt lat="47.40662" lon="10.91011">
<ele>911.562</ele>
<time>2020-09-12T09:41:55Z</time>
</trkpt>
<trkpt lat="47.406658" lon="10.910158">
<ele>911.562</ele>
<time>2020-09-12T09:41:56Z</time>
</trkpt>
<trkpt lat="47.406696" lon="10.910211">
<ele>911.562</ele>
<time>2020-09-12T09:41:57Z</time>
</trkpt>
<trkpt lat="47.406731" lon="10.910261">
<ele>911.562</ele>
<time>2020-09-12T09:41:58Z</time>
</trkpt>
<trkpt lat="47.406765" lon="10.910314">
<ele>911.562</ele>
<time>2020-09-12T09:41:59Z</time>
</trkpt>
<trkpt lat="47.406803" lon="10.910365">
<ele>911.562</ele>
<time>2020-09-12T09:42:00Z</time>
</trkpt>
<trkpt lat="47.406841" lon="10.910416">
<ele>911.562</ele>
<time>2020-09-12T09:42:01Z</time>
</trkpt>
<trkpt lat="47.406879" lon="10.910465">
<ele>911.562</ele>
<time>2020-09-12T09:42:02Z</time>
</trkpt>
<trkpt lat="47.406914" lon="10.910517">
<ele>911.562</ele>
<time>2020-09-12T09:42:03Z</time>
</trkpt>
<trkpt lat="47.406952" lon="10.910564">
<ele>911.562</ele>
<time>2020-09-12T09:42:04Z</time>
</trkpt>
<trkpt lat="47.40699" lon="10.910617">
<ele>911.562</ele>
<time>2020-09-12T09:42:05Z</time>
</trkpt>
<trkpt lat="47.407024" lon="10.910668">
<ele>911.562</ele>
<time>2020-09-12T09:42:06Z</time>
</trkpt>
<trkpt lat="47.407055" lon="10.91072">
<ele>911.562</ele>
<time>2020-09-12T09:42:07Z</time>
</trkpt>
<trkpt lat="47.407089" lon="10.910769">
<ele>911.562</ele>
<time>2020-09-12T09:42:08Z</time>
</trkpt>
<trkpt lat="47.407124" lon="10.910818">
<ele>911.562</ele>
<time>2020-09-12T09:42:09Z</time>
</trkpt>
<trkpt lat="47.407154" lon="10.91086">
<ele>911.562</ele>
<time>2020-09-12T09:42:10Z</time>
</trkpt>
<trkpt lat="47.407185" lon="10.910897">
<ele>911.823</ele>
<time>2020-09-12T09:42:11Z</time>
</trkpt>
<trkpt lat="47.407211" lon="10.910933">
<ele>912.028</ele>
<time>2020-09-12T09:42:12Z</time>
</trkpt>
<trkpt lat="47.407242" lon="10.910967">
<ele>912.185</ele>
<time>2020-09-12T09:42:13Z</time>
</trkpt>
<trkpt lat="47.407261" lon="10.911">
<ele>912.288</ele>
<time>2020-09-12T09:42:14Z</time>
</trkpt>
<trkpt lat="47.40728" lon="10.911042">
<ele>912.626</ele>
<time>2020-09-12T09:42:15Z</time>
</trkpt>
<trkpt lat="47.407303" lon="10.91109">
<ele>912.879</ele>
<time>2020-09-12T09:42:16Z</time>
</trkpt>
<trkpt lat="47.407326" lon="10.911141">
<ele>913.07</ele>
<time>2020-09-12T09:42:17Z</time>
</trkpt>
<trkpt lat="47.407345" lon="10.911195">
<ele>913.206</ele>
<time>2020-09-12T09:42:18Z</time>
</trkpt>
<trkpt lat="47.407375" lon="10.91125">
<ele>913.296</ele>
<time>2020-09-12T09:42:19Z</time>
</trkpt>
<trkpt lat="47.407402" lon="10.911306">
<ele>913.387</ele>
<time>2020-09-12T09:42:20Z</time>
</trkpt>
<trkpt lat="47.407436" lon="10.911365">
<ele>913.443</ele>
<time>2020-09-12T09:42:21Z</time>
</trkpt>
<trkpt lat="47.407467" lon="10.911424">
<ele>913.466</ele>
<time>2020-09-12T09:42:22Z</time>
</trkpt>
<trkpt lat="47.407501" lon="10.911487">
<ele>913.467</ele>
<time>2020-09-12T09:42:23Z</time>
</trkpt>
<trkpt lat="47.407524" lon="10.911551">
<ele>913.467</ele>
<time>2020-09-12T09:42:24Z</time>
</trkpt>
<trkpt lat="47.407543" lon="10.91162">
<ele>913.467</ele>
<time>2020-09-12T09:42:25Z</time>
</trkpt>
<trkpt lat="47.407566" lon="10.911687">
<ele>913.467</ele>
<time>2020-09-12T09:42:26Z</time>
</trkpt>
<trkpt lat="47.407574" lon="10.911757">
<ele>913.467</ele>
<time>2020-09-12T09:42:27Z</time>
</trkpt>
<trkpt lat="47.407581" lon="10.911825">
<ele>913.467</ele>
<time>2020-09-12T09:42:28Z</time>
</trkpt>
<trkpt lat="47.407585" lon="10.911895">
<ele>913.467</ele>
<time>2020-09-12T09:42:29Z</time>
</trkpt>
<trkpt lat="47.407589" lon="10.911963">
<ele>913.467</ele>
<time>2020-09-12T09:42:30Z</time>
</trkpt>
<trkpt lat="47.407589" lon="10.912031">
<ele>913.467</ele>
<time>2020-09-12T09:42:31Z</time>
</trkpt>
<trkpt lat="47.407593" lon="10.912098">
<ele>913.467</ele>
<time>2020-09-12T09:42:32Z</time>
</trkpt>
<trkpt lat="47.407597" lon="10.912167">
<ele>913.466</ele>
<time>2020-09-12T09:42:33Z</time>
</trkpt>
<trkpt lat="47.4076" lon="10.912233">
<ele>913.467</ele>
<time>2020-09-12T09:42:34Z</time>
</trkpt>
<trkpt lat="47.4076" lon="10.912297">
<ele>913.467</ele>
<time>2020-09-12T09:42:35Z</time>
</trkpt>
<trkpt lat="47.4076" lon="10.91236">
<ele>913.467</ele>
<time>2020-09-12T09:42:36Z</time>
</trkpt>
<trkpt lat="47.4076" lon="10.91242">
<ele>913.467</ele>
<time>2020-09-12T09:42:37Z</time>
</trkpt>
<trkpt lat="47.407597" lon="10.912481">
<ele>913.467</ele>
<time>2020-09-12T09:42:38Z</time>
</trkpt>
<trkpt lat="47.407589" lon="10.912542">
<ele>913.467</ele>
<time>2020-09-12T09:42:39Z</time>
</trkpt>
<trkpt lat="47.407589" lon="10.912601">
<ele>913.467</ele>
<time>2020-09-12T09:42:40Z</time>
</trkpt>
<trkpt lat="47.407585" lon="10.912662">
<ele>913.782</ele>
<time>2020-09-12T09:42:41Z</time>
</trkpt>
<trkpt lat="47.407581" lon="10.912724">
<ele>914.033</ele>
<time>2020-09-12T09:42:42Z</time>
</trkpt>
<trkpt lat="47.407578" lon="10.912788">
<ele>914.227</ele>
<time>2020-09-12T09:42:43Z</time>
</trkpt>
<trkpt lat="47.40757" lon="10.912855">
<ele>914.367</ele>
<time>2020-09-12T09:42:44Z</time>
</trkpt>
<trkpt lat="47.407566" lon="10.912922">
<ele>914.465</ele>
<time>2020-09-12T09:42:45Z</time>
</trkpt>
<trkpt lat="47.407566" lon="10.912985">
<ele>914.522</ele>
<time>2020-09-12T09:42:46Z</time>
</trkpt>
<trkpt lat="47.407558" lon="10.913049">
<ele>914.55</ele>
<time>2020-09-12T09:42:47Z</time>
</trkpt>
<trkpt lat="47.407551" lon="10.913108">
<ele>914.555</ele>
<time>2020-09-12T09:42:48Z</time>
</trkpt>
<trkpt lat="47.407543" lon="10.913169">
<ele>914.777</ele>
<time>2020-09-12T09:42:49Z</time>
</trkpt>
<trkpt lat="47.407536" lon="10.913227">
<ele>914.983</ele>
<time>2020-09-12T09:42:50Z</time>
</trkpt>
<trkpt lat="47.407528" lon="10.913283">
<ele>915.152</ele>
<time>2020-09-12T09:42:51Z</time>
</trkpt>
<trkpt lat="47.407516" lon="10.913342">
<ele>915.288</ele>
<time>2020-09-12T09:42:52Z</time>
</trkpt>
<trkpt lat="47.407505" lon="10.913402">
<ele>915.397</ele>
<time>2020-09-12T09:42:53Z</time>
</trkpt>
<trkpt lat="47.407494" lon="10.913462">
<ele>915.477</ele>
<time>2020-09-12T09:42:54Z</time>
</trkpt>
<trkpt lat="47.407478" lon="10.91352">
<ele>915.528</ele>
<time>2020-09-12T09:42:55Z</time>
</trkpt>
<trkpt lat="47.407467" lon="10.913582">
<ele>915.553</ele>
<time>2020-09-12T09:42:56Z</time>
</trkpt>
<trkpt lat="47.407452" lon="10.913642">
<ele>915.553</ele>
<time>2020-09-12T09:42:57Z</time>
</trkpt>
<trkpt lat="47.407436" lon="10.913703">
<ele>915.553</ele>
<time>2020-09-12T09:42:58Z</time>
</trkpt>
<trkpt lat="47.407421" lon="10.913762">
<ele>915.553</ele>
<time>2020-09-12T09:42:59Z</time>
</trkpt>
<trkpt lat="47.407406" lon="10.913822">
<ele>915.553</ele>
<time>2020-09-12T09:43:00Z</time>
</trkpt>
<trkpt lat="47.407394" lon="10.913883">
<ele>915.553</ele>
<time>2020-09-12T09:43:01Z</time>
</trkpt>
<trkpt lat="47.407379" lon="10.913941">
<ele>915.553</ele>
<time>2020-09-12T09:43:02Z</time>
</trkpt>
<trkpt lat="47.407368" lon="10.914005">
<ele>915.553</ele>
<time>2020-09-12T09:43:03Z</time>
</trkpt>
<trkpt lat="47.407349" lon="10.914068">
<ele>915.553</ele>
<time>2020-09-12T09:43:04Z</time>
</trkpt>
<trkpt lat="47.407333" lon="10.91413">
<ele>915.553</ele>
<time>2020-09-12T09:43:05Z</time>
</trkpt>
<trkpt lat="47.407314" lon="10.914191">
<ele>915.553</ele>
<time>2020-09-12T09:43:06Z</time>
</trkpt>
<trkpt lat="47.407303" lon="10.914251">
<ele>915.553</ele>
<time>2020-09-12T09:43:07Z</time>
</trkpt>
<trkpt lat="47.407288" lon="10.914315">
<ele>915.553</ele>
<time>2020-09-12T09:43:08Z</time>
</trkpt>
<trkpt lat="47.407272" lon="10.914378">
<ele>915.553</ele>
<time>2020-09-12T09:43:09Z</time>
</trkpt>
<trkpt lat="47.407253" lon="10.914442">
<ele>915.553</ele>
<time>2020-09-12T09:43:10Z</time>
</trkpt>
<trkpt lat="47.407242" lon="10.914501">
<ele>915.553</ele>
<time>2020-09-12T09:43:11Z</time>
</trkpt>
<trkpt lat="47.407227" lon="10.914564">
<ele>915.553</ele>
<time>2020-09-12T09:43:12Z</time>
</trkpt>
<trkpt lat="47.407207" lon="10.914629">
<ele>915.553</ele>
<time>2020-09-12T09:43:13Z</time>
</trkpt>
<trkpt lat="47.407192" lon="10.914694">
<ele>915.553</ele>
<time>2020-09-12T09:43:14Z</time>
</trkpt>
<trkpt lat="47.407177" lon="10.914757">
<ele>915.553</ele>
<time>2020-09-12T09:43:15Z</time>
</trkpt>
<trkpt lat="47.407166" lon="10.914822">
<ele>915.787</ele>
<time>2020-09-12T09:43:16Z</time>
</trkpt>
<trkpt lat="47.40715" lon="10.914885">
<ele>915.971</ele>
<time>2020-09-12T09:43:17Z</time>
</trkpt>
<trkpt lat="47.407135" lon="10.914948">
<ele>916.113</ele>
<time>2020-09-12T09:43:18Z</time>
</trkpt>
<trkpt lat="47.407116" lon="10.915012">
<ele>916.211</ele>
<time>2020-09-12T09:43:19Z</time>
</trkpt>
<trkpt lat="47.407104" lon="10.915075">
<ele>916.313</ele>
<time>2020-09-12T09:43:20Z</time>
</trkpt>
<trkpt lat="47.407078" lon="10.915136">
<ele>916.388</ele>
<time>2020-09-12T09:43:21Z</time>
</trkpt>
<trkpt lat="47.407059" lon="10.915195">
<ele>916.437</ele>
<time>2020-09-12T09:43:22Z</time>
</trkpt>
<trkpt lat="47.40704" lon="10.915257">
<ele>916.46</ele>
<time>2020-09-12T09:43:23Z</time>
</trkpt>
<trkpt lat="47.407013" lon="10.915318">
<ele>916.461</ele>
<time>2020-09-12T09:43:24Z</time>
</trkpt>
<trkpt lat="47.40699" lon="10.915377">
<ele>916.46</ele>
<time>2020-09-12T09:43:25Z</time>
</trkpt>
<trkpt lat="47.406967" lon="10.915435">
<ele>916.46</ele>
<time>2020-09-12T09:43:26Z</time>
</trkpt>
<trkpt lat="47.406944" lon="10.915492">
<ele>916.46</ele>
<time>2020-09-12T09:43:27Z</time>
</trkpt>
<trkpt lat="47.406914" lon="10.915546">
<ele>916.46</ele>
<time>2020-09-12T09:43:28Z</time>
</trkpt>
<trkpt lat="47.406887" lon="10.915602">
<ele>916.46</ele>
<time>2020-09-12T09:43:29Z</time>
</trkpt>
<trkpt lat="47.406864" lon="10.915649">
<ele>916.46</ele>
<time>2020-09-12T09:43:30Z</time>
</trkpt>
<trkpt lat="47.406841" lon="10.9157">
<ele>916.753</ele>
<time>2020-09-12T09:43:31Z</time>
</trkpt>
<trkpt lat="47.406818" lon="10.915751">
<ele>916.98</ele>
<time>2020-09-12T09:43:32Z</time>
</trkpt>
<trkpt lat="47.406799" lon="10.915802">
<ele>917.155</ele>
<time>2020-09-12T09:43:33Z</time>
</trkpt>
<trkpt lat="47.406776" lon="10.915851">
<ele>917.284</ele>
<time>2020-09-12T09:43:34Z</time>
</trkpt>
<trkpt lat="47.406754" lon="10.915896">
<ele>917.375</ele>
<time>2020-09-12T09:43:35Z</time>
</trkpt>
<trkpt lat="47.406734" lon="10.915938">
<ele>917.432</ele>
<time>2020-09-12T09:43:36Z</time>
</trkpt>
<trkpt lat="47.406712" lon="10.915977">
<ele>917.458</ele>
<time>2020-09-12T09:43:37Z</time>
</trkpt>
<trkpt lat="47.406689" lon="10.916017">
<ele>917.692</ele>
<time>2020-09-12T09:43:38Z</time>
</trkpt>
<trkpt lat="47.406666" lon="10.916061">
<ele>917.863</ele>
<time>2020-09-12T09:43:39Z</time>
</trkpt>
<trkpt lat="47.406647" lon="10.916101">
<ele>918.029</ele>
<time>2020-09-12T09:43:40Z</time>
</trkpt>
<trkpt lat="47.406628" lon="10.916145">
<ele>918.434</ele>
<time>2020-09-12T09:43:41Z</time>
</trkpt>
<trkpt lat="47.406616" lon="10.916182">
<ele>918.767</ele>
<time>2020-09-12T09:43:42Z</time>
</trkpt>
<trkpt lat="47.406601" lon="10.916217">
<ele>919.034</ele>
<time>2020-09-12T09:43:43Z</time>
</trkpt>
<trkpt lat="47.406586" lon="10.916253">
<ele>919.236</ele>
<time>2020-09-12T09:43:44Z</time>
</trkpt>
<trkpt lat="47.406563" lon="10.91629">
<ele>919.378</ele>
<time>2020-09-12T09:43:45Z</time>
</trkpt>
<trkpt lat="47.406544" lon="10.91632">
<ele>919.504</ele>
<time>2020-09-12T09:43:46Z</time>
</trkpt>
<trkpt lat="47.406525" lon="10.916349">
<ele>919.805</ele>
<time>2020-09-12T09:43:47Z</time>
</trkpt>
<trkpt lat="47.406509" lon="10.916391">
<ele>920.023</ele>
<time>2020-09-12T09:43:48Z</time>
</trkpt>
<trkpt lat="47.406494" lon="10.916431">
<ele>920.176</ele>
<time>2020-09-12T09:43:49Z</time>
</trkpt>
<trkpt lat="47.406483" lon="10.916475">
<ele>920.57</ele>
<time>2020-09-12T09:43:50Z</time>
</trkpt>
<trkpt lat="47.406467" lon="10.916521">
<ele>920.883</ele>
<time>2020-09-12T09:43:51Z</time>
</trkpt>
<trkpt lat="47.406456" lon="10.916567">
<ele>921.117</ele>
<time>2020-09-12T09:43:52Z</time>
</trkpt>
<trkpt lat="47.406445" lon="10.916612">
<ele>921.295</ele>
<time>2020-09-12T09:43:53Z</time>
</trkpt>
<trkpt lat="47.406429" lon="10.916658">
<ele>921.417</ele>
<time>2020-09-12T09:43:54Z</time>
</trkpt>
<trkpt lat="47.406418" lon="10.916701">
<ele>921.483</ele>
<time>2020-09-12T09:43:55Z</time>
</trkpt>
<trkpt lat="47.406399" lon="10.916741">
<ele>921.517</ele>
<time>2020-09-12T09:43:56Z</time>
</trkpt>
<trkpt lat="47.406376" lon="10.916775">
<ele>921.786</ele>
<time>2020-09-12T09:43:57Z</time>
</trkpt>
<trkpt lat="47.406353" lon="10.91681">
<ele>921.988</ele>
<time>2020-09-12T09:43:58Z</time>
</trkpt>
<trkpt lat="47.406326" lon="10.916846">
<ele>922.122</ele>
<time>2020-09-12T09:43:59Z</time>
</trkpt>
<trkpt lat="47.4063" lon="10.916883">
<ele>922.272</ele>
<time>2020-09-12T09:44:00Z</time>
</trkpt>
<trkpt lat="47.406281" lon="10.91693">
<ele>922.385</ele>
<time>2020-09-12T09:44:01Z</time>
</trkpt>
<trkpt lat="47.406261" lon="10.916975">
<ele>922.464</ele>
<time>2020-09-12T09:44:02Z</time>
</trkpt>
<trkpt lat="47.406235" lon="10.917015">
<ele>922.516</ele>
<time>2020-09-12T09:44:03Z</time>
</trkpt>
<trkpt lat="47.406212" lon="10.917055">
<ele>922.541</ele>
<time>2020-09-12T09:44:04Z</time>
</trkpt>
<trkpt lat="47.406189" lon="10.9171">
<ele>922.541</ele>
<time>2020-09-12T09:44:05Z</time>
</trkpt>
<trkpt lat="47.406162" lon="10.917145">
<ele>922.541</ele>
<time>2020-09-12T09:44:06Z</time>
</trkpt>
<trkpt lat="47.406132" lon="10.917185">
<ele>922.541</ele>
<time>2020-09-12T09:44:07Z</time>
</trkpt>
<trkpt lat="47.406097" lon="10.917227">
<ele>922.541</ele>
<time>2020-09-12T09:44:08Z</time>
</trkpt>
<trkpt lat="47.406067" lon="10.917271">
<ele>922.541</ele>
<time>2020-09-12T09:44:09Z</time>
</trkpt>
<trkpt lat="47.406033" lon="10.917315">
<ele>922.541</ele>
<time>2020-09-12T09:44:10Z</time>
</trkpt>
<trkpt lat="47.405994" lon="10.917358">
<ele>922.541</ele>
<time>2020-09-12T09:44:11Z</time>
</trkpt>
<trkpt lat="47.40596" lon="10.917401">
<ele>922.541</ele>
<time>2020-09-12T09:44:12Z</time>
</trkpt>
<trkpt lat="47.405918" lon="10.917443">
<ele>922.541</ele>
<time>2020-09-12T09:44:13Z</time>
</trkpt>
<trkpt lat="47.405876" lon="10.917485">
<ele>922.541</ele>
<time>2020-09-12T09:44:14Z</time>
</trkpt>
<trkpt lat="47.405838" lon="10.917526">
<ele>922.541</ele>
<time>2020-09-12T09:44:15Z</time>
</trkpt>
<trkpt lat="47.405796" lon="10.917572">
<ele>922.541</ele>
<time>2020-09-12T09:44:16Z</time>
</trkpt>
<trkpt lat="47.405758" lon="10.917613">
<ele>922.541</ele>
<time>2020-09-12T09:44:17Z</time>
</trkpt>
<trkpt lat="47.40572" lon="10.917653">
<ele>922.541</ele>
<time>2020-09-12T09:44:18Z</time>
</trkpt>
<trkpt lat="47.405682" lon="10.91769">
<ele>922.541</ele>
<time>2020-09-12T09:44:19Z</time>
</trkpt>
<trkpt lat="47.405651" lon="10.917727">
<ele>922.541</ele>
<time>2020-09-12T09:44:20Z</time>
</trkpt>
<trkpt lat="47.405628" lon="10.917769">
<ele>922.541</ele>
<time>2020-09-12T09:44:21Z</time>
</trkpt>
<trkpt lat="47.405605" lon="10.917815">
<ele>922.541</ele>
<time>2020-09-12T09:44:22Z</time>
</trkpt>
<trkpt lat="47.405582" lon="10.917867">
<ele>922.541</ele>
<time>2020-09-12T09:44:23Z</time>
</trkpt>
<trkpt lat="47.405567" lon="10.917922">
<ele>922.541</ele>
<time>2020-09-12T09:44:24Z</time>
</trkpt>
<trkpt lat="47.405537" lon="10.918">
<ele>922.541</ele>
<time>2020-09-12T09:44:25Z</time>
</trkpt>
<trkpt lat="47.405521" lon="10.918053">
<ele>922.541</ele>
<time>2020-09-12T09:44:26Z</time>
</trkpt>
<trkpt lat="47.40551" lon="10.918107">
<ele>922.541</ele>
<time>2020-09-12T09:44:27Z</time>
</trkpt>
<trkpt lat="47.405491" lon="10.918163">
<ele>922.541</ele>
<time>2020-09-12T09:44:28Z</time>
</trkpt>
<trkpt lat="47.405472" lon="10.918216">
<ele>922.541</ele>
<time>2020-09-12T09:44:29Z</time>
</trkpt>
<trkpt lat="47.405445" lon="10.918266">
<ele>922.541</ele>
<time>2020-09-12T09:44:30Z</time>
</trkpt>
<trkpt lat="47.405418" lon="10.918317">
<ele>922.541</ele>
<time>2020-09-12T09:44:31Z</time>
</trkpt>
<trkpt lat="47.405392" lon="10.918363">
<ele>922.541</ele>
<time>2020-09-12T09:44:32Z</time>
</trkpt>
<trkpt lat="47.405361" lon="10.918404">
<ele>922.541</ele>
<time>2020-09-12T09:44:33Z</time>
</trkpt>
<trkpt lat="47.405327" lon="10.918444">
<ele>922.541</ele>
<time>2020-09-12T09:44:34Z</time>
</trkpt>
<trkpt lat="47.405296" lon="10.918492">
<ele>922.541</ele>
<time>2020-09-12T09:44:35Z</time>
</trkpt>
<trkpt lat="47.40527" lon="10.918532">
<ele>922.541</ele>
<time>2020-09-12T09:44:36Z</time>
</trkpt>
<trkpt lat="47.405235" lon="10.918571">
<ele>922.541</ele>
<time>2020-09-12T09:44:37Z</time>
</trkpt>
<trkpt lat="47.405205" lon="10.918613">
<ele>922.541</ele>
<time>2020-09-12T09:44:38Z</time>
</trkpt>
<trkpt lat="47.405174" lon="10.918656">
<ele>922.541</ele>
<time>2020-09-12T09:44:39Z</time>
</trkpt>
<trkpt lat="47.405144" lon="10.918687">
<ele>922.541</ele>
<time>2020-09-12T09:44:40Z</time>
</trkpt>
<trkpt lat="47.405102" lon="10.918713">
<ele>922.541</ele>
<time>2020-09-12T09:44:41Z</time>
</trkpt>
<trkpt lat="47.405064" lon="10.918748">
<ele>922.541</ele>
<time>2020-09-12T09:44:42Z</time>
</trkpt>
<trkpt lat="47.405022" lon="10.918779">
<ele>922.541</ele>
<time>2020-09-12T09:44:43Z</time>
</trkpt>
<trkpt lat="47.404984" lon="10.918811">
<ele>922.541</ele>
<time>2020-09-12T09:44:44Z</time>
</trkpt>
<trkpt lat="47.404945" lon="10.918839">
<ele>922.807</ele>
<time>2020-09-12T09:44:45Z</time>
</trkpt>
<trkpt lat="47.404903" lon="10.918865">
<ele>923.016</ele>
<time>2020-09-12T09:44:46Z</time>
</trkpt>
<trkpt lat="47.404861" lon="10.918888">
<ele>923.175</ele>
<time>2020-09-12T09:44:47Z</time>
</trkpt>
<trkpt lat="47.404823" lon="10.918909">
<ele>923.296</ele>
<time>2020-09-12T09:44:48Z</time>
</trkpt>
<trkpt lat="47.404781" lon="10.918928">
<ele>923.373</ele>
<time>2020-09-12T09:44:49Z</time>
</trkpt>
<trkpt lat="47.404736" lon="10.918947">
<ele>923.456</ele>
<time>2020-09-12T09:44:50Z</time>
</trkpt>
<trkpt lat="47.404697" lon="10.918963">
<ele>923.512</ele>
<time>2020-09-12T09:44:51Z</time>
</trkpt>
<trkpt lat="47.404652" lon="10.918974">
<ele>923.539</ele>
<time>2020-09-12T09:44:52Z</time>
</trkpt>
<trkpt lat="47.404606" lon="10.918986">
<ele>923.539</ele>
<time>2020-09-12T09:44:53Z</time>
</trkpt>
<trkpt lat="47.404564" lon="10.919005">
<ele>923.539</ele>
<time>2020-09-12T09:44:54Z</time>
</trkpt>
<trkpt lat="47.404518" lon="10.919024">
<ele>923.539</ele>
<time>2020-09-12T09:44:55Z</time>
</trkpt>
<trkpt lat="47.404469" lon="10.919045">
<ele>923.539</ele>
<time>2020-09-12T09:44:56Z</time>
</trkpt>
<trkpt lat="47.40443" lon="10.919064">
<ele>923.539</ele>
<time>2020-09-12T09:44:57Z</time>
</trkpt>
<trkpt lat="47.404385" lon="10.919084">
<ele>923.539</ele>
<time>2020-09-12T09:44:58Z</time>
</trkpt>
<trkpt lat="47.404343" lon="10.919102">
<ele>923.539</ele>
<time>2020-09-12T09:44:59Z</time>
</trkpt>
<trkpt lat="47.404305" lon="10.919121">
<ele>923.539</ele>
<time>2020-09-12T09:45:00Z</time>
</trkpt>
<trkpt lat="47.404266" lon="10.919131">
<ele>923.539</ele>
<time>2020-09-12T09:45:01Z</time>
</trkpt>
<trkpt lat="47.404224" lon="10.919148">
<ele>923.539</ele>
<time>2020-09-12T09:45:02Z</time>
</trkpt>
<trkpt lat="47.404182" lon="10.919168">
<ele>923.539</ele>
<time>2020-09-12T09:45:03Z</time>
</trkpt>
<trkpt lat="47.404144" lon="10.919186">
<ele>923.539</ele>
<time>2020-09-12T09:45:04Z</time>
</trkpt>
<trkpt lat="47.404106" lon="10.91921">
<ele>923.539</ele>
<time>2020-09-12T09:45:05Z</time>
</trkpt>
<trkpt lat="47.404064" lon="10.919228">
<ele>923.796</ele>
<time>2020-09-12T09:45:06Z</time>
</trkpt>
<trkpt lat="47.404022" lon="10.919249">
<ele>924.002</ele>
<time>2020-09-12T09:45:07Z</time>
</trkpt>
<trkpt lat="47.40398" lon="10.919267">
<ele>924.159</ele>
<time>2020-09-12T09:45:08Z</time>
</trkpt>
<trkpt lat="47.403934" lon="10.919284">
<ele>924.266</ele>
<time>2020-09-12T09:45:09Z</time>
</trkpt>
<trkpt lat="47.403889" lon="10.9193">
<ele>924.38</ele>
<time>2020-09-12T09:45:10Z</time>
</trkpt>
<trkpt lat="47.403851" lon="10.919316">
<ele>924.462</ele>
<time>2020-09-12T09:45:11Z</time>
</trkpt>
<trkpt lat="47.403805" lon="10.919333">
<ele>924.514</ele>
<time>2020-09-12T09:45:12Z</time>
</trkpt>
<trkpt lat="47.403759" lon="10.919349">
<ele>924.538</ele>
<time>2020-09-12T09:45:13Z</time>
</trkpt>
<trkpt lat="47.403721" lon="10.919364">
<ele>924.538</ele>
<time>2020-09-12T09:45:14Z</time>
</trkpt>
<trkpt lat="47.403679" lon="10.91938">
<ele>924.538</ele>
<time>2020-09-12T09:45:15Z</time>
</trkpt>
<trkpt lat="47.403633" lon="10.919398">
<ele>924.538</ele>
<time>2020-09-12T09:45:16Z</time>
</trkpt>
<trkpt lat="47.403591" lon="10.919414">
<ele>924.538</ele>
<time>2020-09-12T09:45:17Z</time>
</trkpt>
<trkpt lat="47.403553" lon="10.919432">
<ele>924.538</ele>
<time>2020-09-12T09:45:18Z</time>
</trkpt>
<trkpt lat="47.403503" lon="10.919445">
<ele>924.538</ele>
<time>2020-09-12T09:45:19Z</time>
</trkpt>
<trkpt lat="47.403458" lon="10.919455">
<ele>924.538</ele>
<time>2020-09-12T09:45:20Z</time>
</trkpt>
<trkpt lat="47.403416" lon="10.919469">
<ele>924.538</ele>
<time>2020-09-12T09:45:21Z</time>
</trkpt>
<trkpt lat="47.403374" lon="10.919483">
<ele>924.538</ele>
<time>2020-09-12T09:45:22Z</time>
</trkpt>
<trkpt lat="47.403332" lon="10.919498">
<ele>924.538</ele>
<time>2020-09-12T09:45:23Z</time>
</trkpt>
<trkpt lat="47.403286" lon="10.919521">
<ele>924.538</ele>
<time>2020-09-12T09:45:24Z</time>
</trkpt>
<trkpt lat="47.40324" lon="10.919544">
<ele>924.538</ele>
<time>2020-09-12T09:45:25Z</time>
</trkpt>
<trkpt lat="47.403198" lon="10.919567">
<ele>924.538</ele>
<time>2020-09-12T09:45:26Z</time>
</trkpt>
<trkpt lat="47.403149" lon="10.919588">
<ele>924.538</ele>
<time>2020-09-12T09:45:27Z</time>
</trkpt>
<trkpt lat="47.403107" lon="10.919603">
<ele>924.538</ele>
<time>2020-09-12T09:45:28Z</time>
</trkpt>
<trkpt lat="47.403065" lon="10.919618">
<ele>924.538</ele>
<time>2020-09-12T09:45:29Z</time>
</trkpt>
<trkpt lat="47.403019" lon="10.919635">
<ele>924.538</ele>
<time>2020-09-12T09:45:30Z</time>
</trkpt>
<trkpt lat="47.402977" lon="10.919646">
<ele>924.538</ele>
<time>2020-09-12T09:45:31Z</time>
</trkpt>
<trkpt lat="47.402935" lon="10.919657">
<ele>924.538</ele>
<time>2020-09-12T09:45:32Z</time>
</trkpt>
<trkpt lat="47.402889" lon="10.919665">
<ele>924.538</ele>
<time>2020-09-12T09:45:33Z</time>
</trkpt>
<trkpt lat="47.40284" lon="10.919672">
<ele>924.538</ele>
<time>2020-09-12T09:45:34Z</time>
</trkpt>
<trkpt lat="47.402794" lon="10.919675">
<ele>924.538</ele>
<time>2020-09-12T09:45:35Z</time>
</trkpt>
<trkpt lat="47.402748" lon="10.919675">
<ele>924.538</ele>
<time>2020-09-12T09:45:36Z</time>
</trkpt>
<trkpt lat="47.40271" lon="10.919663">
<ele>924.538</ele>
<time>2020-09-12T09:45:37Z</time>
</trkpt>
<trkpt lat="47.40266" lon="10.919653">
<ele>924.538</ele>
<time>2020-09-12T09:45:38Z</time>
</trkpt>
<trkpt lat="47.402615" lon="10.919643">
<ele>924.538</ele>
<time>2020-09-12T09:45:39Z</time>
</trkpt>
<trkpt lat="47.402569" lon="10.919642">
<ele>924.538</ele>
<time>2020-09-12T09:45:40Z</time>
</trkpt>
<trkpt lat="47.402523" lon="10.919641">
<ele>924.538</ele>
<time>2020-09-12T09:45:41Z</time>
</trkpt>
<trkpt lat="47.402477" lon="10.919634">
<ele>924.538</ele>
<time>2020-09-12T09:45:42Z</time>
</trkpt>
<trkpt lat="47.402435" lon="10.919625">
<ele>924.538</ele>
<time>2020-09-12T09:45:43Z</time>
</trkpt>
<trkpt lat="47.40239" lon="10.919618">
<ele>924.856</ele>
<time>2020-09-12T09:45:44Z</time>
</trkpt>
<trkpt lat="47.402348" lon="10.919609">
<ele>925.105</ele>
<time>2020-09-12T09:45:45Z</time>
</trkpt>
<trkpt lat="47.402302" lon="10.919601">
<ele>925.293</ele>
<time>2020-09-12T09:45:46Z</time>
</trkpt>
<trkpt lat="47.40226" lon="10.919595">
<ele>925.436</ele>
<time>2020-09-12T09:45:47Z</time>
</trkpt>
<trkpt lat="47.402218" lon="10.919592">
<ele>925.54</ele>
<time>2020-09-12T09:45:48Z</time>
</trkpt>
<trkpt lat="47.402176" lon="10.919592">
<ele>925.619</ele>
<time>2020-09-12T09:45:49Z</time>
</trkpt>
<trkpt lat="47.402134" lon="10.919593">
<ele>925.684</ele>
<time>2020-09-12T09:45:50Z</time>
</trkpt>
<trkpt lat="47.402092" lon="10.919599">
<ele>925.718</ele>
<time>2020-09-12T09:45:51Z</time>
</trkpt>
<trkpt lat="47.402054" lon="10.919609">
<ele>925.718</ele>
<time>2020-09-12T09:45:52Z</time>
</trkpt>
<trkpt lat="47.402012" lon="10.919618">
<ele>925.718</ele>
<time>2020-09-12T09:45:53Z</time>
</trkpt>
<trkpt lat="47.401966" lon="10.919632">
<ele>925.718</ele>
<time>2020-09-12T09:45:54Z</time>
</trkpt>
<trkpt lat="47.401928" lon="10.919643">
<ele>925.718</ele>
<time>2020-09-12T09:45:55Z</time>
</trkpt>
<trkpt lat="47.401886" lon="10.919655">
<ele>925.718</ele>
<time>2020-09-12T09:45:56Z</time>
</trkpt>
<trkpt lat="47.401848" lon="10.919666">
<ele>925.718</ele>
<time>2020-09-12T09:45:57Z</time>
</trkpt>
<trkpt lat="47.401806" lon="10.919679">
<ele>925.718</ele>
<time>2020-09-12T09:45:58Z</time>
</trkpt>
<trkpt lat="47.401768" lon="10.91969">
<ele>925.718</ele>
<time>2020-09-12T09:45:59Z</time>
</trkpt>
<trkpt lat="47.40173" lon="10.9197">
<ele>925.718</ele>
<time>2020-09-12T09:46:00Z</time>
</trkpt>
<trkpt lat="47.401695" lon="10.91971">
<ele>925.718</ele>
<time>2020-09-12T09:46:01Z</time>
</trkpt>
<trkpt lat="47.401661" lon="10.91972">
<ele>925.718</ele>
<time>2020-09-12T09:46:02Z</time>
</trkpt>
<trkpt lat="47.401623" lon="10.91973">
<ele>925.718</ele>
<time>2020-09-12T09:46:03Z</time>
</trkpt>
<trkpt lat="47.401588" lon="10.919739">
<ele>925.718</ele>
<time>2020-09-12T09:46:04Z</time>
</trkpt>
<trkpt lat="47.401554" lon="10.919745">
<ele>925.718</ele>
<time>2020-09-12T09:46:05Z</time>
</trkpt>
<trkpt lat="47.40152" lon="10.919748">
<ele>925.967</ele>
<time>2020-09-12T09:46:06Z</time>
</trkpt>
<trkpt lat="47.401485" lon="10.919751">
<ele>926.169</ele>
<time>2020-09-12T09:46:07Z</time>
</trkpt>
<trkpt lat="47.401455" lon="10.919751">
<ele>926.325</ele>
<time>2020-09-12T09:46:08Z</time>
</trkpt>
<trkpt lat="47.401421" lon="10.919748">
<ele>926.433</ele>
<time>2020-09-12T09:46:09Z</time>
</trkpt>
<trkpt lat="47.401386" lon="10.91974">
<ele>926.551</ele>
<time>2020-09-12T09:46:10Z</time>
</trkpt>
<trkpt lat="47.401356" lon="10.919733">
<ele>926.634</ele>
<time>2020-09-12T09:46:11Z</time>
</trkpt>
<trkpt lat="47.401325" lon="10.919724">
<ele>926.69</ele>
<time>2020-09-12T09:46:12Z</time>
</trkpt>
<trkpt lat="47.401291" lon="10.91971">
<ele>926.717</ele>
<time>2020-09-12T09:46:13Z</time>
</trkpt>
<trkpt lat="47.40126" lon="10.919699">
<ele>926.987</ele>
<time>2020-09-12T09:46:14Z</time>
</trkpt>
<trkpt lat="47.40123" lon="10.919684">
<ele>927.2</ele>
<time>2020-09-12T09:46:15Z</time>
</trkpt>
<trkpt lat="47.401199" lon="10.919672">
<ele>927.362</ele>
<time>2020-09-12T09:46:16Z</time>
</trkpt>
<trkpt lat="47.401173" lon="10.919657">
<ele>927.483</ele>
<time>2020-09-12T09:46:17Z</time>
</trkpt>
<trkpt lat="47.401142" lon="10.919643">
<ele>927.567</ele>
<time>2020-09-12T09:46:18Z</time>
</trkpt>
<trkpt lat="47.401115" lon="10.919628">
<ele>927.633</ele>
<time>2020-09-12T09:46:19Z</time>
</trkpt>
<trkpt lat="47.401085" lon="10.91961">
<ele>927.95</ele>
<time>2020-09-12T09:46:20Z</time>
</trkpt>
<trkpt lat="47.401054" lon="10.919595">
<ele>928.198</ele>
<time>2020-09-12T09:46:21Z</time>
</trkpt>
<trkpt lat="47.401028" lon="10.919577">
<ele>928.383</ele>
<time>2020-09-12T09:46:22Z</time>
</trkpt>
<trkpt lat="47.400997" lon="10.919557">
<ele>928.533</ele>
<time>2020-09-12T09:46:23Z</time>
</trkpt>
<trkpt lat="47.40097" lon="10.919537">
<ele>928.648</ele>
<time>2020-09-12T09:46:24Z</time>
</trkpt>
<trkpt lat="47.400948" lon="10.919513">
<ele>928.73</ele>
<time>2020-09-12T09:46:25Z</time>
</trkpt>
<trkpt lat="47.400917" lon="10.919488">
<ele>928.777</ele>
<time>2020-09-12T09:46:26Z</time>
</trkpt>
<trkpt lat="47.40089" lon="10.919465">
<ele>929.072</ele>
<time>2020-09-12T09:46:27Z</time>
</trkpt>
<trkpt lat="47.400864" lon="10.919438">
<ele>929.294</ele>
<time>2020-09-12T09:46:28Z</time>
</trkpt>
<trkpt lat="47.400837" lon="10.919412">
<ele>929.44</ele>
<time>2020-09-12T09:46:29Z</time>
</trkpt>
<trkpt lat="47.400814" lon="10.919387">
<ele>929.867</ele>
<time>2020-09-12T09:46:30Z</time>
</trkpt>
<trkpt lat="47.400784" lon="10.919362">
<ele>930.21</ele>
<time>2020-09-12T09:46:31Z</time>
</trkpt>
<trkpt lat="47.400761" lon="10.919334">
<ele>930.488</ele>
<time>2020-09-12T09:46:32Z</time>
</trkpt>
<trkpt lat="47.400738" lon="10.91931">
<ele>930.692</ele>
<time>2020-09-12T09:46:33Z</time>
</trkpt>
<trkpt lat="47.400715" lon="10.919285">
<ele>930.827</ele>
<time>2020-09-12T09:46:34Z</time>
</trkpt>
<trkpt lat="47.400688" lon="10.91926">
<ele>930.907</ele>
<time>2020-09-12T09:46:35Z</time>
</trkpt>
<trkpt lat="47.400665" lon="10.919233">
<ele>930.96</ele>
<time>2020-09-12T09:46:36Z</time>
</trkpt>
<trkpt lat="47.400646" lon="10.919202">
<ele>930.987</ele>
<time>2020-09-12T09:46:37Z</time>
</trkpt>
<trkpt lat="47.400627" lon="10.919169">
<ele>931.247</ele>
<time>2020-09-12T09:46:38Z</time>
</trkpt>
<trkpt lat="47.400608" lon="10.919137">
<ele>931.438</ele>
<time>2020-09-12T09:46:39Z</time>
</trkpt>
<trkpt lat="47.400589" lon="10.9191">
<ele>931.633</ele>
<time>2020-09-12T09:46:40Z</time>
</trkpt>
<trkpt lat="47.400562" lon="10.919062">
<ele>931.792</ele>
<time>2020-09-12T09:46:41Z</time>
</trkpt>
<trkpt lat="47.400543" lon="10.919022">
<ele>931.911</ele>
<time>2020-09-12T09:46:42Z</time>
</trkpt>
<trkpt lat="47.40052" lon="10.918981">
<ele>931.998</ele>
<time>2020-09-12T09:46:43Z</time>
</trkpt>
<trkpt lat="47.400494" lon="10.918935">
<ele>932.053</ele>
<time>2020-09-12T09:46:44Z</time>
</trkpt>
<trkpt lat="47.400471" lon="10.918888">
<ele>932.077</ele>
<time>2020-09-12T09:46:45Z</time>
</trkpt>
<trkpt lat="47.400448" lon="10.91884">
<ele>932.077</ele>
<time>2020-09-12T09:46:46Z</time>
</trkpt>
<trkpt lat="47.400421" lon="10.918792">
<ele>932.077</ele>
<time>2020-09-12T09:46:47Z</time>
</trkpt>
<trkpt lat="47.400394" lon="10.918741">
<ele>932.077</ele>
<time>2020-09-12T09:46:48Z</time>
</trkpt>
<trkpt lat="47.400372" lon="10.918692">
<ele>932.077</ele>
<time>2020-09-12T09:46:49Z</time>
</trkpt>
<trkpt lat="47.400349" lon="10.918645">
<ele>932.077</ele>
<time>2020-09-12T09:46:50Z</time>
</trkpt>
<trkpt lat="47.400318" lon="10.9186">
<ele>932.077</ele>
<time>2020-09-12T09:46:51Z</time>
</trkpt>
<trkpt lat="47.400288" lon="10.918558">
<ele>932.077</ele>
<time>2020-09-12T09:46:52Z</time>
</trkpt>
<trkpt lat="47.400257" lon="10.91852">
<ele>932.077</ele>
<time>2020-09-12T09:46:53Z</time>
</trkpt>
<trkpt lat="47.400219" lon="10.918482">
<ele>932.077</ele>
<time>2020-09-12T09:46:54Z</time>
</trkpt>
<trkpt lat="47.400188" lon="10.918445">
<ele>932.077</ele>
<time>2020-09-12T09:46:55Z</time>
</trkpt>
<trkpt lat="47.400154" lon="10.918411">
<ele>932.077</ele>
<time>2020-09-12T09:46:56Z</time>
</trkpt>
<trkpt lat="47.400116" lon="10.918382">
<ele>932.077</ele>
<time>2020-09-12T09:46:57Z</time>
</trkpt>
<trkpt lat="47.400078" lon="10.918357">
<ele>932.077</ele>
<time>2020-09-12T09:46:58Z</time>
</trkpt>
<trkpt lat="47.40004" lon="10.91833">
<ele>932.077</ele>
<time>2020-09-12T09:46:59Z</time>
</trkpt>
<trkpt lat="47.400002" lon="10.918305">
<ele>932.077</ele>
<time>2020-09-12T09:47:00Z</time>
</trkpt>
<trkpt lat="47.399963" lon="10.918281">
<ele>932.377</ele>
<time>2020-09-12T09:47:01Z</time>
</trkpt>
<trkpt lat="47.399929" lon="10.918255">
<ele>932.603</ele>
<time>2020-09-12T09:47:02Z</time>
</trkpt>
<trkpt lat="47.399891" lon="10.91823">
<ele>932.782</ele>
<time>2020-09-12T09:47:03Z</time>
</trkpt>
<trkpt lat="47.399853" lon="10.918205">
<ele>932.912</ele>
<time>2020-09-12T09:47:04Z</time>
</trkpt>
<trkpt lat="47.399815" lon="10.918182">
<ele>932.992</ele>
<time>2020-09-12T09:47:05Z</time>
</trkpt>
<trkpt lat="47.39978" lon="10.918159">
<ele>933.047</ele>
<time>2020-09-12T09:47:06Z</time>
</trkpt>
<trkpt lat="47.399742" lon="10.918139">
<ele>933.077</ele>
<time>2020-09-12T09:47:07Z</time>
</trkpt>
<trkpt lat="47.399708" lon="10.918123">
<ele>933.077</ele>
<time>2020-09-12T09:47:08Z</time>
</trkpt>
<trkpt lat="47.399673" lon="10.918115">
<ele>933.276</ele>
<time>2020-09-12T09:47:09Z</time>
</trkpt>
<trkpt lat="47.399635" lon="10.918109">
<ele>933.465</ele>
<time>2020-09-12T09:47:10Z</time>
</trkpt>
<trkpt lat="47.399601" lon="10.918107">
<ele>933.619</ele>
<time>2020-09-12T09:47:11Z</time>
</trkpt>
<trkpt lat="47.399563" lon="10.91811">
<ele>933.747</ele>
<time>2020-09-12T09:47:12Z</time>
</trkpt>
<trkpt lat="47.399525" lon="10.918119">
<ele>933.845</ele>
<time>2020-09-12T09:47:13Z</time>
</trkpt>
<trkpt lat="47.399494" lon="10.918139">
<ele>933.917</ele>
<time>2020-09-12T09:47:14Z</time>
</trkpt>
<trkpt lat="47.39946" lon="10.918159">
<ele>933.963</ele>
<time>2020-09-12T09:47:15Z</time>
</trkpt>
<trkpt lat="47.399429" lon="10.918184">
<ele>933.986</ele>
<time>2020-09-12T09:47:16Z</time>
</trkpt>
<trkpt lat="47.399403" lon="10.918214">
<ele>934.233</ele>
<time>2020-09-12T09:47:17Z</time>
</trkpt>
<trkpt lat="47.399376" lon="10.918242">
<ele>934.428</ele>
<time>2020-09-12T09:47:18Z</time>
</trkpt>
<trkpt lat="47.399349" lon="10.918264">
<ele>934.565</ele>
<time>2020-09-12T09:47:19Z</time>
</trkpt>
<trkpt lat="47.399323" lon="10.918283">
<ele>934.7</ele>
<time>2020-09-12T09:47:20Z</time>
</trkpt>
<trkpt lat="47.3993" lon="10.918298">
<ele>935.088</ele>
<time>2020-09-12T09:47:21Z</time>
</trkpt>
<trkpt lat="47.399273" lon="10.918314">
<ele>935.408</ele>
<time>2020-09-12T09:47:22Z</time>
</trkpt>
<trkpt lat="47.399242" lon="10.918333">
<ele>935.624</ele>
<time>2020-09-12T09:47:23Z</time>
</trkpt>
<trkpt lat="47.399212" lon="10.91835">
<ele>936.093</ele>
<time>2020-09-12T09:47:24Z</time>
</trkpt>
<trkpt lat="47.399181" lon="10.918366">
<ele>936.586</ele>
<time>2020-09-12T09:47:25Z</time>
</trkpt>
<trkpt lat="47.399151" lon="10.918382">
<ele>936.847</ele>
<time>2020-09-12T09:47:26Z</time>
</trkpt>
<trkpt lat="47.39912" lon="10.918395">
<ele>937.016</ele>
<time>2020-09-12T09:47:27Z</time>
</trkpt>
<trkpt lat="47.39909" lon="10.918408">
<ele>937.107</ele>
<time>2020-09-12T09:47:28Z</time>
</trkpt>
<trkpt lat="47.399052" lon="10.918433">
<ele>937.174</ele>
<time>2020-09-12T09:47:29Z</time>
</trkpt>
<trkpt lat="47.399021" lon="10.91845">
<ele>937.483</ele>
<time>2020-09-12T09:47:30Z</time>
</trkpt>
<trkpt lat="47.398991" lon="10.918463">
<ele>937.713</ele>
<time>2020-09-12T09:47:31Z</time>
</trkpt>
<trkpt lat="47.39896" lon="10.918478">
<ele>937.878</ele>
<time>2020-09-12T09:47:32Z</time>
</trkpt>
<trkpt lat="47.398926" lon="10.918495">
<ele>938.013</ele>
<time>2020-09-12T09:47:33Z</time>
</trkpt>
<trkpt lat="47.398895" lon="10.918515">
<ele>938.114</ele>
<time>2020-09-12T09:47:34Z</time>
</trkpt>
<trkpt lat="47.398865" lon="10.918534">
<ele>938.177</ele>
<time>2020-09-12T09:47:35Z</time>
</trkpt>
<trkpt lat="47.39883" lon="10.918551">
<ele>938.452</ele>
<time>2020-09-12T09:47:36Z</time>
</trkpt>
<trkpt lat="47.3988" lon="10.918567">
<ele>938.662</ele>
<time>2020-09-12T09:47:37Z</time>
</trkpt>
<trkpt lat="47.398766" lon="10.918578">
<ele>938.821</ele>
<time>2020-09-12T09:47:38Z</time>
</trkpt>
<trkpt lat="47.398731" lon="10.918585">
<ele>938.919</ele>
<time>2020-09-12T09:47:39Z</time>
</trkpt>
<trkpt lat="47.398697" lon="10.918587">
<ele>939.024</ele>
<time>2020-09-12T09:47:40Z</time>
</trkpt>
<trkpt lat="47.39867" lon="10.918573">
<ele>939.097</ele>
<time>2020-09-12T09:47:41Z</time>
</trkpt>
<trkpt lat="47.398643" lon="10.918549">
<ele>939.144</ele>
<time>2020-09-12T09:47:42Z</time>
</trkpt>
<trkpt lat="47.398617" lon="10.918518">
<ele>939.168</ele>
<time>2020-09-12T09:47:43Z</time>
</trkpt>
<trkpt lat="47.398594" lon="10.91849">
<ele>939.167</ele>
<time>2020-09-12T09:47:44Z</time>
</trkpt>
<trkpt lat="47.398567" lon="10.918468">
<ele>939.168</ele>
<time>2020-09-12T09:47:45Z</time>
</trkpt>
<trkpt lat="47.398537" lon="10.918468">
<ele>939.167</ele>
<time>2020-09-12T09:47:46Z</time>
</trkpt>
<trkpt lat="47.398502" lon="10.91848">
<ele>939.167</ele>
<time>2020-09-12T09:47:47Z</time>
</trkpt>
<trkpt lat="47.398479" lon="10.918509">
<ele>939.167</ele>
<time>2020-09-12T09:47:48Z</time>
</trkpt>
<trkpt lat="47.398472" lon="10.918551">
<ele>939.167</ele>
<time>2020-09-12T09:47:49Z</time>
</trkpt>
<trkpt lat="47.398468" lon="10.918591">
<ele>939.167</ele>
<time>2020-09-12T09:47:50Z</time>
</trkpt>
<trkpt lat="47.398464" lon="10.918635">
<ele>939.46</ele>
<time>2020-09-12T09:47:51Z</time>
</trkpt>
<trkpt lat="47.398464" lon="10.91868">
<ele>939.69</ele>
<time>2020-09-12T09:47:52Z</time>
</trkpt>
<trkpt lat="47.398464" lon="10.918727">
<ele>939.869</ele>
<time>2020-09-12T09:47:53Z</time>
</trkpt>
<trkpt lat="47.39846" lon="10.918777">
<ele>939.99</ele>
<time>2020-09-12T09:47:54Z</time>
</trkpt>
<trkpt lat="47.39846" lon="10.91883">
<ele>940.081</ele>
<time>2020-09-12T09:47:55Z</time>
</trkpt>
<trkpt lat="47.398464" lon="10.91888">
<ele>940.143</ele>
<time>2020-09-12T09:47:56Z</time>
</trkpt>
<trkpt lat="47.398468" lon="10.918928">
<ele>940.161</ele>
<time>2020-09-12T09:47:57Z</time>
</trkpt>
<trkpt lat="47.398468" lon="10.918977">
<ele>940.168</ele>
<time>2020-09-12T09:47:58Z</time>
</trkpt>
<trkpt lat="47.398468" lon="10.919026">
<ele>940.168</ele>
<time>2020-09-12T09:47:59Z</time>
</trkpt>
<trkpt lat="47.398464" lon="10.919073">
<ele>940.168</ele>
<time>2020-09-12T09:48:00Z</time>
</trkpt>
<trkpt lat="47.398464" lon="10.919119">
<ele>940.168</ele>
<time>2020-09-12T09:48:01Z</time>
</trkpt>
<trkpt lat="47.398464" lon="10.919165">
<ele>940.167</ele>
<time>2020-09-12T09:48:02Z</time>
</trkpt>
<trkpt lat="47.398457" lon="10.919213">
<ele>940.167</ele>
<time>2020-09-12T09:48:03Z</time>
</trkpt>
<trkpt lat="47.398449" lon="10.919262">
<ele>940.167</ele>
<time>2020-09-12T09:48:04Z</time>
</trkpt>
<trkpt lat="47.398441" lon="10.91931">
<ele>940.433</ele>
<time>2020-09-12T09:48:05Z</time>
</trkpt>
<trkpt lat="47.398438" lon="10.919355">
<ele>940.641</ele>
<time>2020-09-12T09:48:06Z</time>
</trkpt>
<trkpt lat="47.398438" lon="10.919395">
<ele>940.799</ele>
<time>2020-09-12T09:48:07Z</time>
</trkpt>
<trkpt lat="47.398434" lon="10.919437">
<ele>940.919</ele>
<time>2020-09-12T09:48:08Z</time>
</trkpt>
<trkpt lat="47.398438" lon="10.919483">
<ele>941.003</ele>
<time>2020-09-12T09:48:09Z</time>
</trkpt>
<trkpt lat="47.398426" lon="10.919525">
<ele>941.086</ele>
<time>2020-09-12T09:48:10Z</time>
</trkpt>
<trkpt lat="47.398411" lon="10.91957">
<ele>941.14</ele>
<time>2020-09-12T09:48:11Z</time>
</trkpt>
<trkpt lat="47.398403" lon="10.919615">
<ele>941.168</ele>
<time>2020-09-12T09:48:12Z</time>
</trkpt>
<trkpt lat="47.398388" lon="10.91966">
<ele>941.168</ele>
<time>2020-09-12T09:48:13Z</time>
</trkpt>
<trkpt lat="47.398373" lon="10.9197">
<ele>941.168</ele>
<time>2020-09-12T09:48:14Z</time>
</trkpt>
<trkpt lat="47.398365" lon="10.91974">
<ele>941.434</ele>
<time>2020-09-12T09:48:15Z</time>
</trkpt>
<trkpt lat="47.398354" lon="10.919781">
<ele>941.637</ele>
<time>2020-09-12T09:48:16Z</time>
</trkpt>
<trkpt lat="47.398342" lon="10.919829">
<ele>941.792</ele>
<time>2020-09-12T09:48:17Z</time>
</trkpt>
<trkpt lat="47.398335" lon="10.919877">
<ele>941.916</ele>
<time>2020-09-12T09:48:18Z</time>
</trkpt>
<trkpt lat="47.398331" lon="10.919927">
<ele>941.997</ele>
<time>2020-09-12T09:48:19Z</time>
</trkpt>
<trkpt lat="47.398327" lon="10.919975">
<ele>942.085</ele>
<time>2020-09-12T09:48:20Z</time>
</trkpt>
<trkpt lat="47.398319" lon="10.920025">
<ele>942.14</ele>
<time>2020-09-12T09:48:21Z</time>
</trkpt>
<trkpt lat="47.398319" lon="10.920072">
<ele>942.168</ele>
<time>2020-09-12T09:48:22Z</time>
</trkpt>
<trkpt lat="47.398319" lon="10.920115">
<ele>942.168</ele>
<time>2020-09-12T09:48:23Z</time>
</trkpt>
<trkpt lat="47.398315" lon="10.920158">
<ele>942.414</ele>
<time>2020-09-12T09:48:24Z</time>
</trkpt>
<trkpt lat="47.398308" lon="10.920198">
<ele>942.596</ele>
<time>2020-09-12T09:48:25Z</time>
</trkpt>
<trkpt lat="47.398293" lon="10.920238">
<ele>942.743</ele>
<time>2020-09-12T09:48:26Z</time>
</trkpt>
<trkpt lat="47.398273" lon="10.920269">
<ele>942.852</ele>
<time>2020-09-12T09:48:27Z</time>
</trkpt>
<trkpt lat="47.398251" lon="10.9203">
<ele>942.937</ele>
<time>2020-09-12T09:48:28Z</time>
</trkpt>
<trkpt lat="47.398232" lon="10.920335">
<ele>942.996</ele>
<time>2020-09-12T09:48:29Z</time>
</trkpt>
<trkpt lat="47.398209" lon="10.920374">
<ele>943.052</ele>
<time>2020-09-12T09:48:30Z</time>
</trkpt>
<trkpt lat="47.398193" lon="10.920413">
<ele>943.078</ele>
<time>2020-09-12T09:48:31Z</time>
</trkpt>
<trkpt lat="47.398174" lon="10.920453">
<ele>943.078</ele>
<time>2020-09-12T09:48:32Z</time>
</trkpt>
<trkpt lat="47.398155" lon="10.920491">
<ele>943.078</ele>
<time>2020-09-12T09:48:33Z</time>
</trkpt>
<trkpt lat="47.398132" lon="10.920527">
<ele>943.379</ele>
<time>2020-09-12T09:48:34Z</time>
</trkpt>
<trkpt lat="47.398113" lon="10.920562">
<ele>943.613</ele>
<time>2020-09-12T09:48:35Z</time>
</trkpt>
<trkpt lat="47.398098" lon="10.920596">
<ele>943.786</ele>
<time>2020-09-12T09:48:36Z</time>
</trkpt>
<trkpt lat="47.398079" lon="10.92063">
<ele>943.91</ele>
<time>2020-09-12T09:48:37Z</time>
</trkpt>
<trkpt lat="47.398056" lon="10.920665">
<ele>944.007</ele>
<time>2020-09-12T09:48:38Z</time>
</trkpt>
<trkpt lat="47.398041" lon="10.920696">
<ele>944.075</ele>
<time>2020-09-12T09:48:39Z</time>
</trkpt>
<trkpt lat="47.398014" lon="10.920724">
<ele>944.138</ele>
<time>2020-09-12T09:48:40Z</time>
</trkpt>
<trkpt lat="47.397991" lon="10.920755">
<ele>944.17</ele>
<time>2020-09-12T09:48:41Z</time>
</trkpt>
<trkpt lat="47.397976" lon="10.920785">
<ele>944.454</ele>
<time>2020-09-12T09:48:42Z</time>
</trkpt>
<trkpt lat="47.397953" lon="10.92082">
<ele>944.68</ele>
<time>2020-09-12T09:48:43Z</time>
</trkpt>
<trkpt lat="47.39793" lon="10.920854">
<ele>944.851</ele>
<time>2020-09-12T09:48:44Z</time>
</trkpt>
<trkpt lat="47.397915" lon="10.920885">
<ele>944.973</ele>
<time>2020-09-12T09:48:45Z</time>
</trkpt>
<trkpt lat="47.397892" lon="10.920914">
<ele>945.044</ele>
<time>2020-09-12T09:48:46Z</time>
</trkpt>
<trkpt lat="47.397873" lon="10.920945">
<ele>945.353</ele>
<time>2020-09-12T09:48:47Z</time>
</trkpt>
<trkpt lat="47.39785" lon="10.920977">
<ele>945.589</ele>
<time>2020-09-12T09:48:48Z</time>
</trkpt>
<trkpt lat="47.397831" lon="10.921008">
<ele>945.75</ele>
<time>2020-09-12T09:48:49Z</time>
</trkpt>
<trkpt lat="47.397808" lon="10.921038">
<ele>945.898</ele>
<time>2020-09-12T09:48:50Z</time>
</trkpt>
<trkpt lat="47.397785" lon="10.92107">
<ele>946.008</ele>
<time>2020-09-12T09:48:51Z</time>
</trkpt>
<trkpt lat="47.397762" lon="10.921103">
<ele>946.092</ele>
<time>2020-09-12T09:48:52Z</time>
</trkpt>
<trkpt lat="47.397739" lon="10.921132">
<ele>946.143</ele>
<time>2020-09-12T09:48:53Z</time>
</trkpt>
<trkpt lat="47.397713" lon="10.921164">
<ele>946.4</ele>
<time>2020-09-12T09:48:54Z</time>
</trkpt>
<trkpt lat="47.397686" lon="10.921202">
<ele>946.618</ele>
<time>2020-09-12T09:48:55Z</time>
</trkpt>
<trkpt lat="47.397655" lon="10.921235">
<ele>946.766</ele>
<time>2020-09-12T09:48:56Z</time>
</trkpt>
<trkpt lat="47.397629" lon="10.921268">
<ele>946.88</ele>
<time>2020-09-12T09:48:57Z</time>
</trkpt>
<trkpt lat="47.397602" lon="10.921304">
<ele>946.956</ele>
<time>2020-09-12T09:48:58Z</time>
</trkpt>
<trkpt lat="47.397575" lon="10.921335">
<ele>947.011</ele>
<time>2020-09-12T09:48:59Z</time>
</trkpt>
<trkpt lat="47.397552" lon="10.921362">
<ele>947.058</ele>
<time>2020-09-12T09:49:00Z</time>
</trkpt>
<trkpt lat="47.397526" lon="10.921382">
<ele>947.318</ele>
<time>2020-09-12T09:49:01Z</time>
</trkpt>
<trkpt lat="47.397499" lon="10.921413">
<ele>947.595</ele>
<time>2020-09-12T09:49:02Z</time>
</trkpt>
<trkpt lat="47.397476" lon="10.921447">
<ele>947.766</ele>
<time>2020-09-12T09:49:03Z</time>
</trkpt>
<trkpt lat="47.397449" lon="10.921474">
<ele>947.906</ele>
<time>2020-09-12T09:49:04Z</time>
</trkpt>
<trkpt lat="47.397427" lon="10.921503">
<ele>947.99</ele>
<time>2020-09-12T09:49:05Z</time>
</trkpt>
<trkpt lat="47.3974" lon="10.921526">
<ele>948.054</ele>
<time>2020-09-12T09:49:06Z</time>
</trkpt>
<trkpt lat="47.397377" lon="10.921556">
<ele>948.082</ele>
<time>2020-09-12T09:49:07Z</time>
</trkpt>
<trkpt lat="47.397354" lon="10.921585">
<ele>948.082</ele>
<time>2020-09-12T09:49:08Z</time>
</trkpt>
<trkpt lat="47.397331" lon="10.921614">
<ele>948.082</ele>
<time>2020-09-12T09:49:09Z</time>
</trkpt>
<trkpt lat="47.397305" lon="10.921643">
<ele>948.082</ele>
<time>2020-09-12T09:49:10Z</time>
</trkpt>
<trkpt lat="47.397289" lon="10.92167">
<ele>948.37</ele>
<time>2020-09-12T09:49:11Z</time>
</trkpt>
<trkpt lat="47.397263" lon="10.921699">
<ele>948.602</ele>
<time>2020-09-12T09:49:12Z</time>
</trkpt>
<trkpt lat="47.397243" lon="10.921729">
<ele>948.776</ele>
<time>2020-09-12T09:49:13Z</time>
</trkpt>
<trkpt lat="47.397224" lon="10.921755">
<ele>948.913</ele>
<time>2020-09-12T09:49:14Z</time>
</trkpt>
<trkpt lat="47.397202" lon="10.92178">
<ele>949.001</ele>
<time>2020-09-12T09:49:15Z</time>
</trkpt>
<trkpt lat="47.397182" lon="10.921803">
<ele>949.051</ele>
<time>2020-09-12T09:49:16Z</time>
</trkpt>
<trkpt lat="47.397167" lon="10.921826">
<ele>949.324</ele>
<time>2020-09-12T09:49:17Z</time>
</trkpt>
<trkpt lat="47.397148" lon="10.92185">
<ele>949.517</ele>
<time>2020-09-12T09:49:18Z</time>
</trkpt>
<trkpt lat="47.397133" lon="10.921874">
<ele>949.657</ele>
<time>2020-09-12T09:49:19Z</time>
</trkpt>
<trkpt lat="47.39711" lon="10.921899">
<ele>949.796</ele>
<time>2020-09-12T09:49:20Z</time>
</trkpt>
<trkpt lat="47.397087" lon="10.921925">
<ele>949.915</ele>
<time>2020-09-12T09:49:21Z</time>
</trkpt>
<trkpt lat="47.397068" lon="10.921951">
<ele>950.003</ele>
<time>2020-09-12T09:49:22Z</time>
</trkpt>
<trkpt lat="47.397041" lon="10.921978">
<ele>950.057</ele>
<time>2020-09-12T09:49:23Z</time>
</trkpt>
<trkpt lat="47.397018" lon="10.922006">
<ele>950.084</ele>
<time>2020-09-12T09:49:24Z</time>
</trkpt>
<trkpt lat="47.396996" lon="10.922029">
<ele>950.084</ele>
<time>2020-09-12T09:49:25Z</time>
</trkpt>
<trkpt lat="47.396973" lon="10.922053">
<ele>950.084</ele>
<time>2020-09-12T09:49:26Z</time>
</trkpt>
<trkpt lat="47.396954" lon="10.922082">
<ele>950.084</ele>
<time>2020-09-12T09:49:27Z</time>
</trkpt>
<trkpt lat="47.396938" lon="10.922109">
<ele>950.084</ele>
<time>2020-09-12T09:49:28Z</time>
</trkpt>
<trkpt lat="47.396919" lon="10.922132">
<ele>950.322</ele>
<time>2020-09-12T09:49:29Z</time>
</trkpt>
<trkpt lat="47.396904" lon="10.922151">
<ele>950.541</ele>
<time>2020-09-12T09:49:30Z</time>
</trkpt>
<trkpt lat="47.396881" lon="10.922175">
<ele>950.727</ele>
<time>2020-09-12T09:49:31Z</time>
</trkpt>
<trkpt lat="47.396866" lon="10.9222">
<ele>950.88</ele>
<time>2020-09-12T09:49:32Z</time>
</trkpt>
<trkpt lat="47.396843" lon="10.922225">
<ele>951.003</ele>
<time>2020-09-12T09:49:33Z</time>
</trkpt>
<trkpt lat="47.39682" lon="10.92225">
<ele>951.093</ele>
<time>2020-09-12T09:49:34Z</time>
</trkpt>
<trkpt lat="47.396793" lon="10.922276">
<ele>951.148</ele>
<time>2020-09-12T09:49:35Z</time>
</trkpt>
<trkpt lat="47.39677" lon="10.922299">
<ele>951.177</ele>
<time>2020-09-12T09:49:36Z</time>
</trkpt>
<trkpt lat="47.396744" lon="10.922323">
<ele>951.44</ele>
<time>2020-09-12T09:49:37Z</time>
</trkpt>
<trkpt lat="47.396717" lon="10.92235">
<ele>951.648</ele>
<time>2020-09-12T09:49:38Z</time>
</trkpt>
<trkpt lat="47.39669" lon="10.922377">
<ele>951.777</ele>
<time>2020-09-12T09:49:39Z</time>
</trkpt>
<trkpt lat="47.396667" lon="10.922401">
<ele>951.92</ele>
<time>2020-09-12T09:49:40Z</time>
</trkpt>
<trkpt lat="47.396641" lon="10.922429">
<ele>952.028</ele>
<time>2020-09-12T09:49:41Z</time>
</trkpt>
<trkpt lat="47.396614" lon="10.922459">
<ele>952.103</ele>
<time>2020-09-12T09:49:42Z</time>
</trkpt>
<trkpt lat="47.396591" lon="10.922485">
<ele>952.153</ele>
<time>2020-09-12T09:49:43Z</time>
</trkpt>
<trkpt lat="47.396572" lon="10.92251">
<ele>952.178</ele>
<time>2020-09-12T09:49:44Z</time>
</trkpt>
<trkpt lat="47.396549" lon="10.922536">
<ele>952.179</ele>
<time>2020-09-12T09:49:45Z</time>
</trkpt>
<trkpt lat="47.39653" lon="10.922562">
<ele>952.447</ele>
<time>2020-09-12T09:49:46Z</time>
</trkpt>
<trkpt lat="47.396515" lon="10.922586">
<ele>952.66</ele>
<time>2020-09-12T09:49:47Z</time>
</trkpt>
<trkpt lat="47.396492" lon="10.922615">
<ele>952.834</ele>
<time>2020-09-12T09:49:48Z</time>
</trkpt>
<trkpt lat="47.396473" lon="10.922645">
<ele>952.949</ele>
<time>2020-09-12T09:49:49Z</time>
</trkpt>
<trkpt lat="47.396454" lon="10.92267">
<ele>953.08</ele>
<time>2020-09-12T09:49:50Z</time>
</trkpt>
<trkpt lat="47.396435" lon="10.922695">
<ele>953.179</ele>
<time>2020-09-12T09:49:51Z</time>
</trkpt>
<trkpt lat="47.396416" lon="10.92272">
<ele>953.242</ele>
<time>2020-09-12T09:49:52Z</time>
</trkpt>
<trkpt lat="47.396389" lon="10.922747">
<ele>953.271</ele>
<time>2020-09-12T09:49:53Z</time>
</trkpt>
<trkpt lat="47.39637" lon="10.922777">
<ele>953.552</ele>
<time>2020-09-12T09:49:54Z</time>
</trkpt>
<trkpt lat="47.396347" lon="10.9228">
<ele>953.761</ele>
<time>2020-09-12T09:49:55Z</time>
</trkpt>
<trkpt lat="47.396324" lon="10.922821">
<ele>953.918</ele>
<time>2020-09-12T09:49:56Z</time>
</trkpt>
<trkpt lat="47.396305" lon="10.922844">
<ele>954.039</ele>
<time>2020-09-12T09:49:57Z</time>
</trkpt>
<trkpt lat="47.396286" lon="10.922867">
<ele>954.131</ele>
<time>2020-09-12T09:49:58Z</time>
</trkpt>
<trkpt lat="47.396263" lon="10.922894">
<ele>954.19</ele>
<time>2020-09-12T09:49:59Z</time>
</trkpt>
<trkpt lat="47.39624" lon="10.922918">
<ele>954.247</ele>
<time>2020-09-12T09:50:00Z</time>
</trkpt>
<trkpt lat="47.396221" lon="10.922942">
<ele>954.273</ele>
<time>2020-09-12T09:50:01Z</time>
</trkpt>
<trkpt lat="47.396194" lon="10.92297">
<ele>954.561</ele>
<time>2020-09-12T09:50:02Z</time>
</trkpt>
<trkpt lat="47.396175" lon="10.922995">
<ele>954.795</ele>
<time>2020-09-12T09:50:03Z</time>
</trkpt>
<trkpt lat="47.396152" lon="10.923022">
<ele>954.961</ele>
<time>2020-09-12T09:50:04Z</time>
</trkpt>
<trkpt lat="47.396126" lon="10.923049">
<ele>955.082</ele>
<time>2020-09-12T09:50:05Z</time>
</trkpt>
<trkpt lat="47.396103" lon="10.923077">
<ele>955.174</ele>
<time>2020-09-12T09:50:06Z</time>
</trkpt>
<trkpt lat="47.39608" lon="10.9231">
<ele>955.226</ele>
<time>2020-09-12T09:50:07Z</time>
</trkpt>
<trkpt lat="47.396057" lon="10.923125">
<ele>955.251</ele>
<time>2020-09-12T09:50:08Z</time>
</trkpt>
<trkpt lat="47.396034" lon="10.923143">
<ele>955.274</ele>
<time>2020-09-12T09:50:09Z</time>
</trkpt>
<trkpt lat="47.396011" lon="10.923164">
<ele>955.274</ele>
<time>2020-09-12T09:50:10Z</time>
</trkpt>
<trkpt lat="47.395988" lon="10.923187">
<ele>955.274</ele>
<time>2020-09-12T09:50:11Z</time>
</trkpt>
<trkpt lat="47.395962" lon="10.923213">
<ele>955.274</ele>
<time>2020-09-12T09:50:12Z</time>
</trkpt>
<trkpt lat="47.395935" lon="10.923235">
<ele>955.527</ele>
<time>2020-09-12T09:50:13Z</time>
</trkpt>
<trkpt lat="47.395908" lon="10.923257">
<ele>955.726</ele>
<time>2020-09-12T09:50:14Z</time>
</trkpt>
<trkpt lat="47.395889" lon="10.92328">
<ele>955.88</ele>
<time>2020-09-12T09:50:15Z</time>
</trkpt>
<trkpt lat="47.395863" lon="10.923301">
<ele>955.993</ele>
<time>2020-09-12T09:50:16Z</time>
</trkpt>
<trkpt lat="47.395836" lon="10.923324">
<ele>956.08</ele>
<time>2020-09-12T09:50:17Z</time>
</trkpt>
<trkpt lat="47.395813" lon="10.923345">
<ele>956.124</ele>
<time>2020-09-12T09:50:18Z</time>
</trkpt>
<trkpt lat="47.395786" lon="10.923367">
<ele>956.162</ele>
<time>2020-09-12T09:50:19Z</time>
</trkpt>
<trkpt lat="47.39576" lon="10.923388">
<ele>956.427</ele>
<time>2020-09-12T09:50:20Z</time>
</trkpt>
<trkpt lat="47.395737" lon="10.923411">
<ele>956.634</ele>
<time>2020-09-12T09:50:21Z</time>
</trkpt>
<trkpt lat="47.39571" lon="10.923435">
<ele>956.802</ele>
<time>2020-09-12T09:50:22Z</time>
</trkpt>
<trkpt lat="47.395687" lon="10.92346">
<ele>956.939</ele>
<time>2020-09-12T09:50:23Z</time>
</trkpt>
<trkpt lat="47.395664" lon="10.923485">
<ele>957.042</ele>
<time>2020-09-12T09:50:24Z</time>
</trkpt>
<trkpt lat="47.395638" lon="10.923512">
<ele>957.115</ele>
<time>2020-09-12T09:50:25Z</time>
</trkpt>
<trkpt lat="47.395615" lon="10.923538">
<ele>957.164</ele>
<time>2020-09-12T09:50:26Z</time>
</trkpt>
<trkpt lat="47.395596" lon="10.923567">
<ele>957.187</ele>
<time>2020-09-12T09:50:27Z</time>
</trkpt>
<trkpt lat="47.395573" lon="10.923596">
<ele>957.43</ele>
<time>2020-09-12T09:50:28Z</time>
</trkpt>
<trkpt lat="47.395554" lon="10.923628">
<ele>957.605</ele>
<time>2020-09-12T09:50:29Z</time>
</trkpt>
<trkpt lat="47.395538" lon="10.923663">
<ele>957.782</ele>
<time>2020-09-12T09:50:30Z</time>
</trkpt>
<trkpt lat="47.395519" lon="10.923697">
<ele>957.925</ele>
<time>2020-09-12T09:50:31Z</time>
</trkpt>
<trkpt lat="47.395504" lon="10.923732">
<ele>958.033</ele>
<time>2020-09-12T09:50:32Z</time>
</trkpt>
<trkpt lat="47.395489" lon="10.923768">
<ele>958.113</ele>
<time>2020-09-12T09:50:33Z</time>
</trkpt>
<trkpt lat="47.395473" lon="10.923805">
<ele>958.164</ele>
<time>2020-09-12T09:50:34Z</time>
</trkpt>
<trkpt lat="47.395458" lon="10.923841">
<ele>958.189</ele>
<time>2020-09-12T09:50:35Z</time>
</trkpt>
<trkpt lat="47.395443" lon="10.923879">
<ele>958.189</ele>
<time>2020-09-12T09:50:36Z</time>
</trkpt>
<trkpt lat="47.395432" lon="10.923913">
<ele>958.189</ele>
<time>2020-09-12T09:50:37Z</time>
</trkpt>
<trkpt lat="47.395416" lon="10.923954">
<ele>958.454</ele>
<time>2020-09-12T09:50:38Z</time>
</trkpt>
<trkpt lat="47.395405" lon="10.923994">
<ele>958.644</ele>
<time>2020-09-12T09:50:39Z</time>
</trkpt>
<trkpt lat="47.395397" lon="10.924035">
<ele>958.84</ele>
<time>2020-09-12T09:50:40Z</time>
</trkpt>
<trkpt lat="47.395386" lon="10.924076">
<ele>958.997</ele>
<time>2020-09-12T09:50:41Z</time>
</trkpt>
<trkpt lat="47.395374" lon="10.924118">
<ele>959.115</ele>
<time>2020-09-12T09:50:42Z</time>
</trkpt>
<trkpt lat="47.39537" lon="10.924157">
<ele>959.199</ele>
<time>2020-09-12T09:50:43Z</time>
</trkpt>
<trkpt lat="47.395355" lon="10.924195">
<ele>959.256</ele>
<time>2020-09-12T09:50:44Z</time>
</trkpt>
<trkpt lat="47.39534" lon="10.924232">
<ele>959.282</ele>
<time>2020-09-12T09:50:45Z</time>
</trkpt>
<trkpt lat="47.395332" lon="10.924272">
<ele>959.512</ele>
<time>2020-09-12T09:50:46Z</time>
</trkpt>
<trkpt lat="47.395325" lon="10.924312">
<ele>959.695</ele>
<time>2020-09-12T09:50:47Z</time>
</trkpt>
<trkpt lat="47.395313" lon="10.924353">
<ele>959.84</ele>
<time>2020-09-12T09:50:48Z</time>
</trkpt>
<trkpt lat="47.395309" lon="10.924395">
<ele>959.938</ele>
<time>2020-09-12T09:50:49Z</time>
</trkpt>
<trkpt lat="47.395298" lon="10.924437">
<ele>960.046</ele>
<time>2020-09-12T09:50:50Z</time>
</trkpt>
<trkpt lat="47.395287" lon="10.924479">
<ele>960.12</ele>
<time>2020-09-12T09:50:51Z</time>
</trkpt>
<trkpt lat="47.395275" lon="10.92452">
<ele>960.416</ele>
<time>2020-09-12T09:50:52Z</time>
</trkpt>
<trkpt lat="47.395271" lon="10.924562">
<ele>960.645</ele>
<time>2020-09-12T09:50:53Z</time>
</trkpt>
<trkpt lat="47.395264" lon="10.924603">
<ele>960.878</ele>
<time>2020-09-12T09:50:54Z</time>
</trkpt>
<trkpt lat="47.395264" lon="10.924648">
<ele>961.002</ele>
<time>2020-09-12T09:50:55Z</time>
</trkpt>
<trkpt lat="47.39526" lon="10.924695">
<ele>961.087</ele>
<time>2020-09-12T09:50:56Z</time>
</trkpt>
<trkpt lat="47.395256" lon="10.92474">
<ele>961.141</ele>
<time>2020-09-12T09:50:57Z</time>
</trkpt>
<trkpt lat="47.395248" lon="10.924784">
<ele>961.173</ele>
<time>2020-09-12T09:50:58Z</time>
</trkpt>
<trkpt lat="47.395245" lon="10.924829">
<ele>961.196</ele>
<time>2020-09-12T09:50:59Z</time>
</trkpt>
<trkpt lat="47.395237" lon="10.924871">
<ele>961.196</ele>
<time>2020-09-12T09:51:00Z</time>
</trkpt>
<trkpt lat="47.395233" lon="10.92491">
<ele>961.196</ele>
<time>2020-09-12T09:51:01Z</time>
</trkpt>
<trkpt lat="47.395229" lon="10.924947">
<ele>961.196</ele>
<time>2020-09-12T09:51:02Z</time>
</trkpt>
<trkpt lat="47.395222" lon="10.924983">
<ele>961.492</ele>
<time>2020-09-12T09:51:03Z</time>
</trkpt>
<trkpt lat="47.395218" lon="10.925023">
<ele>961.725</ele>
<time>2020-09-12T09:51:04Z</time>
</trkpt>
<trkpt lat="47.39521" lon="10.925062">
<ele>961.909</ele>
<time>2020-09-12T09:51:05Z</time>
</trkpt>
<trkpt lat="47.39521" lon="10.9251">
<ele>962.039</ele>
<time>2020-09-12T09:51:06Z</time>
</trkpt>
<trkpt lat="47.395206" lon="10.925143">
<ele>962.143</ele>
<time>2020-09-12T09:51:07Z</time>
</trkpt>
<trkpt lat="47.395203" lon="10.925188">
<ele>962.207</ele>
<time>2020-09-12T09:51:08Z</time>
</trkpt>
<trkpt lat="47.395199" lon="10.925237">
<ele>962.26</ele>
<time>2020-09-12T09:51:09Z</time>
</trkpt>
<trkpt lat="47.395191" lon="10.925281">
<ele>962.289</ele>
<time>2020-09-12T09:51:10Z</time>
</trkpt>
<trkpt lat="47.395191" lon="10.925324">
<ele>962.29</ele>
<time>2020-09-12T09:51:11Z</time>
</trkpt>
<trkpt lat="47.395187" lon="10.925366">
<ele>962.289</ele>
<time>2020-09-12T09:51:12Z</time>
</trkpt>
<trkpt lat="47.395187" lon="10.925406">
<ele>962.289</ele>
<time>2020-09-12T09:51:13Z</time>
</trkpt>
<trkpt lat="47.395187" lon="10.925448">
<ele>962.29</ele>
<time>2020-09-12T09:51:14Z</time>
</trkpt>
<trkpt lat="47.395187" lon="10.925494">
<ele>962.551</ele>
<time>2020-09-12T09:51:15Z</time>
</trkpt>
<trkpt lat="47.39518" lon="10.925536">
<ele>962.757</ele>
<time>2020-09-12T09:51:16Z</time>
</trkpt>
<trkpt lat="47.395176" lon="10.925582">
<ele>962.916</ele>
<time>2020-09-12T09:51:17Z</time>
</trkpt>
<trkpt lat="47.395176" lon="10.925627">
<ele>963.04</ele>
<time>2020-09-12T09:51:18Z</time>
</trkpt>
<trkpt lat="47.395172" lon="10.92567">
<ele>963.125</ele>
<time>2020-09-12T09:51:19Z</time>
</trkpt>
<trkpt lat="47.395164" lon="10.925718">
<ele>963.214</ele>
<time>2020-09-12T09:51:20Z</time>
</trkpt>
<trkpt lat="47.395161" lon="10.925765">
<ele>963.267</ele>
<time>2020-09-12T09:51:21Z</time>
</trkpt>
<trkpt lat="47.395161" lon="10.925812">
<ele>963.292</ele>
<time>2020-09-12T09:51:22Z</time>
</trkpt>
<trkpt lat="47.395157" lon="10.925853">
<ele>963.292</ele>
<time>2020-09-12T09:51:23Z</time>
</trkpt>
<trkpt lat="47.395153" lon="10.925895">
<ele>963.292</ele>
<time>2020-09-12T09:51:24Z</time>
</trkpt>
<trkpt lat="47.395149" lon="10.925932">
<ele>963.292</ele>
<time>2020-09-12T09:51:25Z</time>
</trkpt>
<trkpt lat="47.395145" lon="10.925974">
<ele>963.539</ele>
<time>2020-09-12T09:51:26Z</time>
</trkpt>
<trkpt lat="47.395145" lon="10.926016">
<ele>963.736</ele>
<time>2020-09-12T09:51:27Z</time>
</trkpt>
<trkpt lat="47.395142" lon="10.926051">
<ele>963.891</ele>
<time>2020-09-12T09:51:28Z</time>
</trkpt>
<trkpt lat="47.395138" lon="10.926089">
<ele>964.002</ele>
<time>2020-09-12T09:51:29Z</time>
</trkpt>
<trkpt lat="47.39513" lon="10.926126">
<ele>964.122</ele>
<time>2020-09-12T09:51:30Z</time>
</trkpt>
<trkpt lat="47.395126" lon="10.926167">
<ele>964.212</ele>
<time>2020-09-12T09:51:31Z</time>
</trkpt>
<trkpt lat="47.395123" lon="10.926205">
<ele>964.267</ele>
<time>2020-09-12T09:51:32Z</time>
</trkpt>
<trkpt lat="47.395115" lon="10.926242">
<ele>964.294</ele>
<time>2020-09-12T09:51:33Z</time>
</trkpt>
<trkpt lat="47.395111" lon="10.926278">
<ele>964.294</ele>
<time>2020-09-12T09:51:34Z</time>
</trkpt>
<trkpt lat="47.395103" lon="10.926313">
<ele>964.294</ele>
<time>2020-09-12T09:51:35Z</time>
</trkpt>
<trkpt lat="47.3951" lon="10.926349">
<ele>964.294</ele>
<time>2020-09-12T09:51:36Z</time>
</trkpt>
<trkpt lat="47.395092" lon="10.926383">
<ele>964.294</ele>
<time>2020-09-12T09:51:37Z</time>
</trkpt>
<trkpt lat="47.395081" lon="10.926418">
<ele>964.294</ele>
<time>2020-09-12T09:51:38Z</time>
</trkpt>
<trkpt lat="47.395065" lon="10.926452">
<ele>964.495</ele>
<time>2020-09-12T09:51:39Z</time>
</trkpt>
<trkpt lat="47.395046" lon="10.926481">
<ele>964.689</ele>
<time>2020-09-12T09:51:40Z</time>
</trkpt>
<trkpt lat="47.395027" lon="10.926512">
<ele>964.851</ele>
<time>2020-09-12T09:51:41Z</time>
</trkpt>
<trkpt lat="47.395008" lon="10.926532">
<ele>964.977</ele>
<time>2020-09-12T09:51:42Z</time>
</trkpt>
<trkpt lat="47.394985" lon="10.92655">
<ele>965.06</ele>
<time>2020-09-12T09:51:43Z</time>
</trkpt>
<trkpt lat="47.394958" lon="10.92657">
<ele>965.385</ele>
<time>2020-09-12T09:51:44Z</time>
</trkpt>
<trkpt lat="47.394936" lon="10.926588">
<ele>965.637</ele>
<time>2020-09-12T09:51:45Z</time>
</trkpt>
<trkpt lat="47.394909" lon="10.926607">
<ele>965.826</ele>
<time>2020-09-12T09:51:46Z</time>
</trkpt>
<trkpt lat="47.394882" lon="10.926625">
<ele>965.973</ele>
<time>2020-09-12T09:51:47Z</time>
</trkpt>
<trkpt lat="47.394852" lon="10.926642">
<ele>966.063</ele>
<time>2020-09-12T09:51:48Z</time>
</trkpt>
<trkpt lat="47.394825" lon="10.926659">
<ele>966.126</ele>
<time>2020-09-12T09:51:49Z</time>
</trkpt>
<trkpt lat="47.394798" lon="10.926674">
<ele>966.185</ele>
<time>2020-09-12T09:51:50Z</time>
</trkpt>
<trkpt lat="47.394772" lon="10.92669">
<ele>966.209</ele>
<time>2020-09-12T09:51:51Z</time>
</trkpt>
<trkpt lat="47.394745" lon="10.926705">
<ele>966.209</ele>
<time>2020-09-12T09:51:52Z</time>
</trkpt>
<trkpt lat="47.394718" lon="10.926718">
<ele>966.209</ele>
<time>2020-09-12T09:51:53Z</time>
</trkpt>
<trkpt lat="47.394691" lon="10.926732">
<ele>966.209</ele>
<time>2020-09-12T09:51:54Z</time>
</trkpt>
<trkpt lat="47.394661" lon="10.926745">
<ele>966.473</ele>
<time>2020-09-12T09:51:55Z</time>
</trkpt>
<trkpt lat="47.394634" lon="10.926758">
<ele>966.68</ele>
<time>2020-09-12T09:51:56Z</time>
</trkpt>
<trkpt lat="47.394608" lon="10.926774">
<ele>966.84</ele>
<time>2020-09-12T09:51:57Z</time>
</trkpt>
<trkpt lat="47.394581" lon="10.926786">
<ele>966.96</ele>
<time>2020-09-12T09:51:58Z</time>
</trkpt>
<trkpt lat="47.394558" lon="10.926798">
<ele>967.045</ele>
<time>2020-09-12T09:51:59Z</time>
</trkpt>
<trkpt lat="47.394531" lon="10.926812">
<ele>967.129</ele>
<time>2020-09-12T09:52:00Z</time>
</trkpt>
<trkpt lat="47.394505" lon="10.926828">
<ele>967.425</ele>
<time>2020-09-12T09:52:01Z</time>
</trkpt>
<trkpt lat="47.394482" lon="10.926844">
<ele>967.653</ele>
<time>2020-09-12T09:52:02Z</time>
</trkpt>
<trkpt lat="47.394459" lon="10.926856">
<ele>967.908</ele>
<time>2020-09-12T09:52:03Z</time>
</trkpt>
<trkpt lat="47.394432" lon="10.926871">
<ele>968.039</ele>
<time>2020-09-12T09:52:04Z</time>
</trkpt>
<trkpt lat="47.394405" lon="10.926888">
<ele>968.131</ele>
<time>2020-09-12T09:52:05Z</time>
</trkpt>
<trkpt lat="47.394379" lon="10.926907">
<ele>968.19</ele>
<time>2020-09-12T09:52:06Z</time>
</trkpt>
<trkpt lat="47.394356" lon="10.926925">
<ele>968.215</ele>
<time>2020-09-12T09:52:07Z</time>
</trkpt>
<trkpt lat="47.394329" lon="10.926942">
<ele>968.215</ele>
<time>2020-09-12T09:52:08Z</time>
</trkpt>
<trkpt lat="47.394302" lon="10.926955">
<ele>968.215</ele>
<time>2020-09-12T09:52:09Z</time>
</trkpt>
<trkpt lat="47.394279" lon="10.926969">
<ele>968.215</ele>
<time>2020-09-12T09:52:10Z</time>
</trkpt>
<trkpt lat="47.394253" lon="10.926982">
<ele>968.489</ele>
<time>2020-09-12T09:52:11Z</time>
</trkpt>
<trkpt lat="47.394226" lon="10.926998">
<ele>968.698</ele>
<time>2020-09-12T09:52:12Z</time>
</trkpt>
<trkpt lat="47.394199" lon="10.927017">
<ele>968.855</ele>
<time>2020-09-12T09:52:13Z</time>
</trkpt>
<trkpt lat="47.394176" lon="10.927034">
<ele>968.973</ele>
<time>2020-09-12T09:52:14Z</time>
</trkpt>
<trkpt lat="47.394154" lon="10.927053">
<ele>969.046</ele>
<time>2020-09-12T09:52:15Z</time>
</trkpt>
<trkpt lat="47.394131" lon="10.927072">
<ele>969.105</ele>
<time>2020-09-12T09:52:16Z</time>
</trkpt>
<trkpt lat="47.394104" lon="10.927089">
<ele>969.12</ele>
<time>2020-09-12T09:52:17Z</time>
</trkpt>
<trkpt lat="47.394085" lon="10.92711">
<ele>969.127</ele>
<time>2020-09-12T09:52:18Z</time>
</trkpt>
<trkpt lat="47.394062" lon="10.92713">
<ele>969.127</ele>
<time>2020-09-12T09:52:19Z</time>
</trkpt>
<trkpt lat="47.394035" lon="10.92715">
<ele>969.127</ele>
<time>2020-09-12T09:52:20Z</time>
</trkpt>
<trkpt lat="47.394016" lon="10.92717">
<ele>969.452</ele>
<time>2020-09-12T09:52:21Z</time>
</trkpt>
<trkpt lat="47.393997" lon="10.92719">
<ele>969.704</ele>
<time>2020-09-12T09:52:22Z</time>
</trkpt>
<trkpt lat="47.39397" lon="10.927214">
<ele>969.898</ele>
<time>2020-09-12T09:52:23Z</time>
</trkpt>
<trkpt lat="47.393948" lon="10.927239">
<ele>970.029</ele>
<time>2020-09-12T09:52:24Z</time>
</trkpt>
<trkpt lat="47.393932" lon="10.927267">
<ele>970.138</ele>
<time>2020-09-12T09:52:25Z</time>
</trkpt>
<trkpt lat="47.393909" lon="10.927296">
<ele>970.193</ele>
<time>2020-09-12T09:52:26Z</time>
</trkpt>
<trkpt lat="47.39389" lon="10.927325">
<ele>970.221</ele>
<time>2020-09-12T09:52:27Z</time>
</trkpt>
<trkpt lat="47.393875" lon="10.927355">
<ele>970.221</ele>
<time>2020-09-12T09:52:28Z</time>
</trkpt>
<trkpt lat="47.393848" lon="10.927386">
<ele>970.221</ele>
<time>2020-09-12T09:52:29Z</time>
</trkpt>
<trkpt lat="47.393833" lon="10.927415">
<ele>970.47</ele>
<time>2020-09-12T09:52:30Z</time>
</trkpt>
<trkpt lat="47.39381" lon="10.927446">
<ele>970.672</ele>
<time>2020-09-12T09:52:31Z</time>
</trkpt>
<trkpt lat="47.393795" lon="10.927478">
<ele>970.841</ele>
<time>2020-09-12T09:52:32Z</time>
</trkpt>
<trkpt lat="47.393776" lon="10.92751">
<ele>970.977</ele>
<time>2020-09-12T09:52:33Z</time>
</trkpt>
<trkpt lat="47.393757" lon="10.92754">
<ele>971.079</ele>
<time>2020-09-12T09:52:34Z</time>
</trkpt>
<trkpt lat="47.393738" lon="10.92757">
<ele>971.153</ele>
<time>2020-09-12T09:52:35Z</time>
</trkpt>
<trkpt lat="47.393719" lon="10.927602">
<ele>971.202</ele>
<time>2020-09-12T09:52:36Z</time>
</trkpt>
<trkpt lat="47.393703" lon="10.927631">
<ele>971.225</ele>
<time>2020-09-12T09:52:37Z</time>
</trkpt>
<trkpt lat="47.393677" lon="10.92766">
<ele>971.225</ele>
<time>2020-09-12T09:52:38Z</time>
</trkpt>
<trkpt lat="47.393661" lon="10.927688">
<ele>971.224</ele>
<time>2020-09-12T09:52:39Z</time>
</trkpt>
<trkpt lat="47.393639" lon="10.927717">
<ele>971.224</ele>
<time>2020-09-12T09:52:40Z</time>
</trkpt>
<trkpt lat="47.393616" lon="10.927745">
<ele>971.225</ele>
<time>2020-09-12T09:52:41Z</time>
</trkpt>
<trkpt lat="47.393597" lon="10.927772">
<ele>971.224</ele>
<time>2020-09-12T09:52:42Z</time>
</trkpt>
<trkpt lat="47.393578" lon="10.927796">
<ele>971.507</ele>
<time>2020-09-12T09:52:43Z</time>
</trkpt>
<trkpt lat="47.393551" lon="10.927817">
<ele>971.72</ele>
<time>2020-09-12T09:52:44Z</time>
</trkpt>
<trkpt lat="47.393528" lon="10.927835">
<ele>971.885</ele>
<time>2020-09-12T09:52:45Z</time>
</trkpt>
<trkpt lat="47.393505" lon="10.927857">
<ele>972.006</ele>
<time>2020-09-12T09:52:46Z</time>
</trkpt>
<trkpt lat="47.393482" lon="10.927878">
<ele>972.093</ele>
<time>2020-09-12T09:52:47Z</time>
</trkpt>
<trkpt lat="47.393456" lon="10.927899">
<ele>972.154</ele>
<time>2020-09-12T09:52:48Z</time>
</trkpt>
<trkpt lat="47.393433" lon="10.927923">
<ele>972.199</ele>
<time>2020-09-12T09:52:49Z</time>
</trkpt>
<trkpt lat="47.393414" lon="10.92795">
<ele>972.228</ele>
<time>2020-09-12T09:52:50Z</time>
</trkpt>
<trkpt lat="47.393391" lon="10.927981">
<ele>972.501</ele>
<time>2020-09-12T09:52:51Z</time>
</trkpt>
<trkpt lat="47.393375" lon="10.928013">
<ele>972.711</ele>
<time>2020-09-12T09:52:52Z</time>
</trkpt>
<trkpt lat="47.393356" lon="10.928048">
<ele>972.868</ele>
<time>2020-09-12T09:52:53Z</time>
</trkpt>
<trkpt lat="47.393345" lon="10.928083">
<ele>972.984</ele>
<time>2020-09-12T09:52:54Z</time>
</trkpt>
<trkpt lat="47.39333" lon="10.928119">
<ele>973.063</ele>
<time>2020-09-12T09:52:55Z</time>
</trkpt>
<trkpt lat="47.393318" lon="10.928155">
<ele>973.118</ele>
<time>2020-09-12T09:52:56Z</time>
</trkpt>
<trkpt lat="47.393314" lon="10.928195">
<ele>973.133</ele>
<time>2020-09-12T09:52:57Z</time>
</trkpt>
<trkpt lat="47.393303" lon="10.928235">
<ele>973.14</ele>
<time>2020-09-12T09:52:58Z</time>
</trkpt>
<trkpt lat="47.393291" lon="10.928273">
<ele>973.14</ele>
<time>2020-09-12T09:52:59Z</time>
</trkpt>
<trkpt lat="47.393284" lon="10.928312">
<ele>973.385</ele>
<time>2020-09-12T09:53:00Z</time>
</trkpt>
<trkpt lat="47.393272" lon="10.928349">
<ele>973.589</ele>
<time>2020-09-12T09:53:01Z</time>
</trkpt>
<trkpt lat="47.393261" lon="10.92839">
<ele>973.76</ele>
<time>2020-09-12T09:53:02Z</time>
</trkpt>
<trkpt lat="47.393253" lon="10.928429">
<ele>973.896</ele>
<time>2020-09-12T09:53:03Z</time>
</trkpt>
<trkpt lat="47.393246" lon="10.928469">
<ele>973.998</ele>
<time>2020-09-12T09:53:04Z</time>
</trkpt>
<trkpt lat="47.393238" lon="10.928507">
<ele>974.071</ele>
<time>2020-09-12T09:53:05Z</time>
</trkpt>
<trkpt lat="47.393227" lon="10.928545">
<ele>974.12</ele>
<time>2020-09-12T09:53:06Z</time>
</trkpt>
<trkpt lat="47.393223" lon="10.928583">
<ele>974.144</ele>
<time>2020-09-12T09:53:07Z</time>
</trkpt>
<trkpt lat="47.393211" lon="10.928624">
<ele>974.144</ele>
<time>2020-09-12T09:53:08Z</time>
</trkpt>
<trkpt lat="47.393204" lon="10.928661">
<ele>974.367</ele>
<time>2020-09-12T09:53:09Z</time>
</trkpt>
<trkpt lat="47.393192" lon="10.928701">
<ele>974.577</ele>
<time>2020-09-12T09:53:10Z</time>
</trkpt>
<trkpt lat="47.393185" lon="10.928741">
<ele>974.752</ele>
<time>2020-09-12T09:53:11Z</time>
</trkpt>
<trkpt lat="47.393173" lon="10.92878">
<ele>974.89</ele>
<time>2020-09-12T09:53:12Z</time>
</trkpt>
<trkpt lat="47.393162" lon="10.928819">
<ele>974.999</ele>
<time>2020-09-12T09:53:13Z</time>
</trkpt>
<trkpt lat="47.39315" lon="10.928853">
<ele>975.075</ele>
<time>2020-09-12T09:53:14Z</time>
</trkpt>
<trkpt lat="47.393135" lon="10.928888">
<ele>975.124</ele>
<time>2020-09-12T09:53:15Z</time>
</trkpt>
<trkpt lat="47.393124" lon="10.928924">
<ele>975.147</ele>
<time>2020-09-12T09:53:16Z</time>
</trkpt>
<trkpt lat="47.393108" lon="10.928955">
<ele>975.148</ele>
<time>2020-09-12T09:53:17Z</time>
</trkpt>
<trkpt lat="47.393089" lon="10.928983">
<ele>975.366</ele>
<time>2020-09-12T09:53:18Z</time>
</trkpt>
<trkpt lat="47.39307" lon="10.929007">
<ele>975.525</ele>
<time>2020-09-12T09:53:19Z</time>
</trkpt>
<trkpt lat="47.393047" lon="10.929025">
<ele>975.685</ele>
<time>2020-09-12T09:53:20Z</time>
</trkpt>
<trkpt lat="47.393024" lon="10.929044">
<ele>975.816</ele>
<time>2020-09-12T09:53:21Z</time>
</trkpt>
<trkpt lat="47.393002" lon="10.929058">
<ele>975.917</ele>
<time>2020-09-12T09:53:22Z</time>
</trkpt>
<trkpt lat="47.392979" lon="10.929073">
<ele>975.99</ele>
<time>2020-09-12T09:53:23Z</time>
</trkpt>
<trkpt lat="47.392956" lon="10.929087">
<ele>976.037</ele>
<time>2020-09-12T09:53:24Z</time>
</trkpt>
<trkpt lat="47.392929" lon="10.929096">
<ele>976.06</ele>
<time>2020-09-12T09:53:25Z</time>
</trkpt>
<trkpt lat="47.392899" lon="10.929107">
<ele>976.06</ele>
<time>2020-09-12T09:53:26Z</time>
</trkpt>
<trkpt lat="47.392876" lon="10.929113">
<ele>976.06</ele>
<time>2020-09-12T09:53:27Z</time>
</trkpt>
<trkpt lat="47.392849" lon="10.92912">
<ele>976.307</ele>
<time>2020-09-12T09:53:28Z</time>
</trkpt>
<trkpt lat="47.392826" lon="10.929127">
<ele>976.48</ele>
<time>2020-09-12T09:53:29Z</time>
</trkpt>
<trkpt lat="47.392796" lon="10.929133">
<ele>976.658</ele>
<time>2020-09-12T09:53:31Z</time>
</trkpt>
<trkpt lat="47.392746" lon="10.929147">
<ele>976.91</ele>
<time>2020-09-12T09:53:32Z</time>
</trkpt>
<trkpt lat="47.392719" lon="10.929153">
<ele>976.989</ele>
<time>2020-09-12T09:53:33Z</time>
</trkpt>
<trkpt lat="47.3927" lon="10.929154">
<ele>977.035</ele>
<time>2020-09-12T09:53:34Z</time>
</trkpt>
<trkpt lat="47.392689" lon="10.929158">
<ele>977.292</ele>
<time>2020-09-12T09:53:35Z</time>
</trkpt>
<trkpt lat="47.392662" lon="10.929167">
<ele>977.507</ele>
<time>2020-09-12T09:53:36Z</time>
</trkpt>
<trkpt lat="47.392635" lon="10.929178">
<ele>977.672</ele>
<time>2020-09-12T09:53:37Z</time>
</trkpt>
<trkpt lat="47.392609" lon="10.929192">
<ele>977.764</ele>
<time>2020-09-12T09:53:38Z</time>
</trkpt>
<trkpt lat="47.392582" lon="10.929203">
<ele>978.094</ele>
<time>2020-09-12T09:53:39Z</time>
</trkpt>
<trkpt lat="47.392555" lon="10.929217">
<ele>978.388</ele>
<time>2020-09-12T09:53:40Z</time>
</trkpt>
<trkpt lat="47.392536" lon="10.92923">
<ele>978.616</ele>
<time>2020-09-12T09:53:41Z</time>
</trkpt>
<trkpt lat="47.392509" lon="10.929242">
<ele>978.781</ele>
<time>2020-09-12T09:53:42Z</time>
</trkpt>
<trkpt lat="47.392487" lon="10.929255">
<ele>978.861</ele>
<time>2020-09-12T09:53:43Z</time>
</trkpt>
<trkpt lat="47.392467" lon="10.929267">
<ele>978.915</ele>
<time>2020-09-12T09:53:44Z</time>
</trkpt>
<trkpt lat="47.392445" lon="10.92928">
<ele>978.958</ele>
<time>2020-09-12T09:53:45Z</time>
</trkpt>
<trkpt lat="47.392422" lon="10.929298">
<ele>978.981</ele>
<time>2020-09-12T09:53:46Z</time>
</trkpt>
<trkpt lat="47.392399" lon="10.929325">
<ele>979.229</ele>
<time>2020-09-12T09:53:47Z</time>
</trkpt>
<trkpt lat="47.392376" lon="10.929356">
<ele>979.436</ele>
<time>2020-09-12T09:53:48Z</time>
</trkpt>
<trkpt lat="47.392353" lon="10.929385">
<ele>979.575</ele>
<time>2020-09-12T09:53:49Z</time>
</trkpt>
<trkpt lat="47.392334" lon="10.929417">
<ele>979.727</ele>
<time>2020-09-12T09:53:50Z</time>
</trkpt>
<trkpt lat="47.392311" lon="10.929452">
<ele>979.841</ele>
<time>2020-09-12T09:53:51Z</time>
</trkpt>
<trkpt lat="47.392292" lon="10.929485">
<ele>979.921</ele>
<time>2020-09-12T09:53:52Z</time>
</trkpt>
<trkpt lat="47.392273" lon="10.929522">
<ele>979.962</ele>
<time>2020-09-12T09:53:53Z</time>
</trkpt>
<trkpt lat="47.392262" lon="10.929553">
<ele>980.23</ele>
<time>2020-09-12T09:53:54Z</time>
</trkpt>
<trkpt lat="47.392242" lon="10.929588">
<ele>980.469</ele>
<time>2020-09-12T09:53:55Z</time>
</trkpt>
<trkpt lat="47.392227" lon="10.929624">
<ele>980.625</ele>
<time>2020-09-12T09:53:56Z</time>
</trkpt>
<trkpt lat="47.392212" lon="10.929653">
<ele>980.747</ele>
<time>2020-09-12T09:53:57Z</time>
</trkpt>
<trkpt lat="47.392197" lon="10.929687">
<ele>980.837</ele>
<time>2020-09-12T09:53:58Z</time>
</trkpt>
<trkpt lat="47.392181" lon="10.92972">
<ele>980.9</ele>
<time>2020-09-12T09:53:59Z</time>
</trkpt>
<trkpt lat="47.392178" lon="10.929755">
<ele>980.961</ele>
<time>2020-09-12T09:54:00Z</time>
</trkpt>
<trkpt lat="47.39217" lon="10.929789">
<ele>980.989</ele>
<time>2020-09-12T09:54:01Z</time>
</trkpt>
<trkpt lat="47.392159" lon="10.92982">
<ele>981.272</ele>
<time>2020-09-12T09:54:02Z</time>
</trkpt>
<trkpt lat="47.392147" lon="10.929848">
<ele>981.491</ele>
<time>2020-09-12T09:54:03Z</time>
</trkpt>
<trkpt lat="47.392139" lon="10.929879">
<ele>981.665</ele>
<time>2020-09-12T09:54:04Z</time>
</trkpt>
<trkpt lat="47.392132" lon="10.929911">
<ele>981.787</ele>
<time>2020-09-12T09:54:05Z</time>
</trkpt>
<trkpt lat="47.39212" lon="10.929945">
<ele>981.883</ele>
<time>2020-09-12T09:54:06Z</time>
</trkpt>
<trkpt lat="47.392109" lon="10.929982">
<ele>981.942</ele>
<time>2020-09-12T09:54:07Z</time>
</trkpt>
<trkpt lat="47.392097" lon="10.930017">
<ele>981.964</ele>
<time>2020-09-12T09:54:08Z</time>
</trkpt>
<trkpt lat="47.392086" lon="10.930052">
<ele>982.202</ele>
<time>2020-09-12T09:54:09Z</time>
</trkpt>
<trkpt lat="47.392078" lon="10.930085">
<ele>982.398</ele>
<time>2020-09-12T09:54:10Z</time>
</trkpt>
<trkpt lat="47.392067" lon="10.930116">
<ele>982.558</ele>
<time>2020-09-12T09:54:11Z</time>
</trkpt>
<trkpt lat="47.392056" lon="10.930147">
<ele>982.68</ele>
<time>2020-09-12T09:54:12Z</time>
</trkpt>
<trkpt lat="47.392048" lon="10.930179">
<ele>982.773</ele>
<time>2020-09-12T09:54:13Z</time>
</trkpt>
<trkpt lat="47.392036" lon="10.930208">
<ele>982.837</ele>
<time>2020-09-12T09:54:14Z</time>
</trkpt>
<trkpt lat="47.392021" lon="10.930238">
<ele>982.883</ele>
<time>2020-09-12T09:54:15Z</time>
</trkpt>
<trkpt lat="47.39201" lon="10.930268">
<ele>982.907</ele>
<time>2020-09-12T09:54:16Z</time>
</trkpt>
<trkpt lat="47.391998" lon="10.930294">
<ele>983.151</ele>
<time>2020-09-12T09:54:17Z</time>
</trkpt>
<trkpt lat="47.391983" lon="10.930326">
<ele>983.355</ele>
<time>2020-09-12T09:54:18Z</time>
</trkpt>
<trkpt lat="47.391968" lon="10.930359">
<ele>983.494</ele>
<time>2020-09-12T09:54:19Z</time>
</trkpt>
<trkpt lat="47.391953" lon="10.93039">
<ele>983.642</ele>
<time>2020-09-12T09:54:20Z</time>
</trkpt>
<trkpt lat="47.391941" lon="10.930424">
<ele>983.756</ele>
<time>2020-09-12T09:54:21Z</time>
</trkpt>
<trkpt lat="47.391926" lon="10.930453">
<ele>983.83</ele>
<time>2020-09-12T09:54:22Z</time>
</trkpt>
<trkpt lat="47.391914" lon="10.930483">
<ele>984.133</ele>
<time>2020-09-12T09:54:23Z</time>
</trkpt>
<trkpt lat="47.391907" lon="10.930518">
<ele>984.366</ele>
<time>2020-09-12T09:54:24Z</time>
</trkpt>
<trkpt lat="47.391891" lon="10.93055">
<ele>984.588</ele>
<time>2020-09-12T09:54:25Z</time>
</trkpt>
<trkpt lat="47.39188" lon="10.93058">
<ele>984.701</ele>
<time>2020-09-12T09:54:26Z</time>
</trkpt>
<trkpt lat="47.391857" lon="10.930613">
<ele>984.788</ele>
<time>2020-09-12T09:54:27Z</time>
</trkpt>
<trkpt lat="47.391838" lon="10.930644">
<ele>984.844</ele>
<time>2020-09-12T09:54:28Z</time>
</trkpt>
<trkpt lat="47.391819" lon="10.930672">
<ele>984.887</ele>
<time>2020-09-12T09:54:29Z</time>
</trkpt>
<trkpt lat="47.391811" lon="10.9307">
<ele>985.14</ele>
<time>2020-09-12T09:54:30Z</time>
</trkpt>
<trkpt lat="47.391796" lon="10.930727">
<ele>985.323</ele>
<time>2020-09-12T09:54:31Z</time>
</trkpt>
<trkpt lat="47.391788" lon="10.930757">
<ele>985.474</ele>
<time>2020-09-12T09:54:32Z</time>
</trkpt>
<trkpt lat="47.391773" lon="10.93079">
<ele>985.595</ele>
<time>2020-09-12T09:54:33Z</time>
</trkpt>
<trkpt lat="47.391758" lon="10.930828">
<ele>985.689</ele>
<time>2020-09-12T09:54:34Z</time>
</trkpt>
<trkpt lat="47.391747" lon="10.93086">
<ele>985.755</ele>
<time>2020-09-12T09:54:35Z</time>
</trkpt>
<trkpt lat="47.391727" lon="10.930889">
<ele>985.805</ele>
<time>2020-09-12T09:54:36Z</time>
</trkpt>
<trkpt lat="47.391716" lon="10.930921">
<ele>985.83</ele>
<time>2020-09-12T09:54:37Z</time>
</trkpt>
<trkpt lat="47.391697" lon="10.930948">
<ele>985.83</ele>
<time>2020-09-12T09:54:38Z</time>
</trkpt>
<trkpt lat="47.391682" lon="10.930979">
<ele>985.83</ele>
<time>2020-09-12T09:54:39Z</time>
</trkpt>
<trkpt lat="47.391663" lon="10.931015">
<ele>985.83</ele>
<time>2020-09-12T09:54:40Z</time>
</trkpt>
<trkpt lat="47.391647" lon="10.93105">
<ele>985.83</ele>
<time>2020-09-12T09:54:41Z</time>
</trkpt>
<trkpt lat="47.391628" lon="10.931087">
<ele>986.123</ele>
<time>2020-09-12T09:54:42Z</time>
</trkpt>
<trkpt lat="47.391613" lon="10.931118">
<ele>986.356</ele>
<time>2020-09-12T09:54:43Z</time>
</trkpt>
<trkpt lat="47.391594" lon="10.931147">
<ele>986.524</ele>
<time>2020-09-12T09:54:44Z</time>
</trkpt>
<trkpt lat="47.391579" lon="10.931175">
<ele>986.645</ele>
<time>2020-09-12T09:54:45Z</time>
</trkpt>
<trkpt lat="47.39156" lon="10.931207">
<ele>986.727</ele>
<time>2020-09-12T09:54:46Z</time>
</trkpt>
<trkpt lat="47.391544" lon="10.931235">
<ele>986.785</ele>
<time>2020-09-12T09:54:47Z</time>
</trkpt>
<trkpt lat="47.391525" lon="10.931262">
<ele>986.809</ele>
<time>2020-09-12T09:54:48Z</time>
</trkpt>
<trkpt lat="47.39151" lon="10.931289">
<ele>986.835</ele>
<time>2020-09-12T09:54:49Z</time>
</trkpt>
<trkpt lat="47.391495" lon="10.931318">
<ele>986.835</ele>
<time>2020-09-12T09:54:50Z</time>
</trkpt>
<trkpt lat="47.391476" lon="10.931348">
<ele>986.835</ele>
<time>2020-09-12T09:54:51Z</time>
</trkpt>
<trkpt lat="47.39146" lon="10.931376">
<ele>986.835</ele>
<time>2020-09-12T09:54:52Z</time>
</trkpt>
<trkpt lat="47.391441" lon="10.931409">
<ele>987.142</ele>
<time>2020-09-12T09:54:53Z</time>
</trkpt>
<trkpt lat="47.39143" lon="10.931432">
<ele>987.378</ele>
<time>2020-09-12T09:54:54Z</time>
</trkpt>
<trkpt lat="47.391411" lon="10.93146">
<ele>987.566</ele>
<time>2020-09-12T09:54:55Z</time>
</trkpt>
<trkpt lat="47.391396" lon="10.931488">
<ele>987.7</ele>
<time>2020-09-12T09:54:56Z</time>
</trkpt>
<trkpt lat="47.391376" lon="10.931517">
<ele>987.792</ele>
<time>2020-09-12T09:54:57Z</time>
</trkpt>
<trkpt lat="47.391361" lon="10.931547">
<ele>987.851</ele>
<time>2020-09-12T09:54:58Z</time>
</trkpt>
<trkpt lat="47.391338" lon="10.93157">
<ele>987.901</ele>
<time>2020-09-12T09:54:59Z</time>
</trkpt>
<trkpt lat="47.391323" lon="10.931591">
<ele>987.931</ele>
<time>2020-09-12T09:55:00Z</time>
</trkpt>
<trkpt lat="47.391304" lon="10.931615">
<ele>988.251</ele>
<time>2020-09-12T09:55:01Z</time>
</trkpt>
<trkpt lat="47.391289" lon="10.931639">
<ele>988.505</ele>
<time>2020-09-12T09:55:02Z</time>
</trkpt>
<trkpt lat="47.39127" lon="10.931658">
<ele>988.687</ele>
<time>2020-09-12T09:55:03Z</time>
</trkpt>
<trkpt lat="47.391258" lon="10.93168">
<ele>988.835</ele>
<time>2020-09-12T09:55:04Z</time>
</trkpt>
<trkpt lat="47.391243" lon="10.931704">
<ele>988.924</ele>
<time>2020-09-12T09:55:05Z</time>
</trkpt>
<trkpt lat="47.391232" lon="10.931725">
<ele>988.979</ele>
<time>2020-09-12T09:55:06Z</time>
</trkpt>
<trkpt lat="47.391216" lon="10.931748">
<ele>989.256</ele>
<time>2020-09-12T09:55:07Z</time>
</trkpt>
<trkpt lat="47.391201" lon="10.931771">
<ele>989.466</ele>
<time>2020-09-12T09:55:08Z</time>
</trkpt>
<trkpt lat="47.391193" lon="10.931798">
<ele>989.601</ele>
<time>2020-09-12T09:55:09Z</time>
</trkpt>
<trkpt lat="47.391178" lon="10.931822">
<ele>989.753</ele>
<time>2020-09-12T09:55:10Z</time>
</trkpt>
<trkpt lat="47.391163" lon="10.931847">
<ele>989.871</ele>
<time>2020-09-12T09:55:11Z</time>
</trkpt>
<trkpt lat="47.391148" lon="10.931873">
<ele>989.948</ele>
<time>2020-09-12T09:55:12Z</time>
</trkpt>
<trkpt lat="47.391136" lon="10.9319">
<ele>990.234</ele>
<time>2020-09-12T09:55:13Z</time>
</trkpt>
<trkpt lat="47.391121" lon="10.931925">
<ele>990.451</ele>
<time>2020-09-12T09:55:14Z</time>
</trkpt>
<trkpt lat="47.391106" lon="10.931952">
<ele>990.643</ele>
<time>2020-09-12T09:55:15Z</time>
</trkpt>
<trkpt lat="47.391098" lon="10.93198">
<ele>990.752</ele>
<time>2020-09-12T09:55:16Z</time>
</trkpt>
<trkpt lat="47.391087" lon="10.932006">
<ele>990.82</ele>
<time>2020-09-12T09:55:17Z</time>
</trkpt>
<trkpt lat="47.391075" lon="10.932034">
<ele>991.118</ele>
<time>2020-09-12T09:55:18Z</time>
</trkpt>
<trkpt lat="47.391064" lon="10.932058">
<ele>991.335</ele>
<time>2020-09-12T09:55:19Z</time>
</trkpt>
<trkpt lat="47.391052" lon="10.932087">
<ele>991.537</ele>
<time>2020-09-12T09:55:20Z</time>
</trkpt>
<trkpt lat="47.391037" lon="10.932112">
<ele>991.682</ele>
<time>2020-09-12T09:55:21Z</time>
</trkpt>
<trkpt lat="47.391029" lon="10.932138">
<ele>991.78</ele>
<time>2020-09-12T09:55:22Z</time>
</trkpt>
<trkpt lat="47.391014" lon="10.932167">
<ele>992.113</ele>
<time>2020-09-12T09:55:23Z</time>
</trkpt>
<trkpt lat="47.391006" lon="10.932195">
<ele>992.378</ele>
<time>2020-09-12T09:55:24Z</time>
</trkpt>
<trkpt lat="47.390995" lon="10.932223">
<ele>992.575</ele>
<time>2020-09-12T09:55:25Z</time>
</trkpt>
<trkpt lat="47.39098" lon="10.932253">
<ele>992.75</ele>
<time>2020-09-12T09:55:26Z</time>
</trkpt>
<trkpt lat="47.390968" lon="10.932281">
<ele>992.825</ele>
<time>2020-09-12T09:55:27Z</time>
</trkpt>
<trkpt lat="47.390953" lon="10.932307">
<ele>992.874</ele>
<time>2020-09-12T09:55:28Z</time>
</trkpt>
<trkpt lat="47.390942" lon="10.932333">
<ele>993.157</ele>
<time>2020-09-12T09:55:29Z</time>
</trkpt>
<trkpt lat="47.390934" lon="10.932358">
<ele>993.391</ele>
<time>2020-09-12T09:55:30Z</time>
</trkpt>
<trkpt lat="47.390923" lon="10.932384">
<ele>993.561</ele>
<time>2020-09-12T09:55:31Z</time>
</trkpt>
<trkpt lat="47.390911" lon="10.932412">
<ele>993.702</ele>
<time>2020-09-12T09:55:32Z</time>
</trkpt>
<trkpt lat="47.390903" lon="10.932437">
<ele>993.791</ele>
<time>2020-09-12T09:55:33Z</time>
</trkpt>
<trkpt lat="47.390892" lon="10.932462">
<ele>994.09</ele>
<time>2020-09-12T09:55:34Z</time>
</trkpt>
<trkpt lat="47.390881" lon="10.932488">
<ele>994.337</ele>
<time>2020-09-12T09:55:35Z</time>
</trkpt>
<trkpt lat="47.390873" lon="10.932513">
<ele>994.519</ele>
<time>2020-09-12T09:55:36Z</time>
</trkpt>
<trkpt lat="47.390862" lon="10.932536">
<ele>994.64</ele>
<time>2020-09-12T09:55:37Z</time>
</trkpt>
<trkpt lat="47.39085" lon="10.932557">
<ele>994.966</ele>
<time>2020-09-12T09:55:38Z</time>
</trkpt>
<trkpt lat="47.390842" lon="10.932577">
<ele>995.21</ele>
<time>2020-09-12T09:55:39Z</time>
</trkpt>
<trkpt lat="47.390835" lon="10.932598">
<ele>995.434</ele>
<time>2020-09-12T09:55:40Z</time>
</trkpt>
<trkpt lat="47.390827" lon="10.93262">
<ele>995.606</ele>
<time>2020-09-12T09:55:41Z</time>
</trkpt>
<trkpt lat="47.390816" lon="10.932643">
<ele>995.716</ele>
<time>2020-09-12T09:55:42Z</time>
</trkpt>
<trkpt lat="47.390808" lon="10.932665">
<ele>995.797</ele>
<time>2020-09-12T09:55:43Z</time>
</trkpt>
<trkpt lat="47.3908" lon="10.932687">
<ele>995.851</ele>
<time>2020-09-12T09:55:44Z</time>
</trkpt>
<trkpt lat="47.390793" lon="10.932707">
<ele>996.126</ele>
<time>2020-09-12T09:55:45Z</time>
</trkpt>
<trkpt lat="47.390781" lon="10.932729">
<ele>996.353</ele>
<time>2020-09-12T09:55:46Z</time>
</trkpt>
<trkpt lat="47.390778" lon="10.932752">
<ele>996.518</ele>
<time>2020-09-12T09:55:47Z</time>
</trkpt>
<trkpt lat="47.390766" lon="10.932772">
<ele>996.635</ele>
<time>2020-09-12T09:55:48Z</time>
</trkpt>
<trkpt lat="47.390755" lon="10.932792">
<ele>996.718</ele>
<time>2020-09-12T09:55:49Z</time>
</trkpt>
<trkpt lat="47.390747" lon="10.932815">
<ele>996.8</ele>
<time>2020-09-12T09:55:50Z</time>
</trkpt>
<trkpt lat="47.390743" lon="10.932837">
<ele>997.084</ele>
<time>2020-09-12T09:55:51Z</time>
</trkpt>
<trkpt lat="47.390736" lon="10.932862">
<ele>997.3</ele>
<time>2020-09-12T09:55:52Z</time>
</trkpt>
<trkpt lat="47.390728" lon="10.932883">
<ele>997.528</ele>
<time>2020-09-12T09:55:53Z</time>
</trkpt>
<trkpt lat="47.390713" lon="10.932905">
<ele>997.651</ele>
<time>2020-09-12T09:55:54Z</time>
</trkpt>
<trkpt lat="47.390705" lon="10.932927">
<ele>997.731</ele>
<time>2020-09-12T09:55:55Z</time>
</trkpt>
<trkpt lat="47.390697" lon="10.932948">
<ele>997.778</ele>
<time>2020-09-12T09:55:56Z</time>
</trkpt>
<trkpt lat="47.39069" lon="10.932972">
<ele>998.055</ele>
<time>2020-09-12T09:55:57Z</time>
</trkpt>
<trkpt lat="47.390678" lon="10.932993">
<ele>998.253</ele>
<time>2020-09-12T09:55:58Z</time>
</trkpt>
<trkpt lat="47.390675" lon="10.933013">
<ele>998.389</ele>
<time>2020-09-12T09:55:59Z</time>
</trkpt>
<trkpt lat="47.390663" lon="10.933035">
<ele>998.534</ele>
<time>2020-09-12T09:56:00Z</time>
</trkpt>
<trkpt lat="47.390652" lon="10.933057">
<ele>998.648</ele>
<time>2020-09-12T09:56:01Z</time>
</trkpt>
<trkpt lat="47.390644" lon="10.933077">
<ele>998.721</ele>
<time>2020-09-12T09:56:02Z</time>
</trkpt>
<trkpt lat="47.390636" lon="10.933099">
<ele>999.047</ele>
<time>2020-09-12T09:56:03Z</time>
</trkpt>
<trkpt lat="47.390625" lon="10.933118">
<ele>999.299</ele>
<time>2020-09-12T09:56:04Z</time>
</trkpt>
<trkpt lat="47.390614" lon="10.93314">
<ele>999.525</ele>
<time>2020-09-12T09:56:05Z</time>
</trkpt>
<trkpt lat="47.39061" lon="10.933158">
<ele>999.66</ele>
<time>2020-09-12T09:56:06Z</time>
</trkpt>
<trkpt lat="47.390602" lon="10.933179">
<ele>999.756</ele>
<time>2020-09-12T09:56:07Z</time>
</trkpt>
<trkpt lat="47.390591" lon="10.9332">
<ele>999.812</ele>
<time>2020-09-12T09:56:08Z</time>
</trkpt>
<trkpt lat="47.390583" lon="10.933221">
<ele>1000.118</ele>
<time>2020-09-12T09:56:09Z</time>
</trkpt>
<trkpt lat="47.390575" lon="10.933245">
<ele>1000.382</ele>
<time>2020-09-12T09:56:10Z</time>
</trkpt>
<trkpt lat="47.390564" lon="10.933269">
<ele>1000.575</ele>
<time>2020-09-12T09:56:11Z</time>
</trkpt>
<trkpt lat="47.390553" lon="10.93329">
<ele>1000.73</ele>
<time>2020-09-12T09:56:12Z</time>
</trkpt>
<trkpt lat="47.390545" lon="10.933313">
<ele>1000.844</ele>
<time>2020-09-12T09:56:13Z</time>
</trkpt>
<trkpt lat="47.390533" lon="10.933338">
<ele>1000.932</ele>
<time>2020-09-12T09:56:14Z</time>
</trkpt>
<trkpt lat="47.390526" lon="10.933363">
<ele>1000.976</ele>
<time>2020-09-12T09:56:15Z</time>
</trkpt>
<trkpt lat="47.390514" lon="10.933391">
<ele>1001.257</ele>
<time>2020-09-12T09:56:16Z</time>
</trkpt>
<trkpt lat="47.390507" lon="10.933415">
<ele>1001.475</ele>
<time>2020-09-12T09:56:17Z</time>
</trkpt>
<trkpt lat="47.390495" lon="10.93344">
<ele>1001.63</ele>
<time>2020-09-12T09:56:18Z</time>
</trkpt>
<trkpt lat="47.390488" lon="10.933465">
<ele>1001.737</ele>
<time>2020-09-12T09:56:19Z</time>
</trkpt>
<trkpt lat="47.39048" lon="10.933492">
<ele>1002.08</ele>
<time>2020-09-12T09:56:20Z</time>
</trkpt>
<trkpt lat="47.390469" lon="10.933517">
<ele>1002.346</ele>
<time>2020-09-12T09:56:21Z</time>
</trkpt>
<trkpt lat="47.390457" lon="10.933541">
<ele>1002.551</ele>
<time>2020-09-12T09:56:22Z</time>
</trkpt>
<trkpt lat="47.39045" lon="10.933569">
<ele>1002.698</ele>
<time>2020-09-12T09:56:23Z</time>
</trkpt>
<trkpt lat="47.390438" lon="10.933594">
<ele>1002.771</ele>
<time>2020-09-12T09:56:24Z</time>
</trkpt>
<trkpt lat="47.390427" lon="10.933619">
<ele>1003.1</ele>
<time>2020-09-12T09:56:25Z</time>
</trkpt>
<trkpt lat="47.390419" lon="10.93364">
<ele>1003.351</ele>
<time>2020-09-12T09:56:26Z</time>
</trkpt>
<trkpt lat="47.390411" lon="10.933661">
<ele>1003.542</ele>
<time>2020-09-12T09:56:27Z</time>
</trkpt>
<trkpt lat="47.3904" lon="10.933683">
<ele>1003.673</ele>
<time>2020-09-12T09:56:28Z</time>
</trkpt>
<trkpt lat="47.390388" lon="10.933702">
<ele>1003.76</ele>
<time>2020-09-12T09:56:29Z</time>
</trkpt>
<trkpt lat="47.390381" lon="10.933723">
<ele>1003.843</ele>
<time>2020-09-12T09:56:30Z</time>
</trkpt>
<trkpt lat="47.390369" lon="10.933744">
<ele>1004.141</ele>
<time>2020-09-12T09:56:31Z</time>
</trkpt>
<trkpt lat="47.390362" lon="10.933768">
<ele>1004.374</ele>
<time>2020-09-12T09:56:32Z</time>
</trkpt>
<trkpt lat="47.390354" lon="10.933791">
<ele>1004.636</ele>
<time>2020-09-12T09:56:33Z</time>
</trkpt>
<trkpt lat="47.390347" lon="10.933813">
<ele>1004.751</ele>
<time>2020-09-12T09:56:34Z</time>
</trkpt>
<trkpt lat="47.390331" lon="10.933832">
<ele>1005.095</ele>
<time>2020-09-12T09:56:35Z</time>
</trkpt>
<trkpt lat="47.39032" lon="10.933848">
<ele>1005.338</ele>
<time>2020-09-12T09:56:36Z</time>
</trkpt>
<trkpt lat="47.390312" lon="10.933868">
<ele>1005.495</ele>
<time>2020-09-12T09:56:37Z</time>
</trkpt>
<trkpt lat="47.390297" lon="10.933889">
<ele>1005.596</ele>
<time>2020-09-12T09:56:38Z</time>
</trkpt>
<trkpt lat="47.390289" lon="10.933912">
<ele>1005.927</ele>
<time>2020-09-12T09:56:39Z</time>
</trkpt>
<trkpt lat="47.390282" lon="10.933931">
<ele>1006.212</ele>
<time>2020-09-12T09:56:40Z</time>
</trkpt>
<trkpt lat="47.39027" lon="10.933949">
<ele>1006.438</ele>
<time>2020-09-12T09:56:41Z</time>
</trkpt>
<trkpt lat="47.390255" lon="10.933963">
<ele>1006.603</ele>
<time>2020-09-12T09:56:42Z</time>
</trkpt>
<trkpt lat="47.390251" lon="10.933982">
<ele>1006.709</ele>
<time>2020-09-12T09:56:43Z</time>
</trkpt>
<trkpt lat="47.39024" lon="10.934002">
<ele>1006.786</ele>
<time>2020-09-12T09:56:44Z</time>
</trkpt>
<trkpt lat="47.390232" lon="10.934023">
<ele>1006.833</ele>
<time>2020-09-12T09:56:45Z</time>
</trkpt>
<trkpt lat="47.390221" lon="10.934045">
<ele>1007.126</ele>
<time>2020-09-12T09:56:46Z</time>
</trkpt>
<trkpt lat="47.390213" lon="10.934065">
<ele>1007.37</ele>
<time>2020-09-12T09:56:47Z</time>
</trkpt>
<trkpt lat="47.390198" lon="10.934085">
<ele>1007.545</ele>
<time>2020-09-12T09:56:48Z</time>
</trkpt>
<trkpt lat="47.39019" lon="10.934109">
<ele>1007.661</ele>
<time>2020-09-12T09:56:49Z</time>
</trkpt>
<trkpt lat="47.390179" lon="10.934128">
<ele>1007.784</ele>
<time>2020-09-12T09:56:50Z</time>
</trkpt>
<trkpt lat="47.390163" lon="10.93415">
<ele>1008.129</ele>
<time>2020-09-12T09:56:51Z</time>
</trkpt>
<trkpt lat="47.390152" lon="10.934168">
<ele>1008.395</ele>
<time>2020-09-12T09:56:52Z</time>
</trkpt>
<trkpt lat="47.390141" lon="10.934189">
<ele>1008.587</ele>
<time>2020-09-12T09:56:53Z</time>
</trkpt>
<trkpt lat="47.390125" lon="10.934207">
<ele>1008.792</ele>
<time>2020-09-12T09:56:54Z</time>
</trkpt>
<trkpt lat="47.390118" lon="10.934227">
<ele>1008.891</ele>
<time>2020-09-12T09:56:55Z</time>
</trkpt>
<trkpt lat="47.390102" lon="10.934248">
<ele>1008.924</ele>
<time>2020-09-12T09:56:56Z</time>
</trkpt>
<trkpt lat="47.390091" lon="10.93427">
<ele>1009.219</ele>
<time>2020-09-12T09:56:57Z</time>
</trkpt>
<trkpt lat="47.390079" lon="10.934292">
<ele>1009.419</ele>
<time>2020-09-12T09:56:58Z</time>
</trkpt>
<trkpt lat="47.390064" lon="10.934313">
<ele>1009.553</ele>
<time>2020-09-12T09:56:59Z</time>
</trkpt>
<trkpt lat="47.390053" lon="10.934335">
<ele>1009.698</ele>
<time>2020-09-12T09:57:00Z</time>
</trkpt>
<trkpt lat="47.390041" lon="10.934359">
<ele>1010.043</ele>
<time>2020-09-12T09:57:01Z</time>
</trkpt>
<trkpt lat="47.39003" lon="10.93438">
<ele>1010.311</ele>
<time>2020-09-12T09:57:02Z</time>
</trkpt>
<trkpt lat="47.390018" lon="10.934401">
<ele>1010.516</ele>
<time>2020-09-12T09:57:03Z</time>
</trkpt>
<trkpt lat="47.390007" lon="10.934419">
<ele>1010.659</ele>
<time>2020-09-12T09:57:04Z</time>
</trkpt>
<trkpt lat="47.389996" lon="10.934439">
<ele>1010.805</ele>
<time>2020-09-12T09:57:05Z</time>
</trkpt>
<trkpt lat="47.389988" lon="10.934459">
<ele>1010.85</ele>
<time>2020-09-12T09:57:06Z</time>
</trkpt>
<trkpt lat="47.389977" lon="10.934476">
<ele>1011.117</ele>
<time>2020-09-12T09:57:07Z</time>
</trkpt>
<trkpt lat="47.389965" lon="10.934493">
<ele>1011.327</ele>
<time>2020-09-12T09:57:08Z</time>
</trkpt>
<trkpt lat="47.389957" lon="10.934511">
<ele>1011.464</ele>
<time>2020-09-12T09:57:09Z</time>
</trkpt>
<trkpt lat="47.389942" lon="10.934532">
<ele>1011.863</ele>
<time>2020-09-12T09:57:10Z</time>
</trkpt>
<trkpt lat="47.389931" lon="10.934549">
<ele>1012.186</ele>
<time>2020-09-12T09:57:11Z</time>
</trkpt>
<trkpt lat="47.389919" lon="10.934568">
<ele>1012.444</ele>
<time>2020-09-12T09:57:12Z</time>
</trkpt>
<trkpt lat="47.389908" lon="10.934585">
<ele>1012.629</ele>
<time>2020-09-12T09:57:13Z</time>
</trkpt>
<trkpt lat="47.389896" lon="10.934602">
<ele>1012.738</ele>
<time>2020-09-12T09:57:14Z</time>
</trkpt>
<trkpt lat="47.389885" lon="10.934618">
<ele>1013.069</ele>
<time>2020-09-12T09:57:15Z</time>
</trkpt>
<trkpt lat="47.389874" lon="10.934635">
<ele>1013.331</ele>
<time>2020-09-12T09:57:16Z</time>
</trkpt>
<trkpt lat="47.389862" lon="10.934653">
<ele>1013.518</ele>
<time>2020-09-12T09:57:17Z</time>
</trkpt>
<trkpt lat="47.389851" lon="10.934669">
<ele>1013.652</ele>
<time>2020-09-12T09:57:18Z</time>
</trkpt>
<trkpt lat="47.389839" lon="10.934685">
<ele>1013.739</ele>
<time>2020-09-12T09:57:19Z</time>
</trkpt>
<trkpt lat="47.389832" lon="10.934702">
<ele>1014.066</ele>
<time>2020-09-12T09:57:20Z</time>
</trkpt>
<trkpt lat="47.38982" lon="10.93472">
<ele>1014.328</ele>
<time>2020-09-12T09:57:21Z</time>
</trkpt>
<trkpt lat="47.389805" lon="10.934738">
<ele>1014.53</ele>
<time>2020-09-12T09:57:22Z</time>
</trkpt>
<trkpt lat="47.389797" lon="10.934754">
<ele>1014.668</ele>
<time>2020-09-12T09:57:23Z</time>
</trkpt>
<trkpt lat="47.389786" lon="10.93477">
<ele>1014.753</ele>
<time>2020-09-12T09:57:24Z</time>
</trkpt>
<trkpt lat="47.389771" lon="10.934787">
<ele>1015.082</ele>
<time>2020-09-12T09:57:25Z</time>
</trkpt>
<trkpt lat="47.389767" lon="10.934807">
<ele>1015.35</ele>
<time>2020-09-12T09:57:26Z</time>
</trkpt>
<trkpt lat="47.389751" lon="10.934823">
<ele>1015.539</ele>
<time>2020-09-12T09:57:27Z</time>
</trkpt>
<trkpt lat="47.38974" lon="10.934842">
<ele>1015.671</ele>
<time>2020-09-12T09:57:28Z</time>
</trkpt>
<trkpt lat="47.389732" lon="10.934859">
<ele>1015.753</ele>
<time>2020-09-12T09:57:29Z</time>
</trkpt>
<trkpt lat="47.389717" lon="10.934878">
<ele>1016.089</ele>
<time>2020-09-12T09:57:30Z</time>
</trkpt>
<trkpt lat="47.389706" lon="10.934895">
<ele>1016.356</ele>
<time>2020-09-12T09:57:31Z</time>
</trkpt>
<trkpt lat="47.389698" lon="10.934914">
<ele>1016.555</ele>
<time>2020-09-12T09:57:32Z</time>
</trkpt>
<trkpt lat="47.389683" lon="10.93493">
<ele>1016.683</ele>
<time>2020-09-12T09:57:33Z</time>
</trkpt>
<trkpt lat="47.389671" lon="10.934949">
<ele>1016.766</ele>
<time>2020-09-12T09:57:34Z</time>
</trkpt>
<trkpt lat="47.389664" lon="10.934965">
<ele>1017.075</ele>
<time>2020-09-12T09:57:35Z</time>
</trkpt>
<trkpt lat="47.389645" lon="10.934985">
<ele>1017.318</ele>
<time>2020-09-12T09:57:36Z</time>
</trkpt>
<trkpt lat="47.389633" lon="10.934998">
<ele>1017.502</ele>
<time>2020-09-12T09:57:37Z</time>
</trkpt>
<trkpt lat="47.389626" lon="10.935017">
<ele>1017.597</ele>
<time>2020-09-12T09:57:38Z</time>
</trkpt>
<trkpt lat="47.389614" lon="10.935033">
<ele>1017.945</ele>
<time>2020-09-12T09:57:39Z</time>
</trkpt>
<trkpt lat="47.389603" lon="10.935052">
<ele>1018.25</ele>
<time>2020-09-12T09:57:40Z</time>
</trkpt>
<trkpt lat="47.389595" lon="10.935068">
<ele>1018.49</ele>
<time>2020-09-12T09:57:41Z</time>
</trkpt>
<trkpt lat="47.38958" lon="10.935083">
<ele>1018.663</ele>
<time>2020-09-12T09:57:42Z</time>
</trkpt>
<trkpt lat="47.389572" lon="10.935101">
<ele>1018.776</ele>
<time>2020-09-12T09:57:43Z</time>
</trkpt>
<trkpt lat="47.389561" lon="10.935117">
<ele>1018.847</ele>
<time>2020-09-12T09:57:44Z</time>
</trkpt>
<trkpt lat="47.389553" lon="10.935136">
<ele>1019.164</ele>
<time>2020-09-12T09:57:45Z</time>
</trkpt>
<trkpt lat="47.389538" lon="10.935152">
<ele>1019.401</ele>
<time>2020-09-12T09:57:46Z</time>
</trkpt>
<trkpt lat="47.389526" lon="10.935165">
<ele>1019.579</ele>
<time>2020-09-12T09:57:47Z</time>
</trkpt>
<trkpt lat="47.389515" lon="10.935182">
<ele>1019.679</ele>
<time>2020-09-12T09:57:48Z</time>
</trkpt>
<trkpt lat="47.389503" lon="10.935201">
<ele>1020.041</ele>
<time>2020-09-12T09:57:49Z</time>
</trkpt>
<trkpt lat="47.389492" lon="10.935217">
<ele>1020.362</ele>
<time>2020-09-12T09:57:50Z</time>
</trkpt>
<trkpt lat="47.389477" lon="10.935235">
<ele>1020.609</ele>
<time>2020-09-12T09:57:51Z</time>
</trkpt>
<trkpt lat="47.389465" lon="10.935251">
<ele>1020.761</ele>
<time>2020-09-12T09:57:52Z</time>
</trkpt>
<trkpt lat="47.389454" lon="10.935268">
<ele>1021.153</ele>
<time>2020-09-12T09:57:53Z</time>
</trkpt>
<trkpt lat="47.389442" lon="10.935285">
<ele>1021.466</ele>
<time>2020-09-12T09:57:54Z</time>
</trkpt>
<trkpt lat="47.389431" lon="10.935302">
<ele>1021.708</ele>
<time>2020-09-12T09:57:55Z</time>
</trkpt>
<trkpt lat="47.389416" lon="10.935318">
<ele>1021.851</ele>
<time>2020-09-12T09:57:56Z</time>
</trkpt>
<trkpt lat="47.389408" lon="10.935333">
<ele>1022.253</ele>
<time>2020-09-12T09:57:57Z</time>
</trkpt>
<trkpt lat="47.389393" lon="10.935349">
<ele>1022.523</ele>
<time>2020-09-12T09:57:58Z</time>
</trkpt>
<trkpt lat="47.389381" lon="10.935367">
<ele>1022.715</ele>
<time>2020-09-12T09:57:59Z</time>
</trkpt>
<trkpt lat="47.38937" lon="10.935381">
<ele>1022.895</ele>
<time>2020-09-12T09:58:00Z</time>
</trkpt>
<trkpt lat="47.389355" lon="10.935395">
<ele>1023.012</ele>
<time>2020-09-12T09:58:01Z</time>
</trkpt>
<trkpt lat="47.389343" lon="10.93541">
<ele>1023.083</ele>
<time>2020-09-12T09:58:02Z</time>
</trkpt>
<trkpt lat="47.389332" lon="10.935423">
<ele>1023.358</ele>
<time>2020-09-12T09:58:03Z</time>
</trkpt>
<trkpt lat="47.389313" lon="10.93544">
<ele>1023.576</ele>
<time>2020-09-12T09:58:04Z</time>
</trkpt>
<trkpt lat="47.389301" lon="10.935456">
<ele>1023.773</ele>
<time>2020-09-12T09:58:05Z</time>
</trkpt>
<trkpt lat="47.389286" lon="10.935475">
<ele>1023.858</ele>
<time>2020-09-12T09:58:06Z</time>
</trkpt>
<trkpt lat="47.389275" lon="10.935493">
<ele>1024.203</ele>
<time>2020-09-12T09:58:07Z</time>
</trkpt>
<trkpt lat="47.389259" lon="10.935511">
<ele>1024.476</ele>
<time>2020-09-12T09:58:08Z</time>
</trkpt>
<trkpt lat="47.389244" lon="10.935528">
<ele>1024.662</ele>
<time>2020-09-12T09:58:09Z</time>
</trkpt>
<trkpt lat="47.389236" lon="10.935543">
<ele>1024.825</ele>
<time>2020-09-12T09:58:10Z</time>
</trkpt>
<trkpt lat="47.389221" lon="10.935558">
<ele>1025.177</ele>
<time>2020-09-12T09:58:11Z</time>
</trkpt>
<trkpt lat="47.389214" lon="10.935575">
<ele>1025.453</ele>
<time>2020-09-12T09:58:12Z</time>
</trkpt>
<trkpt lat="47.389198" lon="10.935592">
<ele>1025.678</ele>
<time>2020-09-12T09:58:13Z</time>
</trkpt>
<trkpt lat="47.389183" lon="10.935605">
<ele>1025.809</ele>
<time>2020-09-12T09:58:14Z</time>
</trkpt>
<trkpt lat="47.389168" lon="10.93562">
<ele>1026.256</ele>
<time>2020-09-12T09:58:15Z</time>
</trkpt>
<trkpt lat="47.389153" lon="10.935635">
<ele>1026.549</ele>
<time>2020-09-12T09:58:16Z</time>
</trkpt>
<trkpt lat="47.389141" lon="10.93565">
<ele>1026.741</ele>
<time>2020-09-12T09:58:17Z</time>
</trkpt>
<trkpt lat="47.389126" lon="10.935666">
<ele>1026.865</ele>
<time>2020-09-12T09:58:18Z</time>
</trkpt>
<trkpt lat="47.389114" lon="10.935685">
<ele>1026.944</ele>
<time>2020-09-12T09:58:19Z</time>
</trkpt>
<trkpt lat="47.389103" lon="10.935703">
<ele>1027.028</ele>
<time>2020-09-12T09:58:20Z</time>
</trkpt>
<trkpt lat="47.389091" lon="10.935722">
<ele>1027.305</ele>
<time>2020-09-12T09:58:21Z</time>
</trkpt>
<trkpt lat="47.38908" lon="10.93574">
<ele>1027.52</ele>
<time>2020-09-12T09:58:22Z</time>
</trkpt>
<trkpt lat="47.389065" lon="10.935757">
<ele>1027.756</ele>
<time>2020-09-12T09:58:23Z</time>
</trkpt>
<trkpt lat="47.38905" lon="10.935773">
<ele>1027.876</ele>
<time>2020-09-12T09:58:24Z</time>
</trkpt>
<trkpt lat="47.389034" lon="10.935792">
<ele>1027.943</ele>
<time>2020-09-12T09:58:25Z</time>
</trkpt>
<trkpt lat="47.389019" lon="10.935806">
<ele>1028.264</ele>
<time>2020-09-12T09:58:26Z</time>
</trkpt>
<trkpt lat="47.389011" lon="10.935821">
<ele>1028.493</ele>
<time>2020-09-12T09:58:27Z</time>
</trkpt>
<trkpt lat="47.389004" lon="10.935838">
<ele>1028.65</ele>
<time>2020-09-12T09:58:28Z</time>
</trkpt>
<trkpt lat="47.388992" lon="10.935859">
<ele>1028.754</ele>
<time>2020-09-12T09:58:29Z</time>
</trkpt>
<trkpt lat="47.388977" lon="10.935877">
<ele>1028.863</ele>
<time>2020-09-12T09:58:30Z</time>
</trkpt>
<trkpt lat="47.388962" lon="10.935895">
<ele>1029.212</ele>
<time>2020-09-12T09:58:31Z</time>
</trkpt>
<trkpt lat="47.388947" lon="10.935913">
<ele>1029.505</ele>
<time>2020-09-12T09:58:32Z</time>
</trkpt>
<trkpt lat="47.388931" lon="10.935934">
<ele>1029.727</ele>
<time>2020-09-12T09:58:33Z</time>
</trkpt>
<trkpt lat="47.38892" lon="10.93595">
<ele>1029.968</ele>
<time>2020-09-12T09:58:34Z</time>
</trkpt>
<trkpt lat="47.388912" lon="10.935966">
<ele>1030.051</ele>
<time>2020-09-12T09:58:35Z</time>
</trkpt>
<trkpt lat="47.388897" lon="10.935984">
<ele>1030.346</ele>
<time>2020-09-12T09:58:36Z</time>
</trkpt>
<trkpt lat="47.388885" lon="10.936004">
<ele>1030.531</ele>
<time>2020-09-12T09:58:37Z</time>
</trkpt>
<trkpt lat="47.388874" lon="10.93602">
<ele>1030.688</ele>
<time>2020-09-12T09:58:38Z</time>
</trkpt>
<trkpt lat="47.388863" lon="10.936035">
<ele>1030.788</ele>
<time>2020-09-12T09:58:39Z</time>
</trkpt>
<trkpt lat="47.388851" lon="10.936049">
<ele>1031.178</ele>
<time>2020-09-12T09:58:40Z</time>
</trkpt>
<trkpt lat="47.38884" lon="10.93607">
<ele>1031.505</ele>
<time>2020-09-12T09:58:41Z</time>
</trkpt>
<trkpt lat="47.388824" lon="10.936089">
<ele>1031.768</ele>
<time>2020-09-12T09:58:42Z</time>
</trkpt>
<trkpt lat="47.388813" lon="10.936104">
<ele>1031.951</ele>
<time>2020-09-12T09:58:43Z</time>
</trkpt>
<trkpt lat="47.388798" lon="10.936116">
<ele>1032.069</ele>
<time>2020-09-12T09:58:44Z</time>
</trkpt>
<trkpt lat="47.388786" lon="10.936133">
<ele>1032.163</ele>
<time>2020-09-12T09:58:45Z</time>
</trkpt>
<trkpt lat="47.388771" lon="10.93615">
<ele>1032.221</ele>
<time>2020-09-12T09:58:46Z</time>
</trkpt>
<trkpt lat="47.38876" lon="10.936172">
<ele>1032.247</ele>
<time>2020-09-12T09:58:47Z</time>
</trkpt>
<trkpt lat="47.388752" lon="10.936192">
<ele>1032.471</ele>
<time>2020-09-12T09:58:48Z</time>
</trkpt>
<trkpt lat="47.388741" lon="10.936212">
<ele>1032.63</ele>
<time>2020-09-12T09:58:49Z</time>
</trkpt>
<trkpt lat="47.388725" lon="10.936232">
<ele>1032.794</ele>
<time>2020-09-12T09:58:50Z</time>
</trkpt>
<trkpt lat="47.388721" lon="10.936253">
<ele>1032.928</ele>
<time>2020-09-12T09:58:51Z</time>
</trkpt>
<trkpt lat="47.38871" lon="10.936275">
<ele>1033.027</ele>
<time>2020-09-12T09:58:52Z</time>
</trkpt>
<trkpt lat="47.388699" lon="10.936295">
<ele>1033.088</ele>
<time>2020-09-12T09:58:53Z</time>
</trkpt>
<trkpt lat="47.388691" lon="10.936317">
<ele>1033.41</ele>
<time>2020-09-12T09:58:54Z</time>
</trkpt>
<trkpt lat="47.38868" lon="10.936335">
<ele>1033.654</ele>
<time>2020-09-12T09:58:55Z</time>
</trkpt>
<trkpt lat="47.388664" lon="10.936357">
<ele>1033.87</ele>
<time>2020-09-12T09:58:56Z</time>
</trkpt>
<trkpt lat="47.388657" lon="10.93638">
<ele>1034.001</ele>
<time>2020-09-12T09:58:57Z</time>
</trkpt>
<trkpt lat="47.388645" lon="10.936399">
<ele>1034.08</ele>
<time>2020-09-12T09:58:58Z</time>
</trkpt>
<trkpt lat="47.388634" lon="10.93642">
<ele>1034.4</ele>
<time>2020-09-12T09:58:59Z</time>
</trkpt>
<trkpt lat="47.388626" lon="10.93644">
<ele>1034.677</ele>
<time>2020-09-12T09:59:00Z</time>
</trkpt>
<trkpt lat="47.388615" lon="10.936461">
<ele>1034.884</ele>
<time>2020-09-12T09:59:01Z</time>
</trkpt>
<trkpt lat="47.388599" lon="10.936483">
<ele>1035.018</ele>
<time>2020-09-12T09:59:02Z</time>
</trkpt>
<trkpt lat="47.388592" lon="10.936506">
<ele>1035.108</ele>
<time>2020-09-12T09:59:03Z</time>
</trkpt>
<trkpt lat="47.388577" lon="10.936527">
<ele>1035.417</ele>
<time>2020-09-12T09:59:04Z</time>
</trkpt>
<trkpt lat="47.388565" lon="10.936548">
<ele>1035.664</ele>
<time>2020-09-12T09:59:05Z</time>
</trkpt>
<trkpt lat="47.388557" lon="10.936571">
<ele>1035.848</ele>
<time>2020-09-12T09:59:06Z</time>
</trkpt>
<trkpt lat="47.388542" lon="10.936597">
<ele>1035.965</ele>
<time>2020-09-12T09:59:07Z</time>
</trkpt>
<trkpt lat="47.388531" lon="10.936622">
<ele>1036.305</ele>
<time>2020-09-12T09:59:08Z</time>
</trkpt>
<trkpt lat="47.388523" lon="10.936648">
<ele>1036.547</ele>
<time>2020-09-12T09:59:09Z</time>
</trkpt>
<trkpt lat="47.388512" lon="10.936671">
<ele>1036.775</ele>
<time>2020-09-12T09:59:10Z</time>
</trkpt>
<trkpt lat="47.388496" lon="10.936695">
<ele>1036.942</ele>
<time>2020-09-12T09:59:11Z</time>
</trkpt>
<trkpt lat="47.388489" lon="10.936713">
<ele>1037.053</ele>
<time>2020-09-12T09:59:12Z</time>
</trkpt>
<trkpt lat="47.388474" lon="10.936733">
<ele>1037.124</ele>
<time>2020-09-12T09:59:13Z</time>
</trkpt>
<trkpt lat="47.388462" lon="10.936755">
<ele>1037.488</ele>
<time>2020-09-12T09:59:14Z</time>
</trkpt>
<trkpt lat="47.388447" lon="10.936778">
<ele>1037.771</ele>
<time>2020-09-12T09:59:15Z</time>
</trkpt>
<trkpt lat="47.388439" lon="10.936799">
<ele>1038.031</ele>
<time>2020-09-12T09:59:16Z</time>
</trkpt>
<trkpt lat="47.388428" lon="10.936822">
<ele>1038.185</ele>
<time>2020-09-12T09:59:17Z</time>
</trkpt>
<trkpt lat="47.38842" lon="10.936845">
<ele>1038.272</ele>
<time>2020-09-12T09:59:18Z</time>
</trkpt>
<trkpt lat="47.388409" lon="10.936867">
<ele>1038.606</ele>
<time>2020-09-12T09:59:19Z</time>
</trkpt>
<trkpt lat="47.388397" lon="10.93689">
<ele>1038.896</ele>
<time>2020-09-12T09:59:20Z</time>
</trkpt>
<trkpt lat="47.388386" lon="10.936911">
<ele>1039.098</ele>
<time>2020-09-12T09:59:21Z</time>
</trkpt>
<trkpt lat="47.388374" lon="10.936929">
<ele>1039.233</ele>
<time>2020-09-12T09:59:22Z</time>
</trkpt>
<trkpt lat="47.388363" lon="10.936948">
<ele>1039.347</ele>
<time>2020-09-12T09:59:23Z</time>
</trkpt>
<trkpt lat="47.388351" lon="10.93697">
<ele>1039.428</ele>
<time>2020-09-12T09:59:24Z</time>
</trkpt>
<trkpt lat="47.38834" lon="10.936992">
<ele>1039.475</ele>
<time>2020-09-12T09:59:25Z</time>
</trkpt>
<trkpt lat="47.388332" lon="10.937016">
<ele>1039.5</ele>
<time>2020-09-12T09:59:26Z</time>
</trkpt>
<trkpt lat="47.388325" lon="10.937042">
<ele>1039.5</ele>
<time>2020-09-12T09:59:27Z</time>
</trkpt>
<trkpt lat="47.388313" lon="10.937065">
<ele>1039.768</ele>
<time>2020-09-12T09:59:28Z</time>
</trkpt>
<trkpt lat="47.388306" lon="10.937086">
<ele>1039.964</ele>
<time>2020-09-12T09:59:29Z</time>
</trkpt>
<trkpt lat="47.388298" lon="10.93711">
<ele>1040.161</ele>
<time>2020-09-12T09:59:30Z</time>
</trkpt>
<trkpt lat="47.38829" lon="10.937132">
<ele>1040.298</ele>
<time>2020-09-12T09:59:31Z</time>
</trkpt>
<trkpt lat="47.388283" lon="10.937152">
<ele>1040.684</ele>
<time>2020-09-12T09:59:32Z</time>
</trkpt>
<trkpt lat="47.388275" lon="10.937175">
<ele>1040.995</ele>
<time>2020-09-12T09:59:33Z</time>
</trkpt>
<trkpt lat="47.388268" lon="10.937197">
<ele>1041.235</ele>
<time>2020-09-12T09:59:34Z</time>
</trkpt>
<trkpt lat="47.388256" lon="10.937222">
<ele>1041.42</ele>
<time>2020-09-12T09:59:35Z</time>
</trkpt>
<trkpt lat="47.388248" lon="10.937245">
<ele>1041.575</ele>
<time>2020-09-12T09:59:36Z</time>
</trkpt>
<trkpt lat="47.388241" lon="10.937264">
<ele>1041.636</ele>
<time>2020-09-12T09:59:37Z</time>
</trkpt>
<trkpt lat="47.388233" lon="10.937285">
<ele>1041.672</ele>
<time>2020-09-12T09:59:38Z</time>
</trkpt>
<trkpt lat="47.388222" lon="10.937304">
<ele>1041.93</ele>
<time>2020-09-12T09:59:39Z</time>
</trkpt>
<trkpt lat="47.38821" lon="10.937328">
<ele>1042.143</ele>
<time>2020-09-12T09:59:40Z</time>
</trkpt>
<trkpt lat="47.388206" lon="10.937352">
<ele>1042.311</ele>
<time>2020-09-12T09:59:41Z</time>
</trkpt>
<trkpt lat="47.388203" lon="10.937375">
<ele>1042.451</ele>
<time>2020-09-12T09:59:42Z</time>
</trkpt>
<trkpt lat="47.388191" lon="10.937398">
<ele>1042.559</ele>
<time>2020-09-12T09:59:43Z</time>
</trkpt>
<trkpt lat="47.38818" lon="10.937422">
<ele>1042.631</ele>
<time>2020-09-12T09:59:44Z</time>
</trkpt>
<trkpt lat="47.388168" lon="10.937445">
<ele>1042.917</ele>
<time>2020-09-12T09:59:45Z</time>
</trkpt>
<trkpt lat="47.388165" lon="10.937467">
<ele>1043.129</ele>
<time>2020-09-12T09:59:46Z</time>
</trkpt>
<trkpt lat="47.388157" lon="10.937487">
<ele>1043.298</ele>
<time>2020-09-12T09:59:47Z</time>
</trkpt>
<trkpt lat="47.388145" lon="10.93751">
<ele>1043.403</ele>
<time>2020-09-12T09:59:48Z</time>
</trkpt>
<trkpt lat="47.388138" lon="10.937533">
<ele>1043.483</ele>
<time>2020-09-12T09:59:49Z</time>
</trkpt>
<trkpt lat="47.38813" lon="10.937556">
<ele>1043.827</ele>
<time>2020-09-12T09:59:50Z</time>
</trkpt>
<trkpt lat="47.388119" lon="10.93758">
<ele>1044.099</ele>
<time>2020-09-12T09:59:51Z</time>
</trkpt>
<trkpt lat="47.388107" lon="10.937606">
<ele>1044.313</ele>
<time>2020-09-12T09:59:52Z</time>
</trkpt>
<trkpt lat="47.3881" lon="10.93763">
<ele>1044.464</ele>
<time>2020-09-12T09:59:53Z</time>
</trkpt>
<trkpt lat="47.388092" lon="10.937652">
<ele>1044.583</ele>
<time>2020-09-12T09:59:54Z</time>
</trkpt>
<trkpt lat="47.388084" lon="10.937674">
<ele>1044.65</ele>
<time>2020-09-12T09:59:55Z</time>
</trkpt>
<trkpt lat="47.388077" lon="10.937696">
<ele>1044.949</ele>
<time>2020-09-12T09:59:56Z</time>
</trkpt>
<trkpt lat="47.388069" lon="10.937716">
<ele>1045.179</ele>
<time>2020-09-12T09:59:57Z</time>
</trkpt>
<trkpt lat="47.388062" lon="10.93774">
<ele>1045.346</ele>
<time>2020-09-12T09:59:58Z</time>
</trkpt>
<trkpt lat="47.388054" lon="10.937761">
<ele>1045.455</ele>
<time>2020-09-12T09:59:59Z</time>
</trkpt>
<trkpt lat="47.388042" lon="10.937783">
<ele>1045.565</ele>
<time>2020-09-12T10:00:00Z</time>
</trkpt>
<trkpt lat="47.388039" lon="10.937807">
<ele>1045.899</ele>
<time>2020-09-12T10:00:01Z</time>
</trkpt>
<trkpt lat="47.388031" lon="10.93783">
<ele>1046.171</ele>
<time>2020-09-12T10:00:02Z</time>
</trkpt>
<trkpt lat="47.388023" lon="10.937857">
<ele>1046.375</ele>
<time>2020-09-12T10:00:03Z</time>
</trkpt>
<trkpt lat="47.38802" lon="10.937888">
<ele>1046.556</ele>
<time>2020-09-12T10:00:04Z</time>
</trkpt>
<trkpt lat="47.388012" lon="10.93792">
<ele>1046.929</ele>
<time>2020-09-12T10:00:05Z</time>
</trkpt>
<trkpt lat="47.388012" lon="10.937952">
<ele>1047.182</ele>
<time>2020-09-12T10:00:06Z</time>
</trkpt>
<trkpt lat="47.388008" lon="10.937984">
<ele>1047.36</ele>
<time>2020-09-12T10:00:07Z</time>
</trkpt>
<trkpt lat="47.388004" lon="10.938013">
<ele>1047.441</ele>
<time>2020-09-12T10:00:08Z</time>
</trkpt>
<trkpt lat="47.387997" lon="10.938042">
<ele>1047.771</ele>
<time>2020-09-12T10:00:09Z</time>
</trkpt>
<trkpt lat="47.387985" lon="10.938066">
<ele>1048.054</ele>
<time>2020-09-12T10:00:10Z</time>
</trkpt>
<trkpt lat="47.387974" lon="10.93809">
<ele>1048.262</ele>
<time>2020-09-12T10:00:11Z</time>
</trkpt>
<trkpt lat="47.387966" lon="10.938113">
<ele>1048.42</ele>
<time>2020-09-12T10:00:12Z</time>
</trkpt>
<trkpt lat="47.387955" lon="10.938135">
<ele>1048.513</ele>
<time>2020-09-12T10:00:13Z</time>
</trkpt>
<trkpt lat="47.387939" lon="10.938153">
<ele>1048.838</ele>
<time>2020-09-12T10:00:14Z</time>
</trkpt>
<trkpt lat="47.387928" lon="10.938169">
<ele>1049.097</ele>
<time>2020-09-12T10:00:15Z</time>
</trkpt>
<trkpt lat="47.387917" lon="10.938189">
<ele>1049.295</ele>
<time>2020-09-12T10:00:16Z</time>
</trkpt>
<trkpt lat="47.387901" lon="10.938205">
<ele>1049.446</ele>
<time>2020-09-12T10:00:17Z</time>
</trkpt>
<trkpt lat="47.387886" lon="10.938224">
<ele>1049.524</ele>
<time>2020-09-12T10:00:18Z</time>
</trkpt>
<trkpt lat="47.387875" lon="10.938238">
<ele>1049.855</ele>
<time>2020-09-12T10:00:19Z</time>
</trkpt>
<trkpt lat="47.387856" lon="10.938241">
<ele>1050.142</ele>
<time>2020-09-12T10:00:20Z</time>
</trkpt>
<trkpt lat="47.38784" lon="10.938236">
<ele>1050.365</ele>
<time>2020-09-12T10:00:21Z</time>
</trkpt>
<trkpt lat="47.387825" lon="10.938224">
<ele>1050.521</ele>
<time>2020-09-12T10:00:22Z</time>
</trkpt>
<trkpt lat="47.38781" lon="10.938209">
<ele>1050.636</ele>
<time>2020-09-12T10:00:23Z</time>
</trkpt>
<trkpt lat="47.387802" lon="10.938192">
<ele>1050.72</ele>
<time>2020-09-12T10:00:24Z</time>
</trkpt>
<trkpt lat="47.387787" lon="10.938175">
<ele>1050.773</ele>
<time>2020-09-12T10:00:25Z</time>
</trkpt>
<trkpt lat="47.387779" lon="10.938159">
<ele>1050.801</ele>
<time>2020-09-12T10:00:26Z</time>
</trkpt>
<trkpt lat="47.387768" lon="10.938142">
<ele>1050.801</ele>
<time>2020-09-12T10:00:27Z</time>
</trkpt>
<trkpt lat="47.38776" lon="10.938128">
<ele>1050.801</ele>
<time>2020-09-12T10:00:28Z</time>
</trkpt>
<trkpt lat="47.387749" lon="10.938113">
<ele>1050.801</ele>
<time>2020-09-12T10:00:29Z</time>
</trkpt>
<trkpt lat="47.387745" lon="10.938102">
<ele>1050.801</ele>
<time>2020-09-12T10:00:30Z</time>
</trkpt>
<trkpt lat="47.387741" lon="10.93809">
<ele>1050.801</ele>
<time>2020-09-12T10:00:31Z</time>
</trkpt>
<trkpt lat="47.387733" lon="10.938084">
<ele>1050.801</ele>
<time>2020-09-12T10:00:32Z</time>
</trkpt>
<trkpt lat="47.387722" lon="10.938075">
<ele>1050.801</ele>
<time>2020-09-12T10:00:33Z</time>
</trkpt>
<trkpt lat="47.387714" lon="10.93807">
<ele>1050.801</ele>
<time>2020-09-12T10:00:34Z</time>
</trkpt>
<trkpt lat="47.387711" lon="10.938075">
<ele>1050.801</ele>
<time>2020-09-12T10:00:35Z</time>
</trkpt>
<trkpt lat="47.387711" lon="10.938073">
<ele>1050.801</ele>
<time>2020-09-12T10:00:36Z</time>
</trkpt>
<trkpt lat="47.387711" lon="10.938071">
<ele>1050.801</ele>
<time>2020-09-12T10:00:37Z</time>
</trkpt>
<trkpt lat="47.387711" lon="10.938086">
<ele>1050.801</ele>
<time>2020-09-12T10:00:45Z</time>
</trkpt>
<trkpt lat="47.387703" lon="10.938082">
<ele>1050.801</ele>
<time>2020-09-12T10:00:46Z</time>
</trkpt>
<trkpt lat="47.387691" lon="10.938078">
<ele>1050.801</ele>
<time>2020-09-12T10:00:47Z</time>
</trkpt>
<trkpt lat="47.38768" lon="10.938075">
<ele>1050.801</ele>
<time>2020-09-12T10:00:48Z</time>
</trkpt>
<trkpt lat="47.38768" lon="10.938071">
<ele>1050.801</ele>
<time>2020-09-12T10:00:49Z</time>
</trkpt>
<trkpt lat="47.387676" lon="10.938073">
<ele>1050.801</ele>
<time>2020-09-12T10:00:50Z</time>
</trkpt>
<trkpt lat="47.387672" lon="10.938073">
<ele>1050.801</ele>
<time>2020-09-12T10:00:51Z</time>
</trkpt>
<trkpt lat="47.38768" lon="10.938066">
<ele>1050.801</ele>
<time>2020-09-12T10:01:31Z</time>
</trkpt>
<trkpt lat="47.38768" lon="10.938062">
<ele>1050.801</ele>
<time>2020-09-12T10:01:32Z</time>
</trkpt>
<trkpt lat="47.38768" lon="10.938059">
<ele>1050.801</ele>
<time>2020-09-12T10:01:34Z</time>
</trkpt>
<trkpt lat="47.38768" lon="10.938059">
<ele>1050.801</ele>
</trkpt>
</trkseg>
</trk>
</gpx>